<?xml version="1.0" encoding="UTF-8" standalone="no" ?>
<gpx xmlns="http://www.topografix.com/GPX/1/1" xmlns:xsi="http://www.w3.org/2001/XMLSchema-instance" xsi:schemaLocation="http://www.topografix.com/GPX/1/1 http://www.topografix.com/GPX/1/1/gpx.xsd" version="1.1" creator="VisuGPX - https://www.visugpx.com">
  <metadata>
    <name>Autour de St Martin Vésubie (Archas, Boréon)</name>
  </metadata>
  <trk>
    <name><![CDATA[2ème partie UTCAM 50km-21612420]]></name>
    <trkseg>
      <trkpt lat="44.07157" lon="7.25398">
        <ele>970</ele>
        <time>2025-06-13T08:33:23Z</time>
      </trkpt>
      <trkpt lat="44.07169" lon="7.25377">
        <ele>971</ele>
        <time>2025-06-13T08:33:33Z</time>
      </trkpt>
      <trkpt lat="44.07163" lon="7.25369">
        <ele>970</ele>
        <time>2025-06-13T08:33:37Z</time>
      </trkpt>
      <trkpt lat="44.07163" lon="7.25366">
        <ele>969</ele>
        <time>2025-06-13T08:33:38Z</time>
      </trkpt>
      <trkpt lat="44.07163" lon="7.25362">
        <ele>969</ele>
        <time>2025-06-13T08:33:39Z</time>
      </trkpt>
      <trkpt lat="44.07167" lon="7.25353">
        <ele>969</ele>
        <time>2025-06-13T08:33:43Z</time>
      </trkpt>
      <trkpt lat="44.07177" lon="7.2533">
        <ele>970</ele>
        <time>2025-06-13T08:33:53Z</time>
      </trkpt>
      <trkpt lat="44.07187" lon="7.25313">
        <ele>971</ele>
        <time>2025-06-13T08:34:01Z</time>
      </trkpt>
      <trkpt lat="44.07202" lon="7.25296">
        <ele>972</ele>
        <time>2025-06-13T08:34:10Z</time>
      </trkpt>
      <trkpt lat="44.07216" lon="7.2528">
        <ele>973</ele>
        <time>2025-06-13T08:34:19Z</time>
      </trkpt>
      <trkpt lat="44.0725" lon="7.25245">
        <ele>974</ele>
        <time>2025-06-13T08:34:41Z</time>
      </trkpt>
      <trkpt lat="44.07265" lon="7.25229">
        <ele>975</ele>
        <time>2025-06-13T08:34:50Z</time>
      </trkpt>
      <trkpt lat="44.07274" lon="7.25222">
        <ele>975</ele>
        <time>2025-06-13T08:34:55Z</time>
      </trkpt>
      <trkpt lat="44.07287" lon="7.25217">
        <ele>976</ele>
        <time>2025-06-13T08:35:02Z</time>
      </trkpt>
      <trkpt lat="44.07298" lon="7.25214">
        <ele>977</ele>
        <time>2025-06-13T08:35:08Z</time>
      </trkpt>
      <trkpt lat="44.07312" lon="7.25213">
        <ele>979</ele>
        <time>2025-06-13T08:35:15Z</time>
      </trkpt>
      <trkpt lat="44.07317" lon="7.25215">
        <ele>981</ele>
        <time>2025-06-13T08:35:17Z</time>
      </trkpt>
      <trkpt lat="44.07329" lon="7.25208">
        <ele>981</ele>
        <time>2025-06-13T08:35:24Z</time>
      </trkpt>
      <trkpt lat="44.07336" lon="7.25202">
        <ele>981</ele>
        <time>2025-06-13T08:35:28Z</time>
      </trkpt>
      <trkpt lat="44.07342" lon="7.25193">
        <ele>980</ele>
        <time>2025-06-13T08:35:32Z</time>
      </trkpt>
      <trkpt lat="44.07345" lon="7.25183">
        <ele>978</ele>
        <time>2025-06-13T08:35:36Z</time>
      </trkpt>
      <trkpt lat="44.07349" lon="7.25178">
        <ele>977</ele>
        <time>2025-06-13T08:35:39Z</time>
      </trkpt>
      <trkpt lat="44.07405" lon="7.25129">
        <ele>982</ele>
        <time>2025-06-13T08:36:12Z</time>
      </trkpt>
      <trkpt lat="44.07412" lon="7.25118">
        <ele>981</ele>
        <time>2025-06-13T08:36:17Z</time>
      </trkpt>
      <trkpt lat="44.07413" lon="7.25111">
        <ele>981</ele>
        <time>2025-06-13T08:36:20Z</time>
      </trkpt>
      <trkpt lat="44.07413" lon="7.25096">
        <ele>979</ele>
        <time>2025-06-13T08:36:25Z</time>
      </trkpt>
      <trkpt lat="44.07404" lon="7.25059">
        <ele>981</ele>
        <time>2025-06-13T08:36:39Z</time>
      </trkpt>
      <trkpt lat="44.07401" lon="7.2504">
        <ele>983</ele>
        <time>2025-06-13T08:36:46Z</time>
      </trkpt>
      <trkpt lat="44.07401" lon="7.25033">
        <ele>984</ele>
        <time>2025-06-13T08:36:49Z</time>
      </trkpt>
      <trkpt lat="44.07404" lon="7.25022">
        <ele>986</ele>
        <time>2025-06-13T08:36:53Z</time>
      </trkpt>
      <trkpt lat="44.07426" lon="7.25007">
        <ele>987</ele>
        <time>2025-06-13T08:37:05Z</time>
      </trkpt>
      <trkpt lat="44.07462" lon="7.24985">
        <ele>991</ele>
        <time>2025-06-13T08:37:25Z</time>
      </trkpt>
      <trkpt lat="44.07485" lon="7.24973">
        <ele>992</ele>
        <time>2025-06-13T08:37:37Z</time>
      </trkpt>
      <trkpt lat="44.07497" lon="7.24969">
        <ele>993</ele>
        <time>2025-06-13T08:37:43Z</time>
      </trkpt>
      <trkpt lat="44.07521" lon="7.24967">
        <ele>994</ele>
        <time>2025-06-13T08:37:55Z</time>
      </trkpt>
      <trkpt lat="44.07551" lon="7.24962">
        <ele>997</ele>
        <time>2025-06-13T08:38:10Z</time>
      </trkpt>
      <trkpt lat="44.07623" lon="7.2498">
        <ele>1003</ele>
        <time>2025-06-13T08:38:47Z</time>
      </trkpt>
      <trkpt lat="44.07662" lon="7.24988">
        <ele>1007</ele>
        <time>2025-06-13T08:39:07Z</time>
      </trkpt>
      <trkpt lat="44.07666" lon="7.24967">
        <ele>1010</ele>
        <time>2025-06-13T08:39:15Z</time>
      </trkpt>
      <trkpt lat="44.07683" lon="7.24918">
        <ele>1017</ele>
        <time>2025-06-13T08:39:34Z</time>
      </trkpt>
      <trkpt lat="44.07694" lon="7.24864">
        <ele>1023</ele>
        <time>2025-06-13T08:39:54Z</time>
      </trkpt>
      <trkpt lat="44.07697" lon="7.24848">
        <ele>1025</ele>
        <time>2025-06-13T08:40:00Z</time>
      </trkpt>
      <trkpt lat="44.07712" lon="7.248">
        <ele>1033</ele>
        <time>2025-06-13T08:40:19Z</time>
      </trkpt>
      <trkpt lat="44.07718" lon="7.24773">
        <ele>1038</ele>
        <time>2025-06-13T08:40:29Z</time>
      </trkpt>
      <trkpt lat="44.07718" lon="7.24773">
        <ele>1038</ele>
        <time>2025-06-13T08:40:29Z</time>
      </trkpt>
      <trkpt lat="44.07729" lon="7.24744">
        <ele>1044</ele>
        <time>2025-06-13T08:40:41Z</time>
      </trkpt>
      <trkpt lat="44.07732" lon="7.24733">
        <ele>1048</ele>
        <time>2025-06-13T08:40:45Z</time>
      </trkpt>
      <trkpt lat="44.07733" lon="7.24722">
        <ele>1051</ele>
        <time>2025-06-13T08:40:49Z</time>
      </trkpt>
      <trkpt lat="44.07734" lon="7.2471">
        <ele>1054</ele>
        <time>2025-06-13T08:40:54Z</time>
      </trkpt>
      <trkpt lat="44.07735" lon="7.24686">
        <ele>1061</ele>
        <time>2025-06-13T08:41:02Z</time>
      </trkpt>
      <trkpt lat="44.07734" lon="7.2468">
        <ele>1063</ele>
        <time>2025-06-13T08:41:05Z</time>
      </trkpt>
      <trkpt lat="44.07729" lon="7.24675">
        <ele>1063</ele>
        <time>2025-06-13T08:41:08Z</time>
      </trkpt>
      <trkpt lat="44.07716" lon="7.2466">
        <ele>1067</ele>
        <time>2025-06-13T08:41:16Z</time>
      </trkpt>
      <trkpt lat="44.07718" lon="7.24648">
        <ele>1071</ele>
        <time>2025-06-13T08:41:20Z</time>
      </trkpt>
      <trkpt lat="44.07723" lon="7.24643">
        <ele>1073</ele>
        <time>2025-06-13T08:41:24Z</time>
      </trkpt>
      <trkpt lat="44.07717" lon="7.24626">
        <ele>1079</ele>
        <time>2025-06-13T08:41:30Z</time>
      </trkpt>
      <trkpt lat="44.07705" lon="7.24634">
        <ele>1076</ele>
        <time>2025-06-13T08:41:37Z</time>
      </trkpt>
      <trkpt lat="44.07704" lon="7.24626">
        <ele>1079</ele>
        <time>2025-06-13T08:41:40Z</time>
      </trkpt>
      <trkpt lat="44.07691" lon="7.24616">
        <ele>1082</ele>
        <time>2025-06-13T08:41:47Z</time>
      </trkpt>
      <trkpt lat="44.07701" lon="7.24609">
        <ele>1085</ele>
        <time>2025-06-13T08:41:53Z</time>
      </trkpt>
      <trkpt lat="44.07647" lon="7.24567">
        <ele>1105</ele>
        <time>2025-06-13T08:42:24Z</time>
      </trkpt>
      <trkpt lat="44.07666" lon="7.24562">
        <ele>1107</ele>
        <time>2025-06-13T08:42:34Z</time>
      </trkpt>
      <trkpt lat="44.07644" lon="7.24547">
        <ele>1115</ele>
        <time>2025-06-13T08:42:46Z</time>
      </trkpt>
      <trkpt lat="44.07626" lon="7.24538">
        <ele>1120</ele>
        <time>2025-06-13T08:42:55Z</time>
      </trkpt>
      <trkpt lat="44.07632" lon="7.24534">
        <ele>1122</ele>
        <time>2025-06-13T08:42:59Z</time>
      </trkpt>
      <trkpt lat="44.07617" lon="7.24526">
        <ele>1127</ele>
        <time>2025-06-13T08:43:07Z</time>
      </trkpt>
      <trkpt lat="44.07609" lon="7.24519">
        <ele>1132</ele>
        <time>2025-06-13T08:43:12Z</time>
      </trkpt>
      <trkpt lat="44.07588" lon="7.24516">
        <ele>1135</ele>
        <time>2025-06-13T08:43:22Z</time>
      </trkpt>
      <trkpt lat="44.07581" lon="7.24507">
        <ele>1141</ele>
        <time>2025-06-13T08:43:27Z</time>
      </trkpt>
      <trkpt lat="44.0754" lon="7.24506">
        <ele>1138</ele>
        <time>2025-06-13T08:43:47Z</time>
      </trkpt>
      <trkpt lat="44.07514" lon="7.24489">
        <ele>1142</ele>
        <time>2025-06-13T08:44:02Z</time>
      </trkpt>
      <trkpt lat="44.07489" lon="7.24477">
        <ele>1141</ele>
        <time>2025-06-13T08:44:15Z</time>
      </trkpt>
      <trkpt lat="44.0748" lon="7.24466">
        <ele>1142</ele>
        <time>2025-06-13T08:44:21Z</time>
      </trkpt>
      <trkpt lat="44.07484" lon="7.24455">
        <ele>1146</ele>
        <time>2025-06-13T08:44:25Z</time>
      </trkpt>
      <trkpt lat="44.07489" lon="7.24456">
        <ele>1147</ele>
        <time>2025-06-13T08:44:28Z</time>
      </trkpt>
      <trkpt lat="44.07494" lon="7.24462">
        <ele>1147</ele>
        <time>2025-06-13T08:44:31Z</time>
      </trkpt>
      <trkpt lat="44.07497" lon="7.24462">
        <ele>1148</ele>
        <time>2025-06-13T08:44:33Z</time>
      </trkpt>
      <trkpt lat="44.07495" lon="7.24449">
        <ele>1151</ele>
        <time>2025-06-13T08:44:38Z</time>
      </trkpt>
      <trkpt lat="44.07506" lon="7.24394">
        <ele>1171</ele>
        <time>2025-06-13T08:44:58Z</time>
      </trkpt>
      <trkpt lat="44.07481" lon="7.2437">
        <ele>1171</ele>
        <time>2025-06-13T08:45:13Z</time>
      </trkpt>
      <trkpt lat="44.07459" lon="7.24315">
        <ele>1183</ele>
        <time>2025-06-13T08:45:36Z</time>
      </trkpt>
      <trkpt lat="44.07453" lon="7.24287">
        <ele>1190</ele>
        <time>2025-06-13T08:45:46Z</time>
      </trkpt>
      <trkpt lat="44.07432" lon="7.24255">
        <ele>1193</ele>
        <time>2025-06-13T08:46:02Z</time>
      </trkpt>
      <trkpt lat="44.07424" lon="7.24229">
        <ele>1199</ele>
        <time>2025-06-13T08:46:12Z</time>
      </trkpt>
      <trkpt lat="44.07437" lon="7.24239">
        <ele>1200</ele>
        <time>2025-06-13T08:46:20Z</time>
      </trkpt>
      <trkpt lat="44.07446" lon="7.24238">
        <ele>1205</ele>
        <time>2025-06-13T08:46:24Z</time>
      </trkpt>
      <trkpt lat="44.07432" lon="7.24206">
        <ele>1211</ele>
        <time>2025-06-13T08:46:38Z</time>
      </trkpt>
      <trkpt lat="44.0744" lon="7.24214">
        <ele>1211</ele>
        <time>2025-06-13T08:46:42Z</time>
      </trkpt>
      <trkpt lat="44.07447" lon="7.24211">
        <ele>1215</ele>
        <time>2025-06-13T08:46:46Z</time>
      </trkpt>
      <trkpt lat="44.0746" lon="7.24222">
        <ele>1216</ele>
        <time>2025-06-13T08:46:54Z</time>
      </trkpt>
      <trkpt lat="44.07492" lon="7.24257">
        <ele>1216</ele>
        <time>2025-06-13T08:47:14Z</time>
      </trkpt>
      <trkpt lat="44.07503" lon="7.24267">
        <ele>1216</ele>
        <time>2025-06-13T08:47:21Z</time>
      </trkpt>
      <trkpt lat="44.07518" lon="7.24272">
        <ele>1220</ele>
        <time>2025-06-13T08:47:28Z</time>
      </trkpt>
      <trkpt lat="44.07539" lon="7.24273">
        <ele>1226</ele>
        <time>2025-06-13T08:47:39Z</time>
      </trkpt>
      <trkpt lat="44.07547" lon="7.24266">
        <ele>1232</ele>
        <time>2025-06-13T08:47:44Z</time>
      </trkpt>
      <trkpt lat="44.07522" lon="7.24245">
        <ele>1232</ele>
        <time>2025-06-13T08:47:58Z</time>
      </trkpt>
      <trkpt lat="44.07542" lon="7.24239">
        <ele>1241</ele>
        <time>2025-06-13T08:48:09Z</time>
      </trkpt>
      <trkpt lat="44.07522" lon="7.24216">
        <ele>1243</ele>
        <time>2025-06-13T08:48:22Z</time>
      </trkpt>
      <trkpt lat="44.07496" lon="7.24177">
        <ele>1249</ele>
        <time>2025-06-13T08:48:41Z</time>
      </trkpt>
      <trkpt lat="44.07473" lon="7.24111">
        <ele>1268</ele>
        <time>2025-06-13T08:49:07Z</time>
      </trkpt>
      <trkpt lat="44.07463" lon="7.24104">
        <ele>1267</ele>
        <time>2025-06-13T08:49:13Z</time>
      </trkpt>
      <trkpt lat="44.07456" lon="7.24093">
        <ele>1270</ele>
        <time>2025-06-13T08:49:18Z</time>
      </trkpt>
      <trkpt lat="44.0748" lon="7.24103">
        <ele>1274</ele>
        <time>2025-06-13T08:49:30Z</time>
      </trkpt>
      <trkpt lat="44.07529" lon="7.24145">
        <ele>1274</ele>
        <time>2025-06-13T08:49:59Z</time>
      </trkpt>
      <trkpt lat="44.07548" lon="7.24152">
        <ele>1278</ele>
        <time>2025-06-13T08:50:09Z</time>
      </trkpt>
      <trkpt lat="44.07552" lon="7.24151">
        <ele>1280</ele>
        <time>2025-06-13T08:50:11Z</time>
      </trkpt>
      <trkpt lat="44.0755" lon="7.24147">
        <ele>1281</ele>
        <time>2025-06-13T08:50:13Z</time>
      </trkpt>
      <trkpt lat="44.07525" lon="7.24121">
        <ele>1283</ele>
        <time>2025-06-13T08:50:28Z</time>
      </trkpt>
      <trkpt lat="44.07521" lon="7.2411">
        <ele>1286</ele>
        <time>2025-06-13T08:50:33Z</time>
      </trkpt>
      <trkpt lat="44.07547" lon="7.24117">
        <ele>1292</ele>
        <time>2025-06-13T08:50:46Z</time>
      </trkpt>
      <trkpt lat="44.07556" lon="7.24118">
        <ele>1295</ele>
        <time>2025-06-13T08:50:51Z</time>
      </trkpt>
      <trkpt lat="44.07556" lon="7.24112">
        <ele>1298</ele>
        <time>2025-06-13T08:50:53Z</time>
      </trkpt>
      <trkpt lat="44.07549" lon="7.24108">
        <ele>1297</ele>
        <time>2025-06-13T08:50:57Z</time>
      </trkpt>
      <trkpt lat="44.07533" lon="7.24078">
        <ele>1304</ele>
        <time>2025-06-13T08:51:10Z</time>
      </trkpt>
      <trkpt lat="44.0754" lon="7.24078">
        <ele>1307</ele>
        <time>2025-06-13T08:51:14Z</time>
      </trkpt>
      <trkpt lat="44.07571" lon="7.24091">
        <ele>1312</ele>
        <time>2025-06-13T08:51:30Z</time>
      </trkpt>
      <trkpt lat="44.07549" lon="7.24051">
        <ele>1323</ele>
        <time>2025-06-13T08:51:48Z</time>
      </trkpt>
      <trkpt lat="44.07544" lon="7.24039">
        <ele>1328</ele>
        <time>2025-06-13T08:51:53Z</time>
      </trkpt>
      <trkpt lat="44.07524" lon="7.24007">
        <ele>1339</ele>
        <time>2025-06-13T08:52:08Z</time>
      </trkpt>
      <trkpt lat="44.07517" lon="7.24">
        <ele>1342</ele>
        <time>2025-06-13T08:52:12Z</time>
      </trkpt>
      <trkpt lat="44.07496" lon="7.23991">
        <ele>1341</ele>
        <time>2025-06-13T08:52:23Z</time>
      </trkpt>
      <trkpt lat="44.07466" lon="7.23987">
        <ele>1329</ele>
        <time>2025-06-13T08:52:38Z</time>
      </trkpt>
      <trkpt lat="44.07457" lon="7.23975">
        <ele>1330</ele>
        <time>2025-06-13T08:52:45Z</time>
      </trkpt>
      <trkpt lat="44.07448" lon="7.23961">
        <ele>1332</ele>
        <time>2025-06-13T08:52:51Z</time>
      </trkpt>
      <trkpt lat="44.07447" lon="7.23947">
        <ele>1337</ele>
        <time>2025-06-13T08:52:57Z</time>
      </trkpt>
      <trkpt lat="44.0744" lon="7.23933">
        <ele>1340</ele>
        <time>2025-06-13T08:53:03Z</time>
      </trkpt>
      <trkpt lat="44.07427" lon="7.23906">
        <ele>1347</ele>
        <time>2025-06-13T08:53:14Z</time>
      </trkpt>
      <trkpt lat="44.07409" lon="7.23882">
        <ele>1351</ele>
        <time>2025-06-13T08:53:27Z</time>
      </trkpt>
      <trkpt lat="44.07386" lon="7.23858">
        <ele>1350</ele>
        <time>2025-06-13T08:53:41Z</time>
      </trkpt>
      <trkpt lat="44.07381" lon="7.23846">
        <ele>1354</ele>
        <time>2025-06-13T08:53:46Z</time>
      </trkpt>
      <trkpt lat="44.07362" lon="7.23814">
        <ele>1358</ele>
        <time>2025-06-13T08:54:01Z</time>
      </trkpt>
      <trkpt lat="44.07349" lon="7.23789">
        <ele>1362</ele>
        <time>2025-06-13T08:54:12Z</time>
      </trkpt>
      <trkpt lat="44.07325" lon="7.23763">
        <ele>1360</ele>
        <time>2025-06-13T08:54:27Z</time>
      </trkpt>
      <trkpt lat="44.07318" lon="7.23751">
        <ele>1362</ele>
        <time>2025-06-13T08:54:33Z</time>
      </trkpt>
      <trkpt lat="44.07314" lon="7.23743">
        <ele>1363</ele>
        <time>2025-06-13T08:54:37Z</time>
      </trkpt>
      <trkpt lat="44.07314" lon="7.23712">
        <ele>1370</ele>
        <time>2025-06-13T08:54:48Z</time>
      </trkpt>
      <trkpt lat="44.07316" lon="7.23665">
        <ele>1383</ele>
        <time>2025-06-13T08:55:05Z</time>
      </trkpt>
      <trkpt lat="44.07312" lon="7.23592">
        <ele>1388</ele>
        <time>2025-06-13T08:55:31Z</time>
      </trkpt>
      <trkpt lat="44.07294" lon="7.23535">
        <ele>1392</ele>
        <time>2025-06-13T08:55:53Z</time>
      </trkpt>
      <trkpt lat="44.07294" lon="7.23515">
        <ele>1396</ele>
        <time>2025-06-13T08:56:00Z</time>
      </trkpt>
      <trkpt lat="44.07295" lon="7.23493">
        <ele>1402</ele>
        <time>2025-06-13T08:56:08Z</time>
      </trkpt>
      <trkpt lat="44.07284" lon="7.23477">
        <ele>1402</ele>
        <time>2025-06-13T08:56:16Z</time>
      </trkpt>
      <trkpt lat="44.07259" lon="7.23415">
        <ele>1407</ele>
        <time>2025-06-13T08:56:42Z</time>
      </trkpt>
      <trkpt lat="44.07248" lon="7.23361">
        <ele>1414</ele>
        <time>2025-06-13T08:57:02Z</time>
      </trkpt>
      <trkpt lat="44.07247" lon="7.23355">
        <ele>1415</ele>
        <time>2025-06-13T08:57:04Z</time>
      </trkpt>
      <trkpt lat="44.07244" lon="7.23289">
        <ele>1425</ele>
        <time>2025-06-13T08:57:28Z</time>
      </trkpt>
      <trkpt lat="44.07217" lon="7.23258">
        <ele>1427</ele>
        <time>2025-06-13T08:57:46Z</time>
      </trkpt>
      <trkpt lat="44.07204" lon="7.23233">
        <ele>1429</ele>
        <time>2025-06-13T08:57:57Z</time>
      </trkpt>
      <trkpt lat="44.07198" lon="7.23231">
        <ele>1429</ele>
        <time>2025-06-13T08:58:00Z</time>
      </trkpt>
      <trkpt lat="44.0716" lon="7.2314">
        <ele>1436</ele>
        <time>2025-06-13T08:58:38Z</time>
      </trkpt>
      <trkpt lat="44.0716" lon="7.23116">
        <ele>1440</ele>
        <time>2025-06-13T08:58:46Z</time>
      </trkpt>
      <trkpt lat="44.07148" lon="7.23103">
        <ele>1441</ele>
        <time>2025-06-13T08:58:54Z</time>
      </trkpt>
      <trkpt lat="44.07151" lon="7.23049">
        <ele>1450</ele>
        <time>2025-06-13T08:59:13Z</time>
      </trkpt>
      <trkpt lat="44.07151" lon="7.2304">
        <ele>1451</ele>
        <time>2025-06-13T08:59:17Z</time>
      </trkpt>
      <trkpt lat="44.07148" lon="7.23022">
        <ele>1453</ele>
        <time>2025-06-13T08:59:23Z</time>
      </trkpt>
      <trkpt lat="44.07158" lon="7.22993">
        <ele>1459</ele>
        <time>2025-06-13T08:59:35Z</time>
      </trkpt>
      <trkpt lat="44.0716" lon="7.2298">
        <ele>1460</ele>
        <time>2025-06-13T08:59:40Z</time>
      </trkpt>
      <trkpt lat="44.07156" lon="7.22928">
        <ele>1464</ele>
        <time>2025-06-13T08:59:58Z</time>
      </trkpt>
      <trkpt lat="44.0714" lon="7.22919">
        <ele>1463</ele>
        <time>2025-06-13T09:00:07Z</time>
      </trkpt>
      <trkpt lat="44.07131" lon="7.22892">
        <ele>1464</ele>
        <time>2025-06-13T09:00:18Z</time>
      </trkpt>
      <trkpt lat="44.07127" lon="7.2286">
        <ele>1466</ele>
        <time>2025-06-13T09:00:29Z</time>
      </trkpt>
      <trkpt lat="44.07126" lon="7.2282">
        <ele>1470</ele>
        <time>2025-06-13T09:00:44Z</time>
      </trkpt>
      <trkpt lat="44.07128" lon="7.22788">
        <ele>1474</ele>
        <time>2025-06-13T09:00:55Z</time>
      </trkpt>
      <trkpt lat="44.07121" lon="7.22709">
        <ele>1481</ele>
        <time>2025-06-13T09:01:24Z</time>
      </trkpt>
      <trkpt lat="44.07122" lon="7.22691">
        <ele>1484</ele>
        <time>2025-06-13T09:01:30Z</time>
      </trkpt>
      <trkpt lat="44.0712" lon="7.22676">
        <ele>1485</ele>
        <time>2025-06-13T09:01:36Z</time>
      </trkpt>
      <trkpt lat="44.07121" lon="7.22648">
        <ele>1488</ele>
        <time>2025-06-13T09:01:46Z</time>
      </trkpt>
      <trkpt lat="44.07121" lon="7.22613">
        <ele>1492</ele>
        <time>2025-06-13T09:01:59Z</time>
      </trkpt>
      <trkpt lat="44.07125" lon="7.22626">
        <ele>1491</ele>
        <time>2025-06-13T09:02:04Z</time>
      </trkpt>
      <trkpt lat="44.07121" lon="7.22613">
        <ele>1492</ele>
        <time>2025-06-13T09:02:09Z</time>
      </trkpt>
      <trkpt lat="44.0711" lon="7.2258">
        <ele>1492</ele>
        <time>2025-06-13T09:02:22Z</time>
      </trkpt>
      <trkpt lat="44.071" lon="7.22553">
        <ele>1490</ele>
        <time>2025-06-13T09:02:33Z</time>
      </trkpt>
      <trkpt lat="44.07097" lon="7.22542">
        <ele>1490</ele>
        <time>2025-06-13T09:02:37Z</time>
      </trkpt>
      <trkpt lat="44.07094" lon="7.22528">
        <ele>1490</ele>
        <time>2025-06-13T09:02:42Z</time>
      </trkpt>
      <trkpt lat="44.07093" lon="7.22505">
        <ele>1491</ele>
        <time>2025-06-13T09:02:51Z</time>
      </trkpt>
      <trkpt lat="44.0709" lon="7.22473">
        <ele>1493</ele>
        <time>2025-06-13T09:03:02Z</time>
      </trkpt>
      <trkpt lat="44.0709" lon="7.22458">
        <ele>1494</ele>
        <time>2025-06-13T09:03:08Z</time>
      </trkpt>
      <trkpt lat="44.07091" lon="7.22443">
        <ele>1495</ele>
        <time>2025-06-13T09:03:13Z</time>
      </trkpt>
      <trkpt lat="44.07093" lon="7.22437">
        <ele>1496</ele>
        <time>2025-06-13T09:03:15Z</time>
      </trkpt>
      <trkpt lat="44.07094" lon="7.22435">
        <ele>1497</ele>
        <time>2025-06-13T09:03:16Z</time>
      </trkpt>
      <trkpt lat="44.07096" lon="7.22428">
        <ele>1498</ele>
        <time>2025-06-13T09:03:19Z</time>
      </trkpt>
      <trkpt lat="44.07095" lon="7.22425">
        <ele>1498</ele>
        <time>2025-06-13T09:03:20Z</time>
      </trkpt>
      <trkpt lat="44.07093" lon="7.22419">
        <ele>1498</ele>
        <time>2025-06-13T09:03:22Z</time>
      </trkpt>
      <trkpt lat="44.07091" lon="7.2241">
        <ele>1498</ele>
        <time>2025-06-13T09:03:26Z</time>
      </trkpt>
      <trkpt lat="44.0709" lon="7.22389">
        <ele>1499</ele>
        <time>2025-06-13T09:03:33Z</time>
      </trkpt>
      <trkpt lat="44.07091" lon="7.22366">
        <ele>1501</ele>
        <time>2025-06-13T09:03:42Z</time>
      </trkpt>
      <trkpt lat="44.07107" lon="7.22254">
        <ele>1507</ele>
        <time>2025-06-13T09:04:23Z</time>
      </trkpt>
      <trkpt lat="44.07106" lon="7.2224">
        <ele>1507</ele>
        <time>2025-06-13T09:04:28Z</time>
      </trkpt>
      <trkpt lat="44.07098" lon="7.22222">
        <ele>1507</ele>
        <time>2025-06-13T09:04:35Z</time>
      </trkpt>
      <trkpt lat="44.07093" lon="7.22204">
        <ele>1508</ele>
        <time>2025-06-13T09:04:42Z</time>
      </trkpt>
      <trkpt lat="44.07091" lon="7.22192">
        <ele>1509</ele>
        <time>2025-06-13T09:04:47Z</time>
      </trkpt>
      <trkpt lat="44.07093" lon="7.22204">
        <ele>1508</ele>
        <time>2025-06-13T09:04:51Z</time>
      </trkpt>
      <trkpt lat="44.07113" lon="7.22192">
        <ele>1510</ele>
        <time>2025-06-13T09:05:02Z</time>
      </trkpt>
      <trkpt lat="44.07117" lon="7.22188">
        <ele>1510</ele>
        <time>2025-06-13T09:05:05Z</time>
      </trkpt>
      <trkpt lat="44.07135" lon="7.22179">
        <ele>1511</ele>
        <time>2025-06-13T09:05:14Z</time>
      </trkpt>
      <trkpt lat="44.07142" lon="7.22181">
        <ele>1511</ele>
        <time>2025-06-13T09:05:18Z</time>
      </trkpt>
      <trkpt lat="44.07148" lon="7.22189">
        <ele>1511</ele>
        <time>2025-06-13T09:05:22Z</time>
      </trkpt>
      <trkpt lat="44.07151" lon="7.22201">
        <ele>1511</ele>
        <time>2025-06-13T09:05:26Z</time>
      </trkpt>
      <trkpt lat="44.0715" lon="7.22229">
        <ele>1511</ele>
        <time>2025-06-13T09:05:37Z</time>
      </trkpt>
      <trkpt lat="44.07151" lon="7.22242">
        <ele>1511</ele>
        <time>2025-06-13T09:05:41Z</time>
      </trkpt>
      <trkpt lat="44.07158" lon="7.22275">
        <ele>1513</ele>
        <time>2025-06-13T09:05:54Z</time>
      </trkpt>
      <trkpt lat="44.07161" lon="7.22297">
        <ele>1515</ele>
        <time>2025-06-13T09:06:02Z</time>
      </trkpt>
      <trkpt lat="44.07164" lon="7.22334">
        <ele>1518</ele>
        <time>2025-06-13T09:06:15Z</time>
      </trkpt>
      <trkpt lat="44.0717" lon="7.22364">
        <ele>1520</ele>
        <time>2025-06-13T09:06:26Z</time>
      </trkpt>
      <trkpt lat="44.07204" lon="7.22449">
        <ele>1528</ele>
        <time>2025-06-13T09:07:01Z</time>
      </trkpt>
      <trkpt lat="44.07207" lon="7.2246">
        <ele>1527</ele>
        <time>2025-06-13T09:07:05Z</time>
      </trkpt>
      <trkpt lat="44.07212" lon="7.22492">
        <ele>1525</ele>
        <time>2025-06-13T09:07:17Z</time>
      </trkpt>
      <trkpt lat="44.07226" lon="7.22521">
        <ele>1527</ele>
        <time>2025-06-13T09:07:30Z</time>
      </trkpt>
      <trkpt lat="44.07231" lon="7.22528">
        <ele>1528</ele>
        <time>2025-06-13T09:07:33Z</time>
      </trkpt>
      <trkpt lat="44.07251" lon="7.22556">
        <ele>1532</ele>
        <time>2025-06-13T09:07:48Z</time>
      </trkpt>
      <trkpt lat="44.07285" lon="7.22614">
        <ele>1533</ele>
        <time>2025-06-13T09:08:14Z</time>
      </trkpt>
      <trkpt lat="44.07295" lon="7.22627">
        <ele>1534</ele>
        <time>2025-06-13T09:08:21Z</time>
      </trkpt>
      <trkpt lat="44.07301" lon="7.2263">
        <ele>1535</ele>
        <time>2025-06-13T09:08:24Z</time>
      </trkpt>
      <trkpt lat="44.07314" lon="7.22635">
        <ele>1537</ele>
        <time>2025-06-13T09:08:31Z</time>
      </trkpt>
      <trkpt lat="44.0732" lon="7.22637">
        <ele>1538</ele>
        <time>2025-06-13T09:08:34Z</time>
      </trkpt>
      <trkpt lat="44.07325" lon="7.22642">
        <ele>1539</ele>
        <time>2025-06-13T09:08:37Z</time>
      </trkpt>
      <trkpt lat="44.07326" lon="7.22651">
        <ele>1538</ele>
        <time>2025-06-13T09:08:41Z</time>
      </trkpt>
      <trkpt lat="44.07332" lon="7.22764">
        <ele>1531</ele>
        <time>2025-06-13T09:09:21Z</time>
      </trkpt>
      <trkpt lat="44.07338" lon="7.22806">
        <ele>1533</ele>
        <time>2025-06-13T09:09:37Z</time>
      </trkpt>
      <trkpt lat="44.07351" lon="7.22851">
        <ele>1537</ele>
        <time>2025-06-13T09:09:54Z</time>
      </trkpt>
      <trkpt lat="44.07362" lon="7.2288">
        <ele>1539</ele>
        <time>2025-06-13T09:10:06Z</time>
      </trkpt>
      <trkpt lat="44.07382" lon="7.22906">
        <ele>1545</ele>
        <time>2025-06-13T09:10:20Z</time>
      </trkpt>
      <trkpt lat="44.07395" lon="7.22917">
        <ele>1549</ele>
        <time>2025-06-13T09:10:27Z</time>
      </trkpt>
      <trkpt lat="44.07406" lon="7.22924">
        <ele>1552</ele>
        <time>2025-06-13T09:10:33Z</time>
      </trkpt>
      <trkpt lat="44.07425" lon="7.22928">
        <ele>1560</ele>
        <time>2025-06-13T09:10:43Z</time>
      </trkpt>
      <trkpt lat="44.07433" lon="7.22931">
        <ele>1563</ele>
        <time>2025-06-13T09:10:47Z</time>
      </trkpt>
      <trkpt lat="44.07437" lon="7.22939">
        <ele>1564</ele>
        <time>2025-06-13T09:10:51Z</time>
      </trkpt>
      <trkpt lat="44.07444" lon="7.22947">
        <ele>1566</ele>
        <time>2025-06-13T09:10:55Z</time>
      </trkpt>
      <trkpt lat="44.07453" lon="7.22961">
        <ele>1570</ele>
        <time>2025-06-13T09:11:02Z</time>
      </trkpt>
      <trkpt lat="44.07453" lon="7.22972">
        <ele>1569</ele>
        <time>2025-06-13T09:11:06Z</time>
      </trkpt>
      <trkpt lat="44.07443" lon="7.2299">
        <ele>1564</ele>
        <time>2025-06-13T09:11:14Z</time>
      </trkpt>
      <trkpt lat="44.07449" lon="7.23025">
        <ele>1565</ele>
        <time>2025-06-13T09:11:27Z</time>
      </trkpt>
      <trkpt lat="44.07453" lon="7.23039">
        <ele>1566</ele>
        <time>2025-06-13T09:11:32Z</time>
      </trkpt>
      <trkpt lat="44.0746" lon="7.23008">
        <ele>1571</ele>
        <time>2025-06-13T09:11:44Z</time>
      </trkpt>
      <trkpt lat="44.07466" lon="7.22994">
        <ele>1575</ele>
        <time>2025-06-13T09:11:50Z</time>
      </trkpt>
      <trkpt lat="44.07472" lon="7.23037">
        <ele>1576</ele>
        <time>2025-06-13T09:12:06Z</time>
      </trkpt>
      <trkpt lat="44.07483" lon="7.23065">
        <ele>1580</ele>
        <time>2025-06-13T09:12:17Z</time>
      </trkpt>
      <trkpt lat="44.075" lon="7.23082">
        <ele>1588</ele>
        <time>2025-06-13T09:12:28Z</time>
      </trkpt>
      <trkpt lat="44.07506" lon="7.23077">
        <ele>1592</ele>
        <time>2025-06-13T09:12:31Z</time>
      </trkpt>
      <trkpt lat="44.07502" lon="7.23052">
        <ele>1590</ele>
        <time>2025-06-13T09:12:40Z</time>
      </trkpt>
      <trkpt lat="44.07504" lon="7.23042">
        <ele>1592</ele>
        <time>2025-06-13T09:12:44Z</time>
      </trkpt>
      <trkpt lat="44.07509" lon="7.23039">
        <ele>1595</ele>
        <time>2025-06-13T09:12:47Z</time>
      </trkpt>
      <trkpt lat="44.0754" lon="7.23089">
        <ele>1613</ele>
        <time>2025-06-13T09:13:11Z</time>
      </trkpt>
      <trkpt lat="44.07566" lon="7.23151">
        <ele>1623</ele>
        <time>2025-06-13T09:13:36Z</time>
      </trkpt>
      <trkpt lat="44.0758" lon="7.23178">
        <ele>1630</ele>
        <time>2025-06-13T09:13:48Z</time>
      </trkpt>
      <trkpt lat="44.07587" lon="7.2321">
        <ele>1633</ele>
        <time>2025-06-13T09:14:00Z</time>
      </trkpt>
      <trkpt lat="44.07597" lon="7.23287">
        <ele>1628</ele>
        <time>2025-06-13T09:14:29Z</time>
      </trkpt>
      <trkpt lat="44.07612" lon="7.23298">
        <ele>1632</ele>
        <time>2025-06-13T09:14:37Z</time>
      </trkpt>
      <trkpt lat="44.07653" lon="7.23321">
        <ele>1640</ele>
        <time>2025-06-13T09:14:59Z</time>
      </trkpt>
      <trkpt lat="44.07695" lon="7.23275">
        <ele>1661</ele>
        <time>2025-06-13T09:15:26Z</time>
      </trkpt>
      <trkpt lat="44.07712" lon="7.23262">
        <ele>1668</ele>
        <time>2025-06-13T09:15:36Z</time>
      </trkpt>
      <trkpt lat="44.07733" lon="7.23249">
        <ele>1675</ele>
        <time>2025-06-13T09:15:47Z</time>
      </trkpt>
      <trkpt lat="44.07747" lon="7.23252">
        <ele>1675</ele>
        <time>2025-06-13T09:15:54Z</time>
      </trkpt>
      <trkpt lat="44.07813" lon="7.2325">
        <ele>1680</ele>
        <time>2025-06-13T09:16:27Z</time>
      </trkpt>
      <trkpt lat="44.07849" lon="7.23269">
        <ele>1679</ele>
        <time>2025-06-13T09:16:46Z</time>
      </trkpt>
      <trkpt lat="44.0787" lon="7.23277">
        <ele>1685</ele>
        <time>2025-06-13T09:16:57Z</time>
      </trkpt>
      <trkpt lat="44.07889" lon="7.23289">
        <ele>1688</ele>
        <time>2025-06-13T09:17:08Z</time>
      </trkpt>
      <trkpt lat="44.07928" lon="7.23318">
        <ele>1694</ele>
        <time>2025-06-13T09:17:30Z</time>
      </trkpt>
      <trkpt lat="44.07936" lon="7.23366">
        <ele>1687</ele>
        <time>2025-06-13T09:17:48Z</time>
      </trkpt>
      <trkpt lat="44.07945" lon="7.23381">
        <ele>1689</ele>
        <time>2025-06-13T09:17:55Z</time>
      </trkpt>
      <trkpt lat="44.07955" lon="7.23389">
        <ele>1694</ele>
        <time>2025-06-13T09:18:00Z</time>
      </trkpt>
      <trkpt lat="44.07962" lon="7.23409">
        <ele>1694</ele>
        <time>2025-06-13T09:18:08Z</time>
      </trkpt>
      <trkpt lat="44.07967" lon="7.23435">
        <ele>1692</ele>
        <time>2025-06-13T09:18:18Z</time>
      </trkpt>
      <trkpt lat="44.07975" lon="7.23458">
        <ele>1692</ele>
        <time>2025-06-13T09:18:27Z</time>
      </trkpt>
      <trkpt lat="44.07992" lon="7.23493">
        <ele>1693</ele>
        <time>2025-06-13T09:18:43Z</time>
      </trkpt>
      <trkpt lat="44.08009" lon="7.23513">
        <ele>1695</ele>
        <time>2025-06-13T09:18:54Z</time>
      </trkpt>
      <trkpt lat="44.08062" lon="7.23552">
        <ele>1702</ele>
        <time>2025-06-13T09:19:24Z</time>
      </trkpt>
      <trkpt lat="44.08067" lon="7.23556">
        <ele>1703</ele>
        <time>2025-06-13T09:19:27Z</time>
      </trkpt>
      <trkpt lat="44.08086" lon="7.23576">
        <ele>1701</ele>
        <time>2025-06-13T09:19:38Z</time>
      </trkpt>
      <trkpt lat="44.08093" lon="7.23578">
        <ele>1699</ele>
        <time>2025-06-13T09:19:42Z</time>
      </trkpt>
      <trkpt lat="44.08108" lon="7.23574">
        <ele>1698</ele>
        <time>2025-06-13T09:19:50Z</time>
      </trkpt>
      <trkpt lat="44.08155" lon="7.23545">
        <ele>1705</ele>
        <time>2025-06-13T09:20:15Z</time>
      </trkpt>
      <trkpt lat="44.08215" lon="7.23529">
        <ele>1701</ele>
        <time>2025-06-13T09:20:46Z</time>
      </trkpt>
      <trkpt lat="44.08252" lon="7.23511">
        <ele>1703</ele>
        <time>2025-06-13T09:21:06Z</time>
      </trkpt>
      <trkpt lat="44.08262" lon="7.23512">
        <ele>1703</ele>
        <time>2025-06-13T09:21:11Z</time>
      </trkpt>
      <trkpt lat="44.08285" lon="7.23526">
        <ele>1699</ele>
        <time>2025-06-13T09:21:23Z</time>
      </trkpt>
      <trkpt lat="44.08328" lon="7.23533">
        <ele>1700</ele>
        <time>2025-06-13T09:21:45Z</time>
      </trkpt>
      <trkpt lat="44.08344" lon="7.23548">
        <ele>1694</ele>
        <time>2025-06-13T09:21:54Z</time>
      </trkpt>
      <trkpt lat="44.0836" lon="7.23558">
        <ele>1690</ele>
        <time>2025-06-13T09:22:03Z</time>
      </trkpt>
      <trkpt lat="44.08429" lon="7.23563">
        <ele>1687</ele>
        <time>2025-06-13T09:22:38Z</time>
      </trkpt>
      <trkpt lat="44.08454" lon="7.23574">
        <ele>1679</ele>
        <time>2025-06-13T09:22:51Z</time>
      </trkpt>
      <trkpt lat="44.08493" lon="7.23562">
        <ele>1677</ele>
        <time>2025-06-13T09:23:11Z</time>
      </trkpt>
      <trkpt lat="44.08548" lon="7.23542">
        <ele>1661</ele>
        <time>2025-06-13T09:23:39Z</time>
      </trkpt>
      <trkpt lat="44.08561" lon="7.2353">
        <ele>1658</ele>
        <time>2025-06-13T09:23:47Z</time>
      </trkpt>
      <trkpt lat="44.08569" lon="7.23516">
        <ele>1659</ele>
        <time>2025-06-13T09:23:54Z</time>
      </trkpt>
      <trkpt lat="44.08575" lon="7.23489">
        <ele>1666</ele>
        <time>2025-06-13T09:24:04Z</time>
      </trkpt>
      <trkpt lat="44.08596" lon="7.23464">
        <ele>1670</ele>
        <time>2025-06-13T09:24:18Z</time>
      </trkpt>
      <trkpt lat="44.08611" lon="7.23457">
        <ele>1668</ele>
        <time>2025-06-13T09:24:26Z</time>
      </trkpt>
      <trkpt lat="44.08642" lon="7.23453">
        <ele>1658</ele>
        <time>2025-06-13T09:24:41Z</time>
      </trkpt>
      <trkpt lat="44.08662" lon="7.23437">
        <ele>1657</ele>
        <time>2025-06-13T09:24:53Z</time>
      </trkpt>
      <trkpt lat="44.08677" lon="7.23431">
        <ele>1656</ele>
        <time>2025-06-13T09:25:00Z</time>
      </trkpt>
      <trkpt lat="44.08689" lon="7.23421">
        <ele>1657</ele>
        <time>2025-06-13T09:25:07Z</time>
      </trkpt>
      <trkpt lat="44.08728" lon="7.23376">
        <ele>1666</ele>
        <time>2025-06-13T09:25:33Z</time>
      </trkpt>
      <trkpt lat="44.08732" lon="7.23358">
        <ele>1672</ele>
        <time>2025-06-13T09:25:40Z</time>
      </trkpt>
      <trkpt lat="44.08736" lon="7.23354">
        <ele>1673</ele>
        <time>2025-06-13T09:25:42Z</time>
      </trkpt>
      <trkpt lat="44.0874" lon="7.23356">
        <ele>1671</ele>
        <time>2025-06-13T09:25:44Z</time>
      </trkpt>
      <trkpt lat="44.08763" lon="7.23377">
        <ele>1664</ele>
        <time>2025-06-13T09:25:58Z</time>
      </trkpt>
      <trkpt lat="44.08796" lon="7.23399">
        <ele>1664</ele>
        <time>2025-06-13T09:26:16Z</time>
      </trkpt>
      <trkpt lat="44.08805" lon="7.23409">
        <ele>1662</ele>
        <time>2025-06-13T09:26:22Z</time>
      </trkpt>
      <trkpt lat="44.0882" lon="7.23446">
        <ele>1653</ele>
        <time>2025-06-13T09:26:37Z</time>
      </trkpt>
      <trkpt lat="44.08826" lon="7.23495">
        <ele>1638</ele>
        <time>2025-06-13T09:26:55Z</time>
      </trkpt>
      <trkpt lat="44.0884" lon="7.23506">
        <ele>1637</ele>
        <time>2025-06-13T09:27:03Z</time>
      </trkpt>
      <trkpt lat="44.08894" lon="7.2351">
        <ele>1642</ele>
        <time>2025-06-13T09:27:30Z</time>
      </trkpt>
      <trkpt lat="44.08955" lon="7.23507">
        <ele>1641</ele>
        <time>2025-06-13T09:28:01Z</time>
      </trkpt>
      <trkpt lat="44.08961" lon="7.23505">
        <ele>1641</ele>
        <time>2025-06-13T09:28:04Z</time>
      </trkpt>
      <trkpt lat="44.09068" lon="7.23473">
        <ele>1635</ele>
        <time>2025-06-13T09:28:59Z</time>
      </trkpt>
      <trkpt lat="44.09075" lon="7.23474">
        <ele>1633</ele>
        <time>2025-06-13T09:29:02Z</time>
      </trkpt>
      <trkpt lat="44.09098" lon="7.23472">
        <ele>1632</ele>
        <time>2025-06-13T09:29:14Z</time>
      </trkpt>
      <trkpt lat="44.0912" lon="7.23473">
        <ele>1632</ele>
        <time>2025-06-13T09:29:25Z</time>
      </trkpt>
      <trkpt lat="44.09138" lon="7.2347">
        <ele>1634</ele>
        <time>2025-06-13T09:29:34Z</time>
      </trkpt>
      <trkpt lat="44.09191" lon="7.23451">
        <ele>1641</ele>
        <time>2025-06-13T09:30:01Z</time>
      </trkpt>
      <trkpt lat="44.09249" lon="7.23444">
        <ele>1642</ele>
        <time>2025-06-13T09:30:30Z</time>
      </trkpt>
      <trkpt lat="44.0928" lon="7.23447">
        <ele>1640</ele>
        <time>2025-06-13T09:30:46Z</time>
      </trkpt>
      <trkpt lat="44.09315" lon="7.23444">
        <ele>1640</ele>
        <time>2025-06-13T09:31:03Z</time>
      </trkpt>
      <trkpt lat="44.09331" lon="7.23445">
        <ele>1639</ele>
        <time>2025-06-13T09:31:11Z</time>
      </trkpt>
      <trkpt lat="44.09348" lon="7.23452">
        <ele>1632</ele>
        <time>2025-06-13T09:31:20Z</time>
      </trkpt>
      <trkpt lat="44.09372" lon="7.2344">
        <ele>1627</ele>
        <time>2025-06-13T09:31:33Z</time>
      </trkpt>
      <trkpt lat="44.09383" lon="7.23421">
        <ele>1630</ele>
        <time>2025-06-13T09:31:42Z</time>
      </trkpt>
      <trkpt lat="44.0939" lon="7.23388">
        <ele>1638</ele>
        <time>2025-06-13T09:31:54Z</time>
      </trkpt>
      <trkpt lat="44.09398" lon="7.23373">
        <ele>1640</ele>
        <time>2025-06-13T09:32:01Z</time>
      </trkpt>
      <trkpt lat="44.09409" lon="7.23363">
        <ele>1639</ele>
        <time>2025-06-13T09:32:07Z</time>
      </trkpt>
      <trkpt lat="44.0942" lon="7.23362">
        <ele>1636</ele>
        <time>2025-06-13T09:32:13Z</time>
      </trkpt>
      <trkpt lat="44.09438" lon="7.23352">
        <ele>1637</ele>
        <time>2025-06-13T09:32:23Z</time>
      </trkpt>
      <trkpt lat="44.09476" lon="7.23359">
        <ele>1630</ele>
        <time>2025-06-13T09:32:42Z</time>
      </trkpt>
      <trkpt lat="44.09514" lon="7.2336">
        <ele>1629</ele>
        <time>2025-06-13T09:33:01Z</time>
      </trkpt>
      <trkpt lat="44.09527" lon="7.23353">
        <ele>1634</ele>
        <time>2025-06-13T09:33:08Z</time>
      </trkpt>
      <trkpt lat="44.09533" lon="7.23354">
        <ele>1635</ele>
        <time>2025-06-13T09:33:11Z</time>
      </trkpt>
      <trkpt lat="44.09562" lon="7.23377">
        <ele>1629</ele>
        <time>2025-06-13T09:33:28Z</time>
      </trkpt>
      <trkpt lat="44.09587" lon="7.23401">
        <ele>1621</ele>
        <time>2025-06-13T09:33:43Z</time>
      </trkpt>
      <trkpt lat="44.09605" lon="7.2341">
        <ele>1618</ele>
        <time>2025-06-13T09:33:52Z</time>
      </trkpt>
      <trkpt lat="44.09742" lon="7.23374">
        <ele>1629</ele>
        <time>2025-06-13T09:35:02Z</time>
      </trkpt>
      <trkpt lat="44.09754" lon="7.23373">
        <ele>1629</ele>
        <time>2025-06-13T09:35:08Z</time>
      </trkpt>
      <trkpt lat="44.09764" lon="7.23382">
        <ele>1628</ele>
        <time>2025-06-13T09:35:14Z</time>
      </trkpt>
      <trkpt lat="44.0977" lon="7.23395">
        <ele>1624</ele>
        <time>2025-06-13T09:35:20Z</time>
      </trkpt>
      <trkpt lat="44.09778" lon="7.23421">
        <ele>1618</ele>
        <time>2025-06-13T09:35:30Z</time>
      </trkpt>
      <trkpt lat="44.09782" lon="7.23423">
        <ele>1618</ele>
        <time>2025-06-13T09:35:32Z</time>
      </trkpt>
      <trkpt lat="44.09822" lon="7.23437">
        <ele>1622</ele>
        <time>2025-06-13T09:35:53Z</time>
      </trkpt>
      <trkpt lat="44.09872" lon="7.23453">
        <ele>1625</ele>
        <time>2025-06-13T09:36:18Z</time>
      </trkpt>
      <trkpt lat="44.099" lon="7.23461">
        <ele>1626</ele>
        <time>2025-06-13T09:36:33Z</time>
      </trkpt>
      <trkpt lat="44.09916" lon="7.23477">
        <ele>1621</ele>
        <time>2025-06-13T09:36:42Z</time>
      </trkpt>
      <trkpt lat="44.09948" lon="7.23502">
        <ele>1613</ele>
        <time>2025-06-13T09:37:01Z</time>
      </trkpt>
      <trkpt lat="44.09962" lon="7.23503">
        <ele>1614</ele>
        <time>2025-06-13T09:37:08Z</time>
      </trkpt>
      <trkpt lat="44.09999" lon="7.235">
        <ele>1617</ele>
        <time>2025-06-13T09:37:26Z</time>
      </trkpt>
      <trkpt lat="44.10052" lon="7.23505">
        <ele>1620</ele>
        <time>2025-06-13T09:37:53Z</time>
      </trkpt>
      <trkpt lat="44.10067" lon="7.23491">
        <ele>1624</ele>
        <time>2025-06-13T09:38:02Z</time>
      </trkpt>
      <trkpt lat="44.10075" lon="7.2349">
        <ele>1624</ele>
        <time>2025-06-13T09:38:06Z</time>
      </trkpt>
      <trkpt lat="44.1008" lon="7.23492">
        <ele>1624</ele>
        <time>2025-06-13T09:38:09Z</time>
      </trkpt>
      <trkpt lat="44.10087" lon="7.23497">
        <ele>1624</ele>
        <time>2025-06-13T09:38:13Z</time>
      </trkpt>
      <trkpt lat="44.10089" lon="7.23504">
        <ele>1624</ele>
        <time>2025-06-13T09:38:15Z</time>
      </trkpt>
      <trkpt lat="44.1009" lon="7.23508">
        <ele>1625</ele>
        <time>2025-06-13T09:38:17Z</time>
      </trkpt>
      <trkpt lat="44.10087" lon="7.2353">
        <ele>1626</ele>
        <time>2025-06-13T09:38:25Z</time>
      </trkpt>
      <trkpt lat="44.10085" lon="7.23556">
        <ele>1627</ele>
        <time>2025-06-13T09:38:34Z</time>
      </trkpt>
      <trkpt lat="44.10069" lon="7.23602">
        <ele>1629</ele>
        <time>2025-06-13T09:38:53Z</time>
      </trkpt>
      <trkpt lat="44.10047" lon="7.23632">
        <ele>1627</ele>
        <time>2025-06-13T09:39:08Z</time>
      </trkpt>
      <trkpt lat="44.10036" lon="7.23663">
        <ele>1629</ele>
        <time>2025-06-13T09:39:20Z</time>
      </trkpt>
      <trkpt lat="44.1003" lon="7.23673">
        <ele>1630</ele>
        <time>2025-06-13T09:39:25Z</time>
      </trkpt>
      <trkpt lat="44.10026" lon="7.23679">
        <ele>1630</ele>
        <time>2025-06-13T09:39:28Z</time>
      </trkpt>
      <trkpt lat="44.09978" lon="7.23745">
        <ele>1635</ele>
        <time>2025-06-13T09:40:02Z</time>
      </trkpt>
      <trkpt lat="44.09942" lon="7.23769">
        <ele>1630</ele>
        <time>2025-06-13T09:40:22Z</time>
      </trkpt>
      <trkpt lat="44.09885" lon="7.23819">
        <ele>1628</ele>
        <time>2025-06-13T09:40:55Z</time>
      </trkpt>
      <trkpt lat="44.09871" lon="7.23824">
        <ele>1625</ele>
        <time>2025-06-13T09:41:03Z</time>
      </trkpt>
      <trkpt lat="44.09856" lon="7.2383">
        <ele>1622</ele>
        <time>2025-06-13T09:41:11Z</time>
      </trkpt>
      <trkpt lat="44.09838" lon="7.23828">
        <ele>1616</ele>
        <time>2025-06-13T09:41:20Z</time>
      </trkpt>
      <trkpt lat="44.09856" lon="7.2383">
        <ele>1622</ele>
        <time>2025-06-13T09:41:29Z</time>
      </trkpt>
      <trkpt lat="44.09871" lon="7.23824">
        <ele>1625</ele>
        <time>2025-06-13T09:41:36Z</time>
      </trkpt>
      <trkpt lat="44.09885" lon="7.23819">
        <ele>1628</ele>
        <time>2025-06-13T09:41:44Z</time>
      </trkpt>
      <trkpt lat="44.09888" lon="7.23822">
        <ele>1630</ele>
        <time>2025-06-13T09:41:45Z</time>
      </trkpt>
      <trkpt lat="44.09913" lon="7.2382">
        <ele>1637</ele>
        <time>2025-06-13T09:41:58Z</time>
      </trkpt>
      <trkpt lat="44.09929" lon="7.2382">
        <ele>1643</ele>
        <time>2025-06-13T09:42:06Z</time>
      </trkpt>
      <trkpt lat="44.09953" lon="7.23826">
        <ele>1654</ele>
        <time>2025-06-13T09:42:18Z</time>
      </trkpt>
      <trkpt lat="44.09963" lon="7.23828">
        <ele>1659</ele>
        <time>2025-06-13T09:42:23Z</time>
      </trkpt>
      <trkpt lat="44.0997" lon="7.23834">
        <ele>1664</ele>
        <time>2025-06-13T09:42:27Z</time>
      </trkpt>
      <trkpt lat="44.0997" lon="7.23861">
        <ele>1673</ele>
        <time>2025-06-13T09:42:37Z</time>
      </trkpt>
      <trkpt lat="44.0996" lon="7.23884">
        <ele>1676</ele>
        <time>2025-06-13T09:42:47Z</time>
      </trkpt>
      <trkpt lat="44.09956" lon="7.23903">
        <ele>1681</ele>
        <time>2025-06-13T09:42:54Z</time>
      </trkpt>
      <trkpt lat="44.09961" lon="7.23923">
        <ele>1690</ele>
        <time>2025-06-13T09:43:01Z</time>
      </trkpt>
      <trkpt lat="44.09951" lon="7.23945">
        <ele>1693</ele>
        <time>2025-06-13T09:43:11Z</time>
      </trkpt>
      <trkpt lat="44.09943" lon="7.23986">
        <ele>1704</ele>
        <time>2025-06-13T09:43:26Z</time>
      </trkpt>
      <trkpt lat="44.09941" lon="7.24001">
        <ele>1708</ele>
        <time>2025-06-13T09:43:32Z</time>
      </trkpt>
      <trkpt lat="44.0994" lon="7.24014">
        <ele>1711</ele>
        <time>2025-06-13T09:43:36Z</time>
      </trkpt>
      <trkpt lat="44.09942" lon="7.24027">
        <ele>1715</ele>
        <time>2025-06-13T09:43:41Z</time>
      </trkpt>
      <trkpt lat="44.09964" lon="7.24014">
        <ele>1723</ele>
        <time>2025-06-13T09:43:53Z</time>
      </trkpt>
      <trkpt lat="44.09973" lon="7.24015">
        <ele>1728</ele>
        <time>2025-06-13T09:43:58Z</time>
      </trkpt>
      <trkpt lat="44.09976" lon="7.24029">
        <ele>1733</ele>
        <time>2025-06-13T09:44:03Z</time>
      </trkpt>
      <trkpt lat="44.09975" lon="7.24049">
        <ele>1738</ele>
        <time>2025-06-13T09:44:10Z</time>
      </trkpt>
      <trkpt lat="44.09977" lon="7.24071">
        <ele>1745</ele>
        <time>2025-06-13T09:44:18Z</time>
      </trkpt>
      <trkpt lat="44.09983" lon="7.24075">
        <ele>1750</ele>
        <time>2025-06-13T09:44:21Z</time>
      </trkpt>
      <trkpt lat="44.09986" lon="7.24083">
        <ele>1754</ele>
        <time>2025-06-13T09:44:25Z</time>
      </trkpt>
      <trkpt lat="44.09993" lon="7.2409">
        <ele>1758</ele>
        <time>2025-06-13T09:44:29Z</time>
      </trkpt>
      <trkpt lat="44.10007" lon="7.2408">
        <ele>1763</ele>
        <time>2025-06-13T09:44:37Z</time>
      </trkpt>
      <trkpt lat="44.10026" lon="7.24078">
        <ele>1769</ele>
        <time>2025-06-13T09:44:46Z</time>
      </trkpt>
      <trkpt lat="44.10049" lon="7.24063">
        <ele>1775</ele>
        <time>2025-06-13T09:44:59Z</time>
      </trkpt>
      <trkpt lat="44.10054" lon="7.24063">
        <ele>1777</ele>
        <time>2025-06-13T09:45:01Z</time>
      </trkpt>
      <trkpt lat="44.10059" lon="7.24068">
        <ele>1779</ele>
        <time>2025-06-13T09:45:05Z</time>
      </trkpt>
      <trkpt lat="44.10069" lon="7.24083">
        <ele>1785</ele>
        <time>2025-06-13T09:45:12Z</time>
      </trkpt>
      <trkpt lat="44.10075" lon="7.24089">
        <ele>1787</ele>
        <time>2025-06-13T09:45:16Z</time>
      </trkpt>
      <trkpt lat="44.10085" lon="7.24095">
        <ele>1789</ele>
        <time>2025-06-13T09:45:21Z</time>
      </trkpt>
      <trkpt lat="44.10097" lon="7.24096">
        <ele>1792</ele>
        <time>2025-06-13T09:45:27Z</time>
      </trkpt>
      <trkpt lat="44.10105" lon="7.24092">
        <ele>1795</ele>
        <time>2025-06-13T09:45:31Z</time>
      </trkpt>
      <trkpt lat="44.10141" lon="7.24062">
        <ele>1805</ele>
        <time>2025-06-13T09:45:52Z</time>
      </trkpt>
      <trkpt lat="44.10168" lon="7.24053">
        <ele>1813</ele>
        <time>2025-06-13T09:46:06Z</time>
      </trkpt>
      <trkpt lat="44.10206" lon="7.24035">
        <ele>1826</ele>
        <time>2025-06-13T09:46:26Z</time>
      </trkpt>
      <trkpt lat="44.10219" lon="7.24036">
        <ele>1830</ele>
        <time>2025-06-13T09:46:33Z</time>
      </trkpt>
      <trkpt lat="44.10251" lon="7.24048">
        <ele>1842</ele>
        <time>2025-06-13T09:46:49Z</time>
      </trkpt>
      <trkpt lat="44.1028" lon="7.2405">
        <ele>1854</ele>
        <time>2025-06-13T09:47:04Z</time>
      </trkpt>
      <trkpt lat="44.10304" lon="7.2406">
        <ele>1865</ele>
        <time>2025-06-13T09:47:16Z</time>
      </trkpt>
      <trkpt lat="44.10316" lon="7.2406">
        <ele>1870</ele>
        <time>2025-06-13T09:47:22Z</time>
      </trkpt>
      <trkpt lat="44.1033" lon="7.24056">
        <ele>1876</ele>
        <time>2025-06-13T09:47:30Z</time>
      </trkpt>
      <trkpt lat="44.1035" lon="7.24058">
        <ele>1886</ele>
        <time>2025-06-13T09:47:40Z</time>
      </trkpt>
      <trkpt lat="44.10364" lon="7.24047">
        <ele>1893</ele>
        <time>2025-06-13T09:47:48Z</time>
      </trkpt>
      <trkpt lat="44.10371" lon="7.24045">
        <ele>1897</ele>
        <time>2025-06-13T09:47:51Z</time>
      </trkpt>
      <trkpt lat="44.10382" lon="7.24045">
        <ele>1903</ele>
        <time>2025-06-13T09:47:57Z</time>
      </trkpt>
      <trkpt lat="44.10415" lon="7.24037">
        <ele>1920</ele>
        <time>2025-06-13T09:48:14Z</time>
      </trkpt>
      <trkpt lat="44.10446" lon="7.24034">
        <ele>1938</ele>
        <time>2025-06-13T09:48:29Z</time>
      </trkpt>
      <trkpt lat="44.10476" lon="7.24039">
        <ele>1955</ele>
        <time>2025-06-13T09:48:44Z</time>
      </trkpt>
      <trkpt lat="44.10497" lon="7.24038">
        <ele>1967</ele>
        <time>2025-06-13T09:48:55Z</time>
      </trkpt>
      <trkpt lat="44.1052" lon="7.24031">
        <ele>1982</ele>
        <time>2025-06-13T09:49:07Z</time>
      </trkpt>
      <trkpt lat="44.10534" lon="7.24042">
        <ele>1991</ele>
        <time>2025-06-13T09:49:15Z</time>
      </trkpt>
      <trkpt lat="44.1054" lon="7.24044">
        <ele>1996</ele>
        <time>2025-06-13T09:49:18Z</time>
      </trkpt>
      <trkpt lat="44.10551" lon="7.24043">
        <ele>2003</ele>
        <time>2025-06-13T09:49:23Z</time>
      </trkpt>
      <trkpt lat="44.10557" lon="7.2404">
        <ele>2006</ele>
        <time>2025-06-13T09:49:26Z</time>
      </trkpt>
      <trkpt lat="44.10566" lon="7.24042">
        <ele>2013</ele>
        <time>2025-06-13T09:49:31Z</time>
      </trkpt>
      <trkpt lat="44.10575" lon="7.24057">
        <ele>2020</ele>
        <time>2025-06-13T09:49:38Z</time>
      </trkpt>
      <trkpt lat="44.10581" lon="7.24057">
        <ele>2024</ele>
        <time>2025-06-13T09:49:41Z</time>
      </trkpt>
      <trkpt lat="44.10592" lon="7.24052">
        <ele>2030</ele>
        <time>2025-06-13T09:49:47Z</time>
      </trkpt>
      <trkpt lat="44.10595" lon="7.24052">
        <ele>2032</ele>
        <time>2025-06-13T09:49:48Z</time>
      </trkpt>
      <trkpt lat="44.10606" lon="7.2406">
        <ele>2040</ele>
        <time>2025-06-13T09:49:54Z</time>
      </trkpt>
      <trkpt lat="44.10612" lon="7.24057">
        <ele>2043</ele>
        <time>2025-06-13T09:49:58Z</time>
      </trkpt>
      <trkpt lat="44.10617" lon="7.24053">
        <ele>2046</ele>
        <time>2025-06-13T09:50:01Z</time>
      </trkpt>
      <trkpt lat="44.10626" lon="7.24045">
        <ele>2050</ele>
        <time>2025-06-13T09:50:06Z</time>
      </trkpt>
      <trkpt lat="44.10637" lon="7.24041">
        <ele>2056</ele>
        <time>2025-06-13T09:50:12Z</time>
      </trkpt>
      <trkpt lat="44.10679" lon="7.24047">
        <ele>2082</ele>
        <time>2025-06-13T09:50:33Z</time>
      </trkpt>
      <trkpt lat="44.10709" lon="7.24068">
        <ele>2103</ele>
        <time>2025-06-13T09:50:49Z</time>
      </trkpt>
      <trkpt lat="44.10716" lon="7.24069">
        <ele>2107</ele>
        <time>2025-06-13T09:50:53Z</time>
      </trkpt>
      <trkpt lat="44.1076" lon="7.24072">
        <ele>2131</ele>
        <time>2025-06-13T09:51:15Z</time>
      </trkpt>
      <trkpt lat="44.10809" lon="7.24053">
        <ele>2150</ele>
        <time>2025-06-13T09:51:40Z</time>
      </trkpt>
      <trkpt lat="44.10828" lon="7.24048">
        <ele>2158</ele>
        <time>2025-06-13T09:51:50Z</time>
      </trkpt>
      <trkpt lat="44.10842" lon="7.24059">
        <ele>2163</ele>
        <time>2025-06-13T09:51:58Z</time>
      </trkpt>
      <trkpt lat="44.10852" lon="7.24074">
        <ele>2168</ele>
        <time>2025-06-13T09:52:06Z</time>
      </trkpt>
      <trkpt lat="44.10858" lon="7.24092">
        <ele>2170</ele>
        <time>2025-06-13T09:52:13Z</time>
      </trkpt>
      <trkpt lat="44.10857" lon="7.24106">
        <ele>2169</ele>
        <time>2025-06-13T09:52:18Z</time>
      </trkpt>
      <trkpt lat="44.10863" lon="7.24116">
        <ele>2170</ele>
        <time>2025-06-13T09:52:22Z</time>
      </trkpt>
      <trkpt lat="44.10899" lon="7.24107">
        <ele>2180</ele>
        <time>2025-06-13T09:52:41Z</time>
      </trkpt>
      <trkpt lat="44.10921" lon="7.24109">
        <ele>2187</ele>
        <time>2025-06-13T09:52:52Z</time>
      </trkpt>
      <trkpt lat="44.10946" lon="7.24115">
        <ele>2196</ele>
        <time>2025-06-13T09:53:04Z</time>
      </trkpt>
      <trkpt lat="44.10999" lon="7.24118">
        <ele>2215</ele>
        <time>2025-06-13T09:53:31Z</time>
      </trkpt>
      <trkpt lat="44.11036" lon="7.24136">
        <ele>2237</ele>
        <time>2025-06-13T09:53:51Z</time>
      </trkpt>
      <trkpt lat="44.11063" lon="7.24138">
        <ele>2253</ele>
        <time>2025-06-13T09:54:04Z</time>
      </trkpt>
      <trkpt lat="44.11072" lon="7.24135">
        <ele>2258</ele>
        <time>2025-06-13T09:54:09Z</time>
      </trkpt>
      <trkpt lat="44.11098" lon="7.2412">
        <ele>2273</ele>
        <time>2025-06-13T09:54:23Z</time>
      </trkpt>
      <trkpt lat="44.11109" lon="7.2412">
        <ele>2279</ele>
        <time>2025-06-13T09:54:28Z</time>
      </trkpt>
      <trkpt lat="44.11117" lon="7.24116">
        <ele>2284</ele>
        <time>2025-06-13T09:54:33Z</time>
      </trkpt>
      <trkpt lat="44.11139" lon="7.24098">
        <ele>2298</ele>
        <time>2025-06-13T09:54:45Z</time>
      </trkpt>
      <trkpt lat="44.11148" lon="7.24095">
        <ele>2303</ele>
        <time>2025-06-13T09:54:50Z</time>
      </trkpt>
      <trkpt lat="44.1116" lon="7.24098">
        <ele>2310</ele>
        <time>2025-06-13T09:54:56Z</time>
      </trkpt>
      <trkpt lat="44.1117" lon="7.24095">
        <ele>2316</ele>
        <time>2025-06-13T09:55:01Z</time>
      </trkpt>
      <trkpt lat="44.11196" lon="7.24079">
        <ele>2330</ele>
        <time>2025-06-13T09:55:15Z</time>
      </trkpt>
      <trkpt lat="44.11227" lon="7.24065">
        <ele>2345</ele>
        <time>2025-06-13T09:55:32Z</time>
      </trkpt>
      <trkpt lat="44.11253" lon="7.24059">
        <ele>2359</ele>
        <time>2025-06-13T09:55:45Z</time>
      </trkpt>
      <trkpt lat="44.11279" lon="7.24058">
        <ele>2368</ele>
        <time>2025-06-13T09:55:58Z</time>
      </trkpt>
      <trkpt lat="44.11309" lon="7.24062">
        <ele>2379</ele>
        <time>2025-06-13T09:56:13Z</time>
      </trkpt>
      <trkpt lat="44.11323" lon="7.2406">
        <ele>2384</ele>
        <time>2025-06-13T09:56:20Z</time>
      </trkpt>
      <trkpt lat="44.11347" lon="7.24067">
        <ele>2391</ele>
        <time>2025-06-13T09:56:32Z</time>
      </trkpt>
      <trkpt lat="44.1137" lon="7.24067">
        <ele>2397</ele>
        <time>2025-06-13T09:56:44Z</time>
      </trkpt>
      <trkpt lat="44.11377" lon="7.24063">
        <ele>2399</ele>
        <time>2025-06-13T09:56:48Z</time>
      </trkpt>
      <trkpt lat="44.11381" lon="7.24057">
        <ele>2401</ele>
        <time>2025-06-13T09:56:51Z</time>
      </trkpt>
      <trkpt lat="44.11392" lon="7.2404">
        <ele>2408</ele>
        <time>2025-06-13T09:56:59Z</time>
      </trkpt>
      <trkpt lat="44.11405" lon="7.24024">
        <ele>2416</ele>
        <time>2025-06-13T09:57:08Z</time>
      </trkpt>
      <trkpt lat="44.11423" lon="7.23991">
        <ele>2427</ele>
        <time>2025-06-13T09:57:22Z</time>
      </trkpt>
      <trkpt lat="44.11433" lon="7.23987">
        <ele>2431</ele>
        <time>2025-06-13T09:57:28Z</time>
      </trkpt>
      <trkpt lat="44.11446" lon="7.23985">
        <ele>2436</ele>
        <time>2025-06-13T09:57:34Z</time>
      </trkpt>
      <trkpt lat="44.11472" lon="7.23978">
        <ele>2446</ele>
        <time>2025-06-13T09:57:47Z</time>
      </trkpt>
      <trkpt lat="44.11529" lon="7.2396">
        <ele>2468</ele>
        <time>2025-06-13T09:58:17Z</time>
      </trkpt>
      <trkpt lat="44.11554" lon="7.23943">
        <ele>2476</ele>
        <time>2025-06-13T09:58:31Z</time>
      </trkpt>
      <trkpt lat="44.11561" lon="7.23941">
        <ele>2479</ele>
        <time>2025-06-13T09:58:34Z</time>
      </trkpt>
      <trkpt lat="44.11569" lon="7.23943">
        <ele>2482</ele>
        <time>2025-06-13T09:58:38Z</time>
      </trkpt>
      <trkpt lat="44.11572" lon="7.23947">
        <ele>2483</ele>
        <time>2025-06-13T09:58:40Z</time>
      </trkpt>
      <trkpt lat="44.11582" lon="7.23964">
        <ele>2488</ele>
        <time>2025-06-13T09:58:48Z</time>
      </trkpt>
      <trkpt lat="44.11587" lon="7.2397">
        <ele>2488</ele>
        <time>2025-06-13T09:58:52Z</time>
      </trkpt>
      <trkpt lat="44.11603" lon="7.23989">
        <ele>2490</ele>
        <time>2025-06-13T09:59:02Z</time>
      </trkpt>
      <trkpt lat="44.11645" lon="7.24047">
        <ele>2497</ele>
        <time>2025-06-13T09:59:32Z</time>
      </trkpt>
      <trkpt lat="44.11653" lon="7.24067">
        <ele>2500</ele>
        <time>2025-06-13T09:59:40Z</time>
      </trkpt>
      <trkpt lat="44.11645" lon="7.24047">
        <ele>2497</ele>
        <time>2025-06-13T09:59:48Z</time>
      </trkpt>
      <trkpt lat="44.11668" lon="7.2405">
        <ele>2502</ele>
        <time>2025-06-13T10:00:00Z</time>
      </trkpt>
      <trkpt lat="44.11725" lon="7.2404">
        <ele>2491</ele>
        <time>2025-06-13T10:00:28Z</time>
      </trkpt>
      <trkpt lat="44.11752" lon="7.24031">
        <ele>2485</ele>
        <time>2025-06-13T10:00:42Z</time>
      </trkpt>
      <trkpt lat="44.11768" lon="7.24033">
        <ele>2483</ele>
        <time>2025-06-13T10:00:50Z</time>
      </trkpt>
      <trkpt lat="44.11814" lon="7.24019">
        <ele>2474</ele>
        <time>2025-06-13T10:01:14Z</time>
      </trkpt>
      <trkpt lat="44.11823" lon="7.24005">
        <ele>2472</ele>
        <time>2025-06-13T10:01:21Z</time>
      </trkpt>
      <trkpt lat="44.1184" lon="7.23997">
        <ele>2466</ele>
        <time>2025-06-13T10:01:30Z</time>
      </trkpt>
      <trkpt lat="44.11838" lon="7.23972">
        <ele>2460</ele>
        <time>2025-06-13T10:01:39Z</time>
      </trkpt>
      <trkpt lat="44.11833" lon="7.23963">
        <ele>2459</ele>
        <time>2025-06-13T10:01:43Z</time>
      </trkpt>
      <trkpt lat="44.11834" lon="7.23961">
        <ele>2458</ele>
        <time>2025-06-13T10:01:44Z</time>
      </trkpt>
      <trkpt lat="44.11832" lon="7.23956">
        <ele>2457</ele>
        <time>2025-06-13T10:01:46Z</time>
      </trkpt>
      <trkpt lat="44.11833" lon="7.23947">
        <ele>2455</ele>
        <time>2025-06-13T10:01:49Z</time>
      </trkpt>
      <trkpt lat="44.1183" lon="7.23906">
        <ele>2443</ele>
        <time>2025-06-13T10:02:04Z</time>
      </trkpt>
      <trkpt lat="44.11833" lon="7.23902">
        <ele>2441</ele>
        <time>2025-06-13T10:02:06Z</time>
      </trkpt>
      <trkpt lat="44.11834" lon="7.23888">
        <ele>2436</ele>
        <time>2025-06-13T10:02:11Z</time>
      </trkpt>
      <trkpt lat="44.11838" lon="7.23885">
        <ele>2433</ele>
        <time>2025-06-13T10:02:13Z</time>
      </trkpt>
      <trkpt lat="44.11845" lon="7.23857">
        <ele>2420</ele>
        <time>2025-06-13T10:02:24Z</time>
      </trkpt>
      <trkpt lat="44.1185" lon="7.2385">
        <ele>2416</ele>
        <time>2025-06-13T10:02:27Z</time>
      </trkpt>
      <trkpt lat="44.1185" lon="7.23843">
        <ele>2413</ele>
        <time>2025-06-13T10:02:30Z</time>
      </trkpt>
      <trkpt lat="44.11858" lon="7.23838">
        <ele>2408</ele>
        <time>2025-06-13T10:02:34Z</time>
      </trkpt>
      <trkpt lat="44.11858" lon="7.2383">
        <ele>2406</ele>
        <time>2025-06-13T10:02:37Z</time>
      </trkpt>
      <trkpt lat="44.11874" lon="7.23822">
        <ele>2397</ele>
        <time>2025-06-13T10:02:46Z</time>
      </trkpt>
      <trkpt lat="44.11873" lon="7.23809">
        <ele>2394</ele>
        <time>2025-06-13T10:02:50Z</time>
      </trkpt>
      <trkpt lat="44.11888" lon="7.23799">
        <ele>2388</ele>
        <time>2025-06-13T10:02:59Z</time>
      </trkpt>
      <trkpt lat="44.1189" lon="7.23787">
        <ele>2385</ele>
        <time>2025-06-13T10:03:03Z</time>
      </trkpt>
      <trkpt lat="44.11895" lon="7.23788">
        <ele>2384</ele>
        <time>2025-06-13T10:03:06Z</time>
      </trkpt>
      <trkpt lat="44.11911" lon="7.23765">
        <ele>2379</ele>
        <time>2025-06-13T10:03:17Z</time>
      </trkpt>
      <trkpt lat="44.11926" lon="7.23719">
        <ele>2370</ele>
        <time>2025-06-13T10:03:35Z</time>
      </trkpt>
      <trkpt lat="44.11928" lon="7.23698">
        <ele>2368</ele>
        <time>2025-06-13T10:03:43Z</time>
      </trkpt>
      <trkpt lat="44.11932" lon="7.23661">
        <ele>2366</ele>
        <time>2025-06-13T10:03:56Z</time>
      </trkpt>
      <trkpt lat="44.11938" lon="7.2363">
        <ele>2368</ele>
        <time>2025-06-13T10:04:08Z</time>
      </trkpt>
      <trkpt lat="44.11945" lon="7.23584">
        <ele>2373</ele>
        <time>2025-06-13T10:04:25Z</time>
      </trkpt>
      <trkpt lat="44.11944" lon="7.23544">
        <ele>2374</ele>
        <time>2025-06-13T10:04:39Z</time>
      </trkpt>
      <trkpt lat="44.11946" lon="7.23516">
        <ele>2376</ele>
        <time>2025-06-13T10:04:49Z</time>
      </trkpt>
      <trkpt lat="44.11958" lon="7.23477">
        <ele>2376</ele>
        <time>2025-06-13T10:05:04Z</time>
      </trkpt>
      <trkpt lat="44.11971" lon="7.23449">
        <ele>2376</ele>
        <time>2025-06-13T10:05:16Z</time>
      </trkpt>
      <trkpt lat="44.1204" lon="7.23368">
        <ele>2379</ele>
        <time>2025-06-13T10:06:02Z</time>
      </trkpt>
      <trkpt lat="44.12044" lon="7.23361">
        <ele>2378</ele>
        <time>2025-06-13T10:06:05Z</time>
      </trkpt>
      <trkpt lat="44.12061" lon="7.23339">
        <ele>2377</ele>
        <time>2025-06-13T10:06:16Z</time>
      </trkpt>
      <trkpt lat="44.12074" lon="7.23316">
        <ele>2375</ele>
        <time>2025-06-13T10:06:27Z</time>
      </trkpt>
      <trkpt lat="44.12089" lon="7.23286">
        <ele>2370</ele>
        <time>2025-06-13T10:06:40Z</time>
      </trkpt>
      <trkpt lat="44.12102" lon="7.23257">
        <ele>2364</ele>
        <time>2025-06-13T10:06:52Z</time>
      </trkpt>
      <trkpt lat="44.12115" lon="7.2322">
        <ele>2359</ele>
        <time>2025-06-13T10:07:07Z</time>
      </trkpt>
      <trkpt lat="44.12123" lon="7.23197">
        <ele>2357</ele>
        <time>2025-06-13T10:07:16Z</time>
      </trkpt>
      <trkpt lat="44.12136" lon="7.2317">
        <ele>2355</ele>
        <time>2025-06-13T10:07:28Z</time>
      </trkpt>
      <trkpt lat="44.12151" lon="7.23122">
        <ele>2352</ele>
        <time>2025-06-13T10:07:47Z</time>
      </trkpt>
      <trkpt lat="44.12157" lon="7.23078">
        <ele>2347</ele>
        <time>2025-06-13T10:08:03Z</time>
      </trkpt>
      <trkpt lat="44.1216" lon="7.23073">
        <ele>2348</ele>
        <time>2025-06-13T10:08:05Z</time>
      </trkpt>
      <trkpt lat="44.12161" lon="7.23066">
        <ele>2348</ele>
        <time>2025-06-13T10:08:08Z</time>
      </trkpt>
      <trkpt lat="44.12161" lon="7.23059">
        <ele>2348</ele>
        <time>2025-06-13T10:08:10Z</time>
      </trkpt>
      <trkpt lat="44.12164" lon="7.23043">
        <ele>2349</ele>
        <time>2025-06-13T10:08:16Z</time>
      </trkpt>
      <trkpt lat="44.12165" lon="7.23028">
        <ele>2349</ele>
        <time>2025-06-13T10:08:22Z</time>
      </trkpt>
      <trkpt lat="44.12164" lon="7.23016">
        <ele>2349</ele>
        <time>2025-06-13T10:08:26Z</time>
      </trkpt>
      <trkpt lat="44.12165" lon="7.23003">
        <ele>2349</ele>
        <time>2025-06-13T10:08:31Z</time>
      </trkpt>
      <trkpt lat="44.12171" lon="7.23006">
        <ele>2348</ele>
        <time>2025-06-13T10:08:34Z</time>
      </trkpt>
      <trkpt lat="44.12182" lon="7.23007">
        <ele>2347</ele>
        <time>2025-06-13T10:08:39Z</time>
      </trkpt>
      <trkpt lat="44.12188" lon="7.23021">
        <ele>2346</ele>
        <time>2025-06-13T10:08:45Z</time>
      </trkpt>
      <trkpt lat="44.12212" lon="7.2304">
        <ele>2341</ele>
        <time>2025-06-13T10:08:59Z</time>
      </trkpt>
      <trkpt lat="44.12242" lon="7.23085">
        <ele>2334</ele>
        <time>2025-06-13T10:09:21Z</time>
      </trkpt>
      <trkpt lat="44.12249" lon="7.23115">
        <ele>2329</ele>
        <time>2025-06-13T10:09:33Z</time>
      </trkpt>
      <trkpt lat="44.12271" lon="7.23125">
        <ele>2323</ele>
        <time>2025-06-13T10:09:44Z</time>
      </trkpt>
      <trkpt lat="44.12284" lon="7.23136">
        <ele>2320</ele>
        <time>2025-06-13T10:09:52Z</time>
      </trkpt>
      <trkpt lat="44.12291" lon="7.23149">
        <ele>2317</ele>
        <time>2025-06-13T10:09:58Z</time>
      </trkpt>
      <trkpt lat="44.12298" lon="7.23158">
        <ele>2314</ele>
        <time>2025-06-13T10:10:02Z</time>
      </trkpt>
      <trkpt lat="44.12305" lon="7.23196">
        <ele>2309</ele>
        <time>2025-06-13T10:10:16Z</time>
      </trkpt>
      <trkpt lat="44.12319" lon="7.23213">
        <ele>2302</ele>
        <time>2025-06-13T10:10:26Z</time>
      </trkpt>
      <trkpt lat="44.12326" lon="7.23218">
        <ele>2299</ele>
        <time>2025-06-13T10:10:30Z</time>
      </trkpt>
      <trkpt lat="44.12337" lon="7.23215">
        <ele>2297</ele>
        <time>2025-06-13T10:10:35Z</time>
      </trkpt>
      <trkpt lat="44.1234" lon="7.23221">
        <ele>2296</ele>
        <time>2025-06-13T10:10:38Z</time>
      </trkpt>
      <trkpt lat="44.12359" lon="7.23212">
        <ele>2294</ele>
        <time>2025-06-13T10:10:48Z</time>
      </trkpt>
      <trkpt lat="44.12368" lon="7.23217">
        <ele>2292</ele>
        <time>2025-06-13T10:10:53Z</time>
      </trkpt>
      <trkpt lat="44.12372" lon="7.23224">
        <ele>2290</ele>
        <time>2025-06-13T10:10:56Z</time>
      </trkpt>
      <trkpt lat="44.1238" lon="7.23225">
        <ele>2288</ele>
        <time>2025-06-13T10:11:00Z</time>
      </trkpt>
      <trkpt lat="44.12397" lon="7.23244">
        <ele>2281</ele>
        <time>2025-06-13T10:11:11Z</time>
      </trkpt>
      <trkpt lat="44.12404" lon="7.23243">
        <ele>2280</ele>
        <time>2025-06-13T10:11:14Z</time>
      </trkpt>
      <trkpt lat="44.12407" lon="7.23256">
        <ele>2277</ele>
        <time>2025-06-13T10:11:19Z</time>
      </trkpt>
      <trkpt lat="44.12429" lon="7.23264">
        <ele>2273</ele>
        <time>2025-06-13T10:11:31Z</time>
      </trkpt>
      <trkpt lat="44.1243" lon="7.23268">
        <ele>2272</ele>
        <time>2025-06-13T10:11:32Z</time>
      </trkpt>
      <trkpt lat="44.12444" lon="7.23272">
        <ele>2270</ele>
        <time>2025-06-13T10:11:39Z</time>
      </trkpt>
      <trkpt lat="44.12454" lon="7.23304">
        <ele>2264</ele>
        <time>2025-06-13T10:11:52Z</time>
      </trkpt>
      <trkpt lat="44.12473" lon="7.23318">
        <ele>2259</ele>
        <time>2025-06-13T10:12:03Z</time>
      </trkpt>
      <trkpt lat="44.12489" lon="7.23335">
        <ele>2254</ele>
        <time>2025-06-13T10:12:13Z</time>
      </trkpt>
      <trkpt lat="44.12498" lon="7.23353">
        <ele>2250</ele>
        <time>2025-06-13T10:12:21Z</time>
      </trkpt>
      <trkpt lat="44.12509" lon="7.23363">
        <ele>2246</ele>
        <time>2025-06-13T10:12:27Z</time>
      </trkpt>
      <trkpt lat="44.12517" lon="7.23376">
        <ele>2243</ele>
        <time>2025-06-13T10:12:33Z</time>
      </trkpt>
      <trkpt lat="44.12523" lon="7.23403">
        <ele>2239</ele>
        <time>2025-06-13T10:12:43Z</time>
      </trkpt>
      <trkpt lat="44.12532" lon="7.23425">
        <ele>2234</ele>
        <time>2025-06-13T10:12:53Z</time>
      </trkpt>
      <trkpt lat="44.12539" lon="7.23467">
        <ele>2228</ele>
        <time>2025-06-13T10:13:08Z</time>
      </trkpt>
      <trkpt lat="44.12541" lon="7.23488">
        <ele>2225</ele>
        <time>2025-06-13T10:13:16Z</time>
      </trkpt>
      <trkpt lat="44.12542" lon="7.23501">
        <ele>2223</ele>
        <time>2025-06-13T10:13:20Z</time>
      </trkpt>
      <trkpt lat="44.12533" lon="7.23533">
        <ele>2217</ele>
        <time>2025-06-13T10:13:33Z</time>
      </trkpt>
      <trkpt lat="44.12533" lon="7.23558">
        <ele>2212</ele>
        <time>2025-06-13T10:13:42Z</time>
      </trkpt>
      <trkpt lat="44.12541" lon="7.23583">
        <ele>2207</ele>
        <time>2025-06-13T10:13:52Z</time>
      </trkpt>
      <trkpt lat="44.12529" lon="7.23578">
        <ele>2208</ele>
        <time>2025-06-13T10:13:58Z</time>
      </trkpt>
      <trkpt lat="44.12538" lon="7.23598">
        <ele>2202</ele>
        <time>2025-06-13T10:14:06Z</time>
      </trkpt>
      <trkpt lat="44.12548" lon="7.23618">
        <ele>2195</ele>
        <time>2025-06-13T10:14:15Z</time>
      </trkpt>
      <trkpt lat="44.12556" lon="7.2362">
        <ele>2194</ele>
        <time>2025-06-13T10:14:19Z</time>
      </trkpt>
      <trkpt lat="44.12567" lon="7.23632">
        <ele>2190</ele>
        <time>2025-06-13T10:14:26Z</time>
      </trkpt>
      <trkpt lat="44.1255" lon="7.23637">
        <ele>2188</ele>
        <time>2025-06-13T10:14:35Z</time>
      </trkpt>
      <trkpt lat="44.12538" lon="7.23636">
        <ele>2189</ele>
        <time>2025-06-13T10:14:41Z</time>
      </trkpt>
      <trkpt lat="44.12532" lon="7.23638">
        <ele>2188</ele>
        <time>2025-06-13T10:14:44Z</time>
      </trkpt>
      <trkpt lat="44.12527" lon="7.23639">
        <ele>2188</ele>
        <time>2025-06-13T10:14:46Z</time>
      </trkpt>
      <trkpt lat="44.12519" lon="7.23649">
        <ele>2184</ele>
        <time>2025-06-13T10:14:52Z</time>
      </trkpt>
      <trkpt lat="44.12527" lon="7.23648">
        <ele>2184</ele>
        <time>2025-06-13T10:14:56Z</time>
      </trkpt>
      <trkpt lat="44.12551" lon="7.23671">
        <ele>2177</ele>
        <time>2025-06-13T10:15:10Z</time>
      </trkpt>
      <trkpt lat="44.1256" lon="7.23684">
        <ele>2173</ele>
        <time>2025-06-13T10:15:17Z</time>
      </trkpt>
      <trkpt lat="44.12568" lon="7.23693">
        <ele>2170</ele>
        <time>2025-06-13T10:15:22Z</time>
      </trkpt>
      <trkpt lat="44.12547" lon="7.23692">
        <ele>2171</ele>
        <time>2025-06-13T10:15:33Z</time>
      </trkpt>
      <trkpt lat="44.12541" lon="7.23688">
        <ele>2172</ele>
        <time>2025-06-13T10:15:36Z</time>
      </trkpt>
      <trkpt lat="44.12535" lon="7.23688">
        <ele>2172</ele>
        <time>2025-06-13T10:15:39Z</time>
      </trkpt>
      <trkpt lat="44.12532" lon="7.23693">
        <ele>2171</ele>
        <time>2025-06-13T10:15:41Z</time>
      </trkpt>
      <trkpt lat="44.12533" lon="7.23707">
        <ele>2167</ele>
        <time>2025-06-13T10:15:46Z</time>
      </trkpt>
      <trkpt lat="44.12537" lon="7.23727">
        <ele>2162</ele>
        <time>2025-06-13T10:15:54Z</time>
      </trkpt>
      <trkpt lat="44.12537" lon="7.23752">
        <ele>2156</ele>
        <time>2025-06-13T10:16:03Z</time>
      </trkpt>
      <trkpt lat="44.12535" lon="7.23775">
        <ele>2154</ele>
        <time>2025-06-13T10:16:11Z</time>
      </trkpt>
      <trkpt lat="44.12531" lon="7.23793">
        <ele>2153</ele>
        <time>2025-06-13T10:16:18Z</time>
      </trkpt>
      <trkpt lat="44.12535" lon="7.23814">
        <ele>2152</ele>
        <time>2025-06-13T10:16:26Z</time>
      </trkpt>
      <trkpt lat="44.12539" lon="7.23832">
        <ele>2150</ele>
        <time>2025-06-13T10:16:32Z</time>
      </trkpt>
      <trkpt lat="44.12538" lon="7.23855">
        <ele>2149</ele>
        <time>2025-06-13T10:16:41Z</time>
      </trkpt>
      <trkpt lat="44.12535" lon="7.23878">
        <ele>2148</ele>
        <time>2025-06-13T10:16:49Z</time>
      </trkpt>
      <trkpt lat="44.1253" lon="7.2389">
        <ele>2147</ele>
        <time>2025-06-13T10:16:54Z</time>
      </trkpt>
      <trkpt lat="44.12523" lon="7.23894">
        <ele>2147</ele>
        <time>2025-06-13T10:16:58Z</time>
      </trkpt>
      <trkpt lat="44.12516" lon="7.23887">
        <ele>2148</ele>
        <time>2025-06-13T10:17:02Z</time>
      </trkpt>
      <trkpt lat="44.12513" lon="7.23876">
        <ele>2149</ele>
        <time>2025-06-13T10:17:06Z</time>
      </trkpt>
      <trkpt lat="44.12505" lon="7.23894">
        <ele>2148</ele>
        <time>2025-06-13T10:17:14Z</time>
      </trkpt>
      <trkpt lat="44.12493" lon="7.2391">
        <ele>2147</ele>
        <time>2025-06-13T10:17:22Z</time>
      </trkpt>
      <trkpt lat="44.12478" lon="7.23925">
        <ele>2148</ele>
        <time>2025-06-13T10:17:32Z</time>
      </trkpt>
      <trkpt lat="44.12475" lon="7.23926">
        <ele>2148</ele>
        <time>2025-06-13T10:17:33Z</time>
      </trkpt>
      <trkpt lat="44.12475" lon="7.23931">
        <ele>2148</ele>
        <time>2025-06-13T10:17:35Z</time>
      </trkpt>
      <trkpt lat="44.12489" lon="7.23955">
        <ele>2144</ele>
        <time>2025-06-13T10:17:46Z</time>
      </trkpt>
      <trkpt lat="44.12494" lon="7.23961">
        <ele>2143</ele>
        <time>2025-06-13T10:17:49Z</time>
      </trkpt>
      <trkpt lat="44.1251" lon="7.24">
        <ele>2141</ele>
        <time>2025-06-13T10:18:05Z</time>
      </trkpt>
      <trkpt lat="44.12509" lon="7.24009">
        <ele>2141</ele>
        <time>2025-06-13T10:18:09Z</time>
      </trkpt>
      <trkpt lat="44.1251" lon="7.24019">
        <ele>2141</ele>
        <time>2025-06-13T10:18:12Z</time>
      </trkpt>
      <trkpt lat="44.12496" lon="7.24032">
        <ele>2141</ele>
        <time>2025-06-13T10:18:21Z</time>
      </trkpt>
      <trkpt lat="44.1248" lon="7.24066">
        <ele>2142</ele>
        <time>2025-06-13T10:18:35Z</time>
      </trkpt>
      <trkpt lat="44.12473" lon="7.24098">
        <ele>2140</ele>
        <time>2025-06-13T10:18:47Z</time>
      </trkpt>
      <trkpt lat="44.12471" lon="7.24117">
        <ele>2139</ele>
        <time>2025-06-13T10:18:54Z</time>
      </trkpt>
      <trkpt lat="44.12469" lon="7.24173">
        <ele>2135</ele>
        <time>2025-06-13T10:19:14Z</time>
      </trkpt>
      <trkpt lat="44.12476" lon="7.24192">
        <ele>2133</ele>
        <time>2025-06-13T10:19:22Z</time>
      </trkpt>
      <trkpt lat="44.12474" lon="7.24259">
        <ele>2124</ele>
        <time>2025-06-13T10:19:46Z</time>
      </trkpt>
      <trkpt lat="44.12453" lon="7.24303">
        <ele>2120</ele>
        <time>2025-06-13T10:20:05Z</time>
      </trkpt>
      <trkpt lat="44.12444" lon="7.2435">
        <ele>2116</ele>
        <time>2025-06-13T10:20:23Z</time>
      </trkpt>
      <trkpt lat="44.12444" lon="7.2435">
        <ele>2116</ele>
        <time>2025-06-13T10:20:23Z</time>
      </trkpt>
      <trkpt lat="44.12438" lon="7.24379">
        <ele>2114</ele>
        <time>2025-06-13T10:20:33Z</time>
      </trkpt>
      <trkpt lat="44.12436" lon="7.24397">
        <ele>2113</ele>
        <time>2025-06-13T10:20:40Z</time>
      </trkpt>
      <trkpt lat="44.12438" lon="7.24413">
        <ele>2113</ele>
        <time>2025-06-13T10:20:46Z</time>
      </trkpt>
      <trkpt lat="44.12437" lon="7.24458">
        <ele>2111</ele>
        <time>2025-06-13T10:21:02Z</time>
      </trkpt>
      <trkpt lat="44.12433" lon="7.24477">
        <ele>2110</ele>
        <time>2025-06-13T10:21:09Z</time>
      </trkpt>
      <trkpt lat="44.1243" lon="7.24509">
        <ele>2108</ele>
        <time>2025-06-13T10:21:21Z</time>
      </trkpt>
      <trkpt lat="44.12424" lon="7.24525">
        <ele>2105</ele>
        <time>2025-06-13T10:21:27Z</time>
      </trkpt>
      <trkpt lat="44.12412" lon="7.24535">
        <ele>2105</ele>
        <time>2025-06-13T10:21:34Z</time>
      </trkpt>
      <trkpt lat="44.12404" lon="7.24548">
        <ele>2106</ele>
        <time>2025-06-13T10:21:40Z</time>
      </trkpt>
      <trkpt lat="44.124" lon="7.24565">
        <ele>2105</ele>
        <time>2025-06-13T10:21:47Z</time>
      </trkpt>
      <trkpt lat="44.12398" lon="7.24569">
        <ele>2106</ele>
        <time>2025-06-13T10:21:49Z</time>
      </trkpt>
      <trkpt lat="44.12396" lon="7.24577">
        <ele>2106</ele>
        <time>2025-06-13T10:21:52Z</time>
      </trkpt>
      <trkpt lat="44.12388" lon="7.24598">
        <ele>2109</ele>
        <time>2025-06-13T10:22:00Z</time>
      </trkpt>
      <trkpt lat="44.12387" lon="7.24614">
        <ele>2109</ele>
        <time>2025-06-13T10:22:06Z</time>
      </trkpt>
      <trkpt lat="44.12387" lon="7.24626">
        <ele>2109</ele>
        <time>2025-06-13T10:22:10Z</time>
      </trkpt>
      <trkpt lat="44.1239" lon="7.24633">
        <ele>2107</ele>
        <time>2025-06-13T10:22:13Z</time>
      </trkpt>
      <trkpt lat="44.12391" lon="7.24638">
        <ele>2107</ele>
        <time>2025-06-13T10:22:15Z</time>
      </trkpt>
      <trkpt lat="44.12389" lon="7.24649">
        <ele>2108</ele>
        <time>2025-06-13T10:22:19Z</time>
      </trkpt>
      <trkpt lat="44.12388" lon="7.24684">
        <ele>2108</ele>
        <time>2025-06-13T10:22:32Z</time>
      </trkpt>
      <trkpt lat="44.12402" lon="7.24737">
        <ele>2098</ele>
        <time>2025-06-13T10:22:52Z</time>
      </trkpt>
      <trkpt lat="44.12417" lon="7.24793">
        <ele>2085</ele>
        <time>2025-06-13T10:23:13Z</time>
      </trkpt>
      <trkpt lat="44.12418" lon="7.24805">
        <ele>2084</ele>
        <time>2025-06-13T10:23:18Z</time>
      </trkpt>
      <trkpt lat="44.12418" lon="7.24815">
        <ele>2084</ele>
        <time>2025-06-13T10:23:21Z</time>
      </trkpt>
      <trkpt lat="44.12411" lon="7.24847">
        <ele>2082</ele>
        <time>2025-06-13T10:23:33Z</time>
      </trkpt>
      <trkpt lat="44.12403" lon="7.24867">
        <ele>2079</ele>
        <time>2025-06-13T10:23:42Z</time>
      </trkpt>
      <trkpt lat="44.12393" lon="7.24905">
        <ele>2071</ele>
        <time>2025-06-13T10:23:56Z</time>
      </trkpt>
      <trkpt lat="44.12385" lon="7.24929">
        <ele>2067</ele>
        <time>2025-06-13T10:24:06Z</time>
      </trkpt>
      <trkpt lat="44.12377" lon="7.24941">
        <ele>2067</ele>
        <time>2025-06-13T10:24:11Z</time>
      </trkpt>
      <trkpt lat="44.1236" lon="7.24962">
        <ele>2067</ele>
        <time>2025-06-13T10:24:23Z</time>
      </trkpt>
      <trkpt lat="44.12353" lon="7.24974">
        <ele>2067</ele>
        <time>2025-06-13T10:24:28Z</time>
      </trkpt>
      <trkpt lat="44.12345" lon="7.24995">
        <ele>2064</ele>
        <time>2025-06-13T10:24:37Z</time>
      </trkpt>
      <trkpt lat="44.12336" lon="7.25011">
        <ele>2062</ele>
        <time>2025-06-13T10:24:44Z</time>
      </trkpt>
      <trkpt lat="44.12332" lon="7.25024">
        <ele>2059</ele>
        <time>2025-06-13T10:24:49Z</time>
      </trkpt>
      <trkpt lat="44.12326" lon="7.2505">
        <ele>2051</ele>
        <time>2025-06-13T10:24:59Z</time>
      </trkpt>
      <trkpt lat="44.12325" lon="7.25057">
        <ele>2049</ele>
        <time>2025-06-13T10:25:02Z</time>
      </trkpt>
      <trkpt lat="44.12327" lon="7.25063">
        <ele>2046</ele>
        <time>2025-06-13T10:25:04Z</time>
      </trkpt>
      <trkpt lat="44.12331" lon="7.25065">
        <ele>2044</ele>
        <time>2025-06-13T10:25:06Z</time>
      </trkpt>
      <trkpt lat="44.12354" lon="7.25051">
        <ele>2038</ele>
        <time>2025-06-13T10:25:19Z</time>
      </trkpt>
      <trkpt lat="44.1237" lon="7.2504">
        <ele>2035</ele>
        <time>2025-06-13T10:25:28Z</time>
      </trkpt>
      <trkpt lat="44.12396" lon="7.25008">
        <ele>2035</ele>
        <time>2025-06-13T10:25:45Z</time>
      </trkpt>
      <trkpt lat="44.124" lon="7.25004">
        <ele>2034</ele>
        <time>2025-06-13T10:25:48Z</time>
      </trkpt>
      <trkpt lat="44.12425" lon="7.24999">
        <ele>2025</ele>
        <time>2025-06-13T10:26:00Z</time>
      </trkpt>
      <trkpt lat="44.12456" lon="7.24991">
        <ele>2017</ele>
        <time>2025-06-13T10:26:16Z</time>
      </trkpt>
      <trkpt lat="44.12468" lon="7.24989">
        <ele>2013</ele>
        <time>2025-06-13T10:26:22Z</time>
      </trkpt>
      <trkpt lat="44.12492" lon="7.24984">
        <ele>2006</ele>
        <time>2025-06-13T10:26:34Z</time>
      </trkpt>
      <trkpt lat="44.12513" lon="7.2497">
        <ele>2001</ele>
        <time>2025-06-13T10:26:46Z</time>
      </trkpt>
      <trkpt lat="44.12516" lon="7.24971">
        <ele>1999</ele>
        <time>2025-06-13T10:26:47Z</time>
      </trkpt>
      <trkpt lat="44.12517" lon="7.24973">
        <ele>1998</ele>
        <time>2025-06-13T10:26:48Z</time>
      </trkpt>
      <trkpt lat="44.12517" lon="7.24976">
        <ele>1997</ele>
        <time>2025-06-13T10:26:49Z</time>
      </trkpt>
      <trkpt lat="44.12511" lon="7.25">
        <ele>1992</ele>
        <time>2025-06-13T10:26:58Z</time>
      </trkpt>
      <trkpt lat="44.12507" lon="7.25007">
        <ele>1990</ele>
        <time>2025-06-13T10:27:02Z</time>
      </trkpt>
      <trkpt lat="44.12502" lon="7.25012">
        <ele>1990</ele>
        <time>2025-06-13T10:27:05Z</time>
      </trkpt>
      <trkpt lat="44.12497" lon="7.25013">
        <ele>1991</ele>
        <time>2025-06-13T10:27:07Z</time>
      </trkpt>
      <trkpt lat="44.12488" lon="7.25011">
        <ele>1996</ele>
        <time>2025-06-13T10:27:12Z</time>
      </trkpt>
      <trkpt lat="44.12486" lon="7.25014">
        <ele>1995</ele>
        <time>2025-06-13T10:27:13Z</time>
      </trkpt>
      <trkpt lat="44.12486" lon="7.25016">
        <ele>1994</ele>
        <time>2025-06-13T10:27:14Z</time>
      </trkpt>
      <trkpt lat="44.12494" lon="7.25021">
        <ele>1989</ele>
        <time>2025-06-13T10:27:18Z</time>
      </trkpt>
      <trkpt lat="44.12507" lon="7.25027">
        <ele>1980</ele>
        <time>2025-06-13T10:27:25Z</time>
      </trkpt>
      <trkpt lat="44.12514" lon="7.25026">
        <ele>1977</ele>
        <time>2025-06-13T10:27:29Z</time>
      </trkpt>
      <trkpt lat="44.12546" lon="7.24999">
        <ele>1976</ele>
        <time>2025-06-13T10:27:47Z</time>
      </trkpt>
      <trkpt lat="44.12581" lon="7.24976">
        <ele>1965</ele>
        <time>2025-06-13T10:28:07Z</time>
      </trkpt>
      <trkpt lat="44.12585" lon="7.24976">
        <ele>1962</ele>
        <time>2025-06-13T10:28:09Z</time>
      </trkpt>
      <trkpt lat="44.12586" lon="7.24982">
        <ele>1960</ele>
        <time>2025-06-13T10:28:11Z</time>
      </trkpt>
      <trkpt lat="44.12585" lon="7.24985">
        <ele>1960</ele>
        <time>2025-06-13T10:28:12Z</time>
      </trkpt>
      <trkpt lat="44.12583" lon="7.24992">
        <ele>1960</ele>
        <time>2025-06-13T10:28:15Z</time>
      </trkpt>
      <trkpt lat="44.12585" lon="7.24992">
        <ele>1958</ele>
        <time>2025-06-13T10:28:16Z</time>
      </trkpt>
      <trkpt lat="44.12589" lon="7.24986">
        <ele>1957</ele>
        <time>2025-06-13T10:28:19Z</time>
      </trkpt>
      <trkpt lat="44.1259" lon="7.24985">
        <ele>1956</ele>
        <time>2025-06-13T10:28:19Z</time>
      </trkpt>
      <trkpt lat="44.12591" lon="7.24985">
        <ele>1955</ele>
        <time>2025-06-13T10:28:20Z</time>
      </trkpt>
      <trkpt lat="44.12591" lon="7.24988">
        <ele>1954</ele>
        <time>2025-06-13T10:28:21Z</time>
      </trkpt>
      <trkpt lat="44.12586" lon="7.24996">
        <ele>1957</ele>
        <time>2025-06-13T10:28:25Z</time>
      </trkpt>
      <trkpt lat="44.12571" lon="7.25008">
        <ele>1960</ele>
        <time>2025-06-13T10:28:34Z</time>
      </trkpt>
      <trkpt lat="44.12567" lon="7.25012">
        <ele>1959</ele>
        <time>2025-06-13T10:28:36Z</time>
      </trkpt>
      <trkpt lat="44.12563" lon="7.25021">
        <ele>1956</ele>
        <time>2025-06-13T10:28:40Z</time>
      </trkpt>
      <trkpt lat="44.12559" lon="7.25027">
        <ele>1955</ele>
        <time>2025-06-13T10:28:43Z</time>
      </trkpt>
      <trkpt lat="44.12532" lon="7.25047">
        <ele>1958</ele>
        <time>2025-06-13T10:28:58Z</time>
      </trkpt>
      <trkpt lat="44.12531" lon="7.2505">
        <ele>1956</ele>
        <time>2025-06-13T10:28:59Z</time>
      </trkpt>
      <trkpt lat="44.12532" lon="7.2505">
        <ele>1956</ele>
        <time>2025-06-13T10:29:00Z</time>
      </trkpt>
      <trkpt lat="44.12547" lon="7.2505">
        <ele>1949</ele>
        <time>2025-06-13T10:29:07Z</time>
      </trkpt>
      <trkpt lat="44.12554" lon="7.25048">
        <ele>1947</ele>
        <time>2025-06-13T10:29:11Z</time>
      </trkpt>
      <trkpt lat="44.12569" lon="7.25032">
        <ele>1948</ele>
        <time>2025-06-13T10:29:20Z</time>
      </trkpt>
      <trkpt lat="44.12578" lon="7.25026">
        <ele>1947</ele>
        <time>2025-06-13T10:29:25Z</time>
      </trkpt>
      <trkpt lat="44.12585" lon="7.25017">
        <ele>1948</ele>
        <time>2025-06-13T10:29:30Z</time>
      </trkpt>
      <trkpt lat="44.12603" lon="7.25003">
        <ele>1940</ele>
        <time>2025-06-13T10:29:40Z</time>
      </trkpt>
      <trkpt lat="44.12606" lon="7.25003">
        <ele>1938</ele>
        <time>2025-06-13T10:29:42Z</time>
      </trkpt>
      <trkpt lat="44.12607" lon="7.25005">
        <ele>1936</ele>
        <time>2025-06-13T10:29:43Z</time>
      </trkpt>
      <trkpt lat="44.12607" lon="7.25007">
        <ele>1935</ele>
        <time>2025-06-13T10:29:43Z</time>
      </trkpt>
      <trkpt lat="44.12602" lon="7.25017">
        <ele>1934</ele>
        <time>2025-06-13T10:29:48Z</time>
      </trkpt>
      <trkpt lat="44.12584" lon="7.25039">
        <ele>1937</ele>
        <time>2025-06-13T10:30:00Z</time>
      </trkpt>
      <trkpt lat="44.12565" lon="7.25064">
        <ele>1933</ele>
        <time>2025-06-13T10:30:13Z</time>
      </trkpt>
      <trkpt lat="44.12561" lon="7.25067">
        <ele>1933</ele>
        <time>2025-06-13T10:30:15Z</time>
      </trkpt>
      <trkpt lat="44.12536" lon="7.25092">
        <ele>1932</ele>
        <time>2025-06-13T10:30:31Z</time>
      </trkpt>
      <trkpt lat="44.12524" lon="7.25105">
        <ele>1929</ele>
        <time>2025-06-13T10:30:38Z</time>
      </trkpt>
      <trkpt lat="44.12489" lon="7.25127">
        <ele>1933</ele>
        <time>2025-06-13T10:30:57Z</time>
      </trkpt>
      <trkpt lat="44.12482" lon="7.25142">
        <ele>1928</ele>
        <time>2025-06-13T10:31:04Z</time>
      </trkpt>
      <trkpt lat="44.12499" lon="7.25144">
        <ele>1915</ele>
        <time>2025-06-13T10:31:12Z</time>
      </trkpt>
      <trkpt lat="44.12528" lon="7.25136">
        <ele>1909</ele>
        <time>2025-06-13T10:31:27Z</time>
      </trkpt>
      <trkpt lat="44.12541" lon="7.25133">
        <ele>1905</ele>
        <time>2025-06-13T10:31:34Z</time>
      </trkpt>
      <trkpt lat="44.12558" lon="7.25123">
        <ele>1904</ele>
        <time>2025-06-13T10:31:43Z</time>
      </trkpt>
      <trkpt lat="44.12589" lon="7.25126">
        <ele>1888</ele>
        <time>2025-06-13T10:31:59Z</time>
      </trkpt>
      <trkpt lat="44.12634" lon="7.25089">
        <ele>1879</ele>
        <time>2025-06-13T10:32:25Z</time>
      </trkpt>
      <trkpt lat="44.12623" lon="7.25123">
        <ele>1872</ele>
        <time>2025-06-13T10:32:38Z</time>
      </trkpt>
      <trkpt lat="44.12667" lon="7.25091">
        <ele>1858</ele>
        <time>2025-06-13T10:33:03Z</time>
      </trkpt>
      <trkpt lat="44.12673" lon="7.25083">
        <ele>1858</ele>
        <time>2025-06-13T10:33:07Z</time>
      </trkpt>
      <trkpt lat="44.12665" lon="7.25066">
        <ele>1867</ele>
        <time>2025-06-13T10:33:14Z</time>
      </trkpt>
      <trkpt lat="44.12675" lon="7.25071">
        <ele>1861</ele>
        <time>2025-06-13T10:33:20Z</time>
      </trkpt>
      <trkpt lat="44.12682" lon="7.25081">
        <ele>1855</ele>
        <time>2025-06-13T10:33:25Z</time>
      </trkpt>
      <trkpt lat="44.12681" lon="7.25096">
        <ele>1851</ele>
        <time>2025-06-13T10:33:30Z</time>
      </trkpt>
      <trkpt lat="44.12675" lon="7.251">
        <ele>1852</ele>
        <time>2025-06-13T10:33:33Z</time>
      </trkpt>
      <trkpt lat="44.12665" lon="7.25134">
        <ele>1846</ele>
        <time>2025-06-13T10:33:47Z</time>
      </trkpt>
      <trkpt lat="44.12682" lon="7.25128">
        <ele>1841</ele>
        <time>2025-06-13T10:33:55Z</time>
      </trkpt>
      <trkpt lat="44.1268" lon="7.25145">
        <ele>1837</ele>
        <time>2025-06-13T10:34:02Z</time>
      </trkpt>
      <trkpt lat="44.12674" lon="7.25153">
        <ele>1837</ele>
        <time>2025-06-13T10:34:06Z</time>
      </trkpt>
      <trkpt lat="44.12679" lon="7.25164">
        <ele>1832</ele>
        <time>2025-06-13T10:34:10Z</time>
      </trkpt>
      <trkpt lat="44.12679" lon="7.25175">
        <ele>1828</ele>
        <time>2025-06-13T10:34:14Z</time>
      </trkpt>
      <trkpt lat="44.12695" lon="7.25227">
        <ele>1804</ele>
        <time>2025-06-13T10:34:35Z</time>
      </trkpt>
      <trkpt lat="44.12691" lon="7.25241">
        <ele>1800</ele>
        <time>2025-06-13T10:34:40Z</time>
      </trkpt>
      <trkpt lat="44.12674" lon="7.25243">
        <ele>1802</ele>
        <time>2025-06-13T10:34:49Z</time>
      </trkpt>
      <trkpt lat="44.12671" lon="7.25256">
        <ele>1798</ele>
        <time>2025-06-13T10:34:54Z</time>
      </trkpt>
      <trkpt lat="44.12664" lon="7.25266">
        <ele>1797</ele>
        <time>2025-06-13T10:34:59Z</time>
      </trkpt>
      <trkpt lat="44.12667" lon="7.25275">
        <ele>1794</ele>
        <time>2025-06-13T10:35:02Z</time>
      </trkpt>
      <trkpt lat="44.12695" lon="7.25294">
        <ele>1785</ele>
        <time>2025-06-13T10:35:18Z</time>
      </trkpt>
      <trkpt lat="44.12701" lon="7.25306">
        <ele>1781</ele>
        <time>2025-06-13T10:35:23Z</time>
      </trkpt>
      <trkpt lat="44.12698" lon="7.2533">
        <ele>1775</ele>
        <time>2025-06-13T10:35:32Z</time>
      </trkpt>
      <trkpt lat="44.12699" lon="7.25355">
        <ele>1771</ele>
        <time>2025-06-13T10:35:41Z</time>
      </trkpt>
      <trkpt lat="44.12678" lon="7.2542">
        <ele>1762</ele>
        <time>2025-06-13T10:36:06Z</time>
      </trkpt>
      <trkpt lat="44.12672" lon="7.25453">
        <ele>1757</ele>
        <time>2025-06-13T10:36:19Z</time>
      </trkpt>
      <trkpt lat="44.12664" lon="7.25475">
        <ele>1754</ele>
        <time>2025-06-13T10:36:27Z</time>
      </trkpt>
      <trkpt lat="44.12641" lon="7.255">
        <ele>1755</ele>
        <time>2025-06-13T10:36:42Z</time>
      </trkpt>
      <trkpt lat="44.12632" lon="7.25521">
        <ele>1756</ele>
        <time>2025-06-13T10:36:51Z</time>
      </trkpt>
      <trkpt lat="44.12627" lon="7.25596">
        <ele>1750</ele>
        <time>2025-06-13T10:37:18Z</time>
      </trkpt>
      <trkpt lat="44.12632" lon="7.25628">
        <ele>1744</ele>
        <time>2025-06-13T10:37:30Z</time>
      </trkpt>
      <trkpt lat="44.12625" lon="7.25639">
        <ele>1744</ele>
        <time>2025-06-13T10:37:35Z</time>
      </trkpt>
      <trkpt lat="44.12623" lon="7.25661">
        <ele>1741</ele>
        <time>2025-06-13T10:37:43Z</time>
      </trkpt>
      <trkpt lat="44.12628" lon="7.2567">
        <ele>1738</ele>
        <time>2025-06-13T10:37:47Z</time>
      </trkpt>
      <trkpt lat="44.12635" lon="7.25685">
        <ele>1735</ele>
        <time>2025-06-13T10:37:53Z</time>
      </trkpt>
      <trkpt lat="44.12628" lon="7.25708">
        <ele>1733</ele>
        <time>2025-06-13T10:38:02Z</time>
      </trkpt>
      <trkpt lat="44.12628" lon="7.25724">
        <ele>1731</ele>
        <time>2025-06-13T10:38:08Z</time>
      </trkpt>
      <trkpt lat="44.12635" lon="7.25735">
        <ele>1729</ele>
        <time>2025-06-13T10:38:13Z</time>
      </trkpt>
      <trkpt lat="44.12634" lon="7.25748">
        <ele>1728</ele>
        <time>2025-06-13T10:38:18Z</time>
      </trkpt>
      <trkpt lat="44.12602" lon="7.25777">
        <ele>1724</ele>
        <time>2025-06-13T10:38:37Z</time>
      </trkpt>
      <trkpt lat="44.12591" lon="7.25798">
        <ele>1720</ele>
        <time>2025-06-13T10:38:47Z</time>
      </trkpt>
      <trkpt lat="44.12591" lon="7.25798">
        <ele>1720</ele>
        <time>2025-06-13T10:38:47Z</time>
      </trkpt>
      <trkpt lat="44.12584" lon="7.25809">
        <ele>1717</ele>
        <time>2025-06-13T10:38:52Z</time>
      </trkpt>
      <trkpt lat="44.1259" lon="7.2588">
        <ele>1708</ele>
        <time>2025-06-13T10:39:17Z</time>
      </trkpt>
      <trkpt lat="44.12618" lon="7.25939">
        <ele>1705</ele>
        <time>2025-06-13T10:39:43Z</time>
      </trkpt>
      <trkpt lat="44.12619" lon="7.25953">
        <ele>1703</ele>
        <time>2025-06-13T10:39:48Z</time>
      </trkpt>
      <trkpt lat="44.12613" lon="7.25978">
        <ele>1699</ele>
        <time>2025-06-13T10:39:57Z</time>
      </trkpt>
      <trkpt lat="44.12609" lon="7.25987">
        <ele>1698</ele>
        <time>2025-06-13T10:40:01Z</time>
      </trkpt>
      <trkpt lat="44.12604" lon="7.25994">
        <ele>1696</ele>
        <time>2025-06-13T10:40:05Z</time>
      </trkpt>
      <trkpt lat="44.12601" lon="7.26001">
        <ele>1695</ele>
        <time>2025-06-13T10:40:08Z</time>
      </trkpt>
      <trkpt lat="44.12579" lon="7.26063">
        <ele>1684</ele>
        <time>2025-06-13T10:40:33Z</time>
      </trkpt>
      <trkpt lat="44.12579" lon="7.26063">
        <ele>1684</ele>
        <time>2025-06-13T10:40:33Z</time>
      </trkpt>
      <trkpt lat="44.12579" lon="7.26063">
        <ele>1684</ele>
        <time>2025-06-13T10:40:33Z</time>
      </trkpt>
      <trkpt lat="44.12584" lon="7.26064">
        <ele>1682</ele>
        <time>2025-06-13T10:40:35Z</time>
      </trkpt>
      <trkpt lat="44.12591" lon="7.26066">
        <ele>1682</ele>
        <time>2025-06-13T10:40:39Z</time>
      </trkpt>
      <trkpt lat="44.12598" lon="7.26065">
        <ele>1684</ele>
        <time>2025-06-13T10:40:42Z</time>
      </trkpt>
      <trkpt lat="44.12601" lon="7.261">
        <ele>1680</ele>
        <time>2025-06-13T10:40:55Z</time>
      </trkpt>
      <trkpt lat="44.12602" lon="7.26116">
        <ele>1679</ele>
        <time>2025-06-13T10:41:01Z</time>
      </trkpt>
      <trkpt lat="44.12595" lon="7.26221">
        <ele>1670</ele>
        <time>2025-06-13T10:41:38Z</time>
      </trkpt>
      <trkpt lat="44.12582" lon="7.26324">
        <ele>1660</ele>
        <time>2025-06-13T10:42:16Z</time>
      </trkpt>
      <trkpt lat="44.12579" lon="7.26381">
        <ele>1656</ele>
        <time>2025-06-13T10:42:37Z</time>
      </trkpt>
      <trkpt lat="44.12577" lon="7.26416">
        <ele>1653</ele>
        <time>2025-06-13T10:42:49Z</time>
      </trkpt>
      <trkpt lat="44.12577" lon="7.26416">
        <ele>1653</ele>
        <time>2025-06-13T10:42:49Z</time>
      </trkpt>
      <trkpt lat="44.12576" lon="7.26432">
        <ele>1654</ele>
        <time>2025-06-13T10:42:55Z</time>
      </trkpt>
      <trkpt lat="44.12571" lon="7.26462">
        <ele>1656</ele>
        <time>2025-06-13T10:43:06Z</time>
      </trkpt>
      <trkpt lat="44.12566" lon="7.26484">
        <ele>1656</ele>
        <time>2025-06-13T10:43:14Z</time>
      </trkpt>
      <trkpt lat="44.12545" lon="7.26542">
        <ele>1654</ele>
        <time>2025-06-13T10:43:38Z</time>
      </trkpt>
      <trkpt lat="44.12529" lon="7.2658">
        <ele>1649</ele>
        <time>2025-06-13T10:43:53Z</time>
      </trkpt>
      <trkpt lat="44.12485" lon="7.26669">
        <ele>1644</ele>
        <time>2025-06-13T10:44:32Z</time>
      </trkpt>
      <trkpt lat="44.12466" lon="7.267">
        <ele>1644</ele>
        <time>2025-06-13T10:44:47Z</time>
      </trkpt>
      <trkpt lat="44.12436" lon="7.26736">
        <ele>1634</ele>
        <time>2025-06-13T10:45:07Z</time>
      </trkpt>
      <trkpt lat="44.12418" lon="7.26762">
        <ele>1625</ele>
        <time>2025-06-13T10:45:20Z</time>
      </trkpt>
      <trkpt lat="44.12404" lon="7.2679">
        <ele>1625</ele>
        <time>2025-06-13T10:45:32Z</time>
      </trkpt>
      <trkpt lat="44.12407" lon="7.26832">
        <ele>1631</ele>
        <time>2025-06-13T10:45:47Z</time>
      </trkpt>
      <trkpt lat="44.12406" lon="7.26844">
        <ele>1631</ele>
        <time>2025-06-13T10:45:52Z</time>
      </trkpt>
      <trkpt lat="44.12401" lon="7.2687">
        <ele>1632</ele>
        <time>2025-06-13T10:46:01Z</time>
      </trkpt>
      <trkpt lat="44.1239" lon="7.26908">
        <ele>1630</ele>
        <time>2025-06-13T10:46:16Z</time>
      </trkpt>
      <trkpt lat="44.12369" lon="7.26948">
        <ele>1626</ele>
        <time>2025-06-13T10:46:34Z</time>
      </trkpt>
      <trkpt lat="44.12349" lon="7.26966">
        <ele>1617</ele>
        <time>2025-06-13T10:46:46Z</time>
      </trkpt>
      <trkpt lat="44.12334" lon="7.26984">
        <ele>1611</ele>
        <time>2025-06-13T10:46:56Z</time>
      </trkpt>
      <trkpt lat="44.12326" lon="7.27">
        <ele>1610</ele>
        <time>2025-06-13T10:47:03Z</time>
      </trkpt>
      <trkpt lat="44.12319" lon="7.27021">
        <ele>1616</ele>
        <time>2025-06-13T10:47:11Z</time>
      </trkpt>
      <trkpt lat="44.12308" lon="7.27036">
        <ele>1617</ele>
        <time>2025-06-13T10:47:19Z</time>
      </trkpt>
      <trkpt lat="44.1227" lon="7.27068">
        <ele>1608</ele>
        <time>2025-06-13T10:47:41Z</time>
      </trkpt>
      <trkpt lat="44.1226" lon="7.27098">
        <ele>1607</ele>
        <time>2025-06-13T10:47:53Z</time>
      </trkpt>
      <trkpt lat="44.12254" lon="7.27117">
        <ele>1607</ele>
        <time>2025-06-13T10:48:00Z</time>
      </trkpt>
      <trkpt lat="44.12234" lon="7.27139">
        <ele>1603</ele>
        <time>2025-06-13T10:48:13Z</time>
      </trkpt>
      <trkpt lat="44.12214" lon="7.27144">
        <ele>1596</ele>
        <time>2025-06-13T10:48:23Z</time>
      </trkpt>
      <trkpt lat="44.122" lon="7.27158">
        <ele>1592</ele>
        <time>2025-06-13T10:48:32Z</time>
      </trkpt>
      <trkpt lat="44.12188" lon="7.27175">
        <ele>1590</ele>
        <time>2025-06-13T10:48:40Z</time>
      </trkpt>
      <trkpt lat="44.12149" lon="7.27202">
        <ele>1584</ele>
        <time>2025-06-13T10:49:02Z</time>
      </trkpt>
      <trkpt lat="44.12128" lon="7.27221">
        <ele>1582</ele>
        <time>2025-06-13T10:49:15Z</time>
      </trkpt>
      <trkpt lat="44.12111" lon="7.27246">
        <ele>1580</ele>
        <time>2025-06-13T10:49:27Z</time>
      </trkpt>
      <trkpt lat="44.12093" lon="7.27279">
        <ele>1584</ele>
        <time>2025-06-13T10:49:42Z</time>
      </trkpt>
      <trkpt lat="44.12063" lon="7.27325">
        <ele>1584</ele>
        <time>2025-06-13T10:50:04Z</time>
      </trkpt>
      <trkpt lat="44.12045" lon="7.27348">
        <ele>1580</ele>
        <time>2025-06-13T10:50:16Z</time>
      </trkpt>
      <trkpt lat="44.12027" lon="7.27374">
        <ele>1577</ele>
        <time>2025-06-13T10:50:29Z</time>
      </trkpt>
      <trkpt lat="44.12001" lon="7.27406">
        <ele>1568</ele>
        <time>2025-06-13T10:50:47Z</time>
      </trkpt>
      <trkpt lat="44.11997" lon="7.27412">
        <ele>1568</ele>
        <time>2025-06-13T10:50:50Z</time>
      </trkpt>
      <trkpt lat="44.11995" lon="7.27418">
        <ele>1568</ele>
        <time>2025-06-13T10:50:52Z</time>
      </trkpt>
      <trkpt lat="44.11994" lon="7.27423">
        <ele>1568</ele>
        <time>2025-06-13T10:50:54Z</time>
      </trkpt>
      <trkpt lat="44.11996" lon="7.27442">
        <ele>1571</ele>
        <time>2025-06-13T10:51:01Z</time>
      </trkpt>
      <trkpt lat="44.11995" lon="7.2746">
        <ele>1573</ele>
        <time>2025-06-13T10:51:07Z</time>
      </trkpt>
      <trkpt lat="44.11993" lon="7.27474">
        <ele>1574</ele>
        <time>2025-06-13T10:51:12Z</time>
      </trkpt>
      <trkpt lat="44.11991" lon="7.27484">
        <ele>1575</ele>
        <time>2025-06-13T10:51:16Z</time>
      </trkpt>
      <trkpt lat="44.11986" lon="7.27495">
        <ele>1574</ele>
        <time>2025-06-13T10:51:21Z</time>
      </trkpt>
      <trkpt lat="44.1198" lon="7.275">
        <ele>1571</ele>
        <time>2025-06-13T10:51:24Z</time>
      </trkpt>
      <trkpt lat="44.11956" lon="7.27506">
        <ele>1561</ele>
        <time>2025-06-13T10:51:36Z</time>
      </trkpt>
      <trkpt lat="44.11942" lon="7.27512">
        <ele>1555</ele>
        <time>2025-06-13T10:51:44Z</time>
      </trkpt>
      <trkpt lat="44.11936" lon="7.27516">
        <ele>1553</ele>
        <time>2025-06-13T10:51:47Z</time>
      </trkpt>
      <trkpt lat="44.11933" lon="7.27519">
        <ele>1552</ele>
        <time>2025-06-13T10:51:49Z</time>
      </trkpt>
      <trkpt lat="44.1193" lon="7.27525">
        <ele>1551</ele>
        <time>2025-06-13T10:51:52Z</time>
      </trkpt>
      <trkpt lat="44.11928" lon="7.27534">
        <ele>1551</ele>
        <time>2025-06-13T10:51:55Z</time>
      </trkpt>
      <trkpt lat="44.11929" lon="7.27541">
        <ele>1553</ele>
        <time>2025-06-13T10:51:58Z</time>
      </trkpt>
      <trkpt lat="44.11939" lon="7.27574">
        <ele>1563</ele>
        <time>2025-06-13T10:52:10Z</time>
      </trkpt>
      <trkpt lat="44.1194" lon="7.2758">
        <ele>1564</ele>
        <time>2025-06-13T10:52:13Z</time>
      </trkpt>
      <trkpt lat="44.1194" lon="7.27584">
        <ele>1565</ele>
        <time>2025-06-13T10:52:14Z</time>
      </trkpt>
      <trkpt lat="44.11939" lon="7.27591">
        <ele>1567</ele>
        <time>2025-06-13T10:52:17Z</time>
      </trkpt>
      <trkpt lat="44.11933" lon="7.27603">
        <ele>1568</ele>
        <time>2025-06-13T10:52:22Z</time>
      </trkpt>
      <trkpt lat="44.11929" lon="7.27606">
        <ele>1566</ele>
        <time>2025-06-13T10:52:24Z</time>
      </trkpt>
      <trkpt lat="44.11891" lon="7.27614">
        <ele>1549</ele>
        <time>2025-06-13T10:52:43Z</time>
      </trkpt>
      <trkpt lat="44.11882" lon="7.27619">
        <ele>1546</ele>
        <time>2025-06-13T10:52:48Z</time>
      </trkpt>
      <trkpt lat="44.1188" lon="7.27622">
        <ele>1545</ele>
        <time>2025-06-13T10:52:50Z</time>
      </trkpt>
      <trkpt lat="44.11878" lon="7.2763">
        <ele>1546</ele>
        <time>2025-06-13T10:52:53Z</time>
      </trkpt>
      <trkpt lat="44.11877" lon="7.27646">
        <ele>1549</ele>
        <time>2025-06-13T10:52:59Z</time>
      </trkpt>
      <trkpt lat="44.11876" lon="7.27652">
        <ele>1550</ele>
        <time>2025-06-13T10:53:01Z</time>
      </trkpt>
      <trkpt lat="44.11875" lon="7.27658">
        <ele>1550</ele>
        <time>2025-06-13T10:53:03Z</time>
      </trkpt>
      <trkpt lat="44.11871" lon="7.27666">
        <ele>1549</ele>
        <time>2025-06-13T10:53:06Z</time>
      </trkpt>
      <trkpt lat="44.11863" lon="7.27671">
        <ele>1547</ele>
        <time>2025-06-13T10:53:11Z</time>
      </trkpt>
      <trkpt lat="44.11853" lon="7.2768">
        <ele>1545</ele>
        <time>2025-06-13T10:53:17Z</time>
      </trkpt>
      <trkpt lat="44.11838" lon="7.27699">
        <ele>1544</ele>
        <time>2025-06-13T10:53:27Z</time>
      </trkpt>
      <trkpt lat="44.11826" lon="7.27718">
        <ele>1545</ele>
        <time>2025-06-13T10:53:36Z</time>
      </trkpt>
      <trkpt lat="44.11809" lon="7.27729">
        <ele>1538</ele>
        <time>2025-06-13T10:53:45Z</time>
      </trkpt>
      <trkpt lat="44.11797" lon="7.27743">
        <ele>1536</ele>
        <time>2025-06-13T10:53:53Z</time>
      </trkpt>
      <trkpt lat="44.11782" lon="7.27767">
        <ele>1536</ele>
        <time>2025-06-13T10:54:05Z</time>
      </trkpt>
      <trkpt lat="44.11768" lon="7.27787">
        <ele>1536</ele>
        <time>2025-06-13T10:54:15Z</time>
      </trkpt>
      <trkpt lat="44.11753" lon="7.27809">
        <ele>1536</ele>
        <time>2025-06-13T10:54:26Z</time>
      </trkpt>
      <trkpt lat="44.1175" lon="7.27813">
        <ele>1536</ele>
        <time>2025-06-13T10:54:28Z</time>
      </trkpt>
      <trkpt lat="44.11747" lon="7.27815">
        <ele>1535</ele>
        <time>2025-06-13T10:54:29Z</time>
      </trkpt>
      <trkpt lat="44.11736" lon="7.27818">
        <ele>1530</ele>
        <time>2025-06-13T10:54:35Z</time>
      </trkpt>
      <trkpt lat="44.11731" lon="7.2782">
        <ele>1528</ele>
        <time>2025-06-13T10:54:38Z</time>
      </trkpt>
      <trkpt lat="44.11724" lon="7.27829">
        <ele>1528</ele>
        <time>2025-06-13T10:54:42Z</time>
      </trkpt>
      <trkpt lat="44.11717" lon="7.27841">
        <ele>1530</ele>
        <time>2025-06-13T10:54:48Z</time>
      </trkpt>
      <trkpt lat="44.11714" lon="7.27849">
        <ele>1532</ele>
        <time>2025-06-13T10:54:51Z</time>
      </trkpt>
      <trkpt lat="44.11711" lon="7.27859">
        <ele>1536</ele>
        <time>2025-06-13T10:54:55Z</time>
      </trkpt>
      <trkpt lat="44.11708" lon="7.27879">
        <ele>1544</ele>
        <time>2025-06-13T10:55:02Z</time>
      </trkpt>
      <trkpt lat="44.11707" lon="7.27884">
        <ele>1546</ele>
        <time>2025-06-13T10:55:04Z</time>
      </trkpt>
      <trkpt lat="44.11703" lon="7.27889">
        <ele>1547</ele>
        <time>2025-06-13T10:55:07Z</time>
      </trkpt>
      <trkpt lat="44.11696" lon="7.27893">
        <ele>1544</ele>
        <time>2025-06-13T10:55:11Z</time>
      </trkpt>
      <trkpt lat="44.11673" lon="7.27896">
        <ele>1531</ele>
        <time>2025-06-13T10:55:22Z</time>
      </trkpt>
      <trkpt lat="44.11667" lon="7.27899">
        <ele>1528</ele>
        <time>2025-06-13T10:55:25Z</time>
      </trkpt>
      <trkpt lat="44.11662" lon="7.27903">
        <ele>1527</ele>
        <time>2025-06-13T10:55:28Z</time>
      </trkpt>
      <trkpt lat="44.11651" lon="7.27916">
        <ele>1528</ele>
        <time>2025-06-13T10:55:36Z</time>
      </trkpt>
      <trkpt lat="44.11623" lon="7.27937">
        <ele>1521</ele>
        <time>2025-06-13T10:55:52Z</time>
      </trkpt>
      <trkpt lat="44.11618" lon="7.27944">
        <ele>1522</ele>
        <time>2025-06-13T10:55:55Z</time>
      </trkpt>
      <trkpt lat="44.11603" lon="7.27972">
        <ele>1525</ele>
        <time>2025-06-13T10:56:08Z</time>
      </trkpt>
      <trkpt lat="44.11594" lon="7.27984">
        <ele>1524</ele>
        <time>2025-06-13T10:56:14Z</time>
      </trkpt>
      <trkpt lat="44.11578" lon="7.27999">
        <ele>1518</ele>
        <time>2025-06-13T10:56:23Z</time>
      </trkpt>
      <trkpt lat="44.11575" lon="7.28004">
        <ele>1517</ele>
        <time>2025-06-13T10:56:26Z</time>
      </trkpt>
      <trkpt lat="44.11571" lon="7.28013">
        <ele>1515</ele>
        <time>2025-06-13T10:56:30Z</time>
      </trkpt>
      <trkpt lat="44.11569" lon="7.2802">
        <ele>1514</ele>
        <time>2025-06-13T10:56:32Z</time>
      </trkpt>
      <trkpt lat="44.11569" lon="7.28026">
        <ele>1515</ele>
        <time>2025-06-13T10:56:34Z</time>
      </trkpt>
      <trkpt lat="44.1157" lon="7.28084">
        <ele>1523</ele>
        <time>2025-06-13T10:56:55Z</time>
      </trkpt>
      <trkpt lat="44.11571" lon="7.28095">
        <ele>1524</ele>
        <time>2025-06-13T10:56:59Z</time>
      </trkpt>
      <trkpt lat="44.11576" lon="7.28114">
        <ele>1527</ele>
        <time>2025-06-13T10:57:07Z</time>
      </trkpt>
      <trkpt lat="44.1158" lon="7.28173">
        <ele>1529</ele>
        <time>2025-06-13T10:57:28Z</time>
      </trkpt>
      <trkpt lat="44.11581" lon="7.28201">
        <ele>1530</ele>
        <time>2025-06-13T10:57:38Z</time>
      </trkpt>
      <trkpt lat="44.1158" lon="7.28207">
        <ele>1530</ele>
        <time>2025-06-13T10:57:40Z</time>
      </trkpt>
      <trkpt lat="44.11573" lon="7.28235">
        <ele>1526</ele>
        <time>2025-06-13T10:57:51Z</time>
      </trkpt>
      <trkpt lat="44.11573" lon="7.28244">
        <ele>1527</ele>
        <time>2025-06-13T10:57:54Z</time>
      </trkpt>
      <trkpt lat="44.11577" lon="7.28267">
        <ele>1532</ele>
        <time>2025-06-13T10:58:03Z</time>
      </trkpt>
      <trkpt lat="44.11577" lon="7.28281">
        <ele>1535</ele>
        <time>2025-06-13T10:58:08Z</time>
      </trkpt>
      <trkpt lat="44.11572" lon="7.28295">
        <ele>1534</ele>
        <time>2025-06-13T10:58:13Z</time>
      </trkpt>
      <trkpt lat="44.11566" lon="7.28304">
        <ele>1532</ele>
        <time>2025-06-13T10:58:18Z</time>
      </trkpt>
      <trkpt lat="44.11559" lon="7.28313">
        <ele>1529</ele>
        <time>2025-06-13T10:58:22Z</time>
      </trkpt>
      <trkpt lat="44.11552" lon="7.28324">
        <ele>1527</ele>
        <time>2025-06-13T10:58:28Z</time>
      </trkpt>
      <trkpt lat="44.11548" lon="7.28333">
        <ele>1527</ele>
        <time>2025-06-13T10:58:31Z</time>
      </trkpt>
      <trkpt lat="44.11517" lon="7.28455">
        <ele>1527</ele>
        <time>2025-06-13T10:59:18Z</time>
      </trkpt>
      <trkpt lat="44.11508" lon="7.28478">
        <ele>1525</ele>
        <time>2025-06-13T10:59:27Z</time>
      </trkpt>
      <trkpt lat="44.11488" lon="7.28523">
        <ele>1520</ele>
        <time>2025-06-13T10:59:46Z</time>
      </trkpt>
      <trkpt lat="44.11485" lon="7.28533">
        <ele>1520</ele>
        <time>2025-06-13T10:59:50Z</time>
      </trkpt>
      <trkpt lat="44.11472" lon="7.2859">
        <ele>1521</ele>
        <time>2025-06-13T11:00:12Z</time>
      </trkpt>
      <trkpt lat="44.11466" lon="7.28613">
        <ele>1521</ele>
        <time>2025-06-13T11:00:21Z</time>
      </trkpt>
      <trkpt lat="44.11457" lon="7.28633">
        <ele>1519</ele>
        <time>2025-06-13T11:00:29Z</time>
      </trkpt>
      <trkpt lat="44.11441" lon="7.28665">
        <ele>1515</ele>
        <time>2025-06-13T11:00:43Z</time>
      </trkpt>
      <trkpt lat="44.11432" lon="7.28687">
        <ele>1512</ele>
        <time>2025-06-13T11:00:52Z</time>
      </trkpt>
      <trkpt lat="44.11408" lon="7.28781">
        <ele>1508</ele>
        <time>2025-06-13T11:01:28Z</time>
      </trkpt>
      <trkpt lat="44.11399" lon="7.28822">
        <ele>1509</ele>
        <time>2025-06-13T11:01:43Z</time>
      </trkpt>
      <trkpt lat="44.11394" lon="7.28892">
        <ele>1511</ele>
        <time>2025-06-13T11:02:09Z</time>
      </trkpt>
      <trkpt lat="44.11393" lon="7.2891">
        <ele>1512</ele>
        <time>2025-06-13T11:02:15Z</time>
      </trkpt>
      <trkpt lat="44.11394" lon="7.28919">
        <ele>1513</ele>
        <time>2025-06-13T11:02:18Z</time>
      </trkpt>
      <trkpt lat="44.11398" lon="7.28933">
        <ele>1514</ele>
        <time>2025-06-13T11:02:24Z</time>
      </trkpt>
      <trkpt lat="44.11398" lon="7.28938">
        <ele>1514</ele>
        <time>2025-06-13T11:02:26Z</time>
      </trkpt>
      <trkpt lat="44.11395" lon="7.28944">
        <ele>1514</ele>
        <time>2025-06-13T11:02:28Z</time>
      </trkpt>
      <trkpt lat="44.11385" lon="7.28954">
        <ele>1514</ele>
        <time>2025-06-13T11:02:34Z</time>
      </trkpt>
      <trkpt lat="44.1138" lon="7.28956">
        <ele>1514</ele>
        <time>2025-06-13T11:02:37Z</time>
      </trkpt>
      <trkpt lat="44.11374" lon="7.28961">
        <ele>1514</ele>
        <time>2025-06-13T11:02:41Z</time>
      </trkpt>
      <trkpt lat="44.11372" lon="7.28952">
        <ele>1513</ele>
        <time>2025-06-13T11:02:44Z</time>
      </trkpt>
      <trkpt lat="44.11367" lon="7.28946">
        <ele>1512</ele>
        <time>2025-06-13T11:02:47Z</time>
      </trkpt>
      <trkpt lat="44.11359" lon="7.28954">
        <ele>1512</ele>
        <time>2025-06-13T11:02:52Z</time>
      </trkpt>
      <trkpt lat="44.11356" lon="7.28948">
        <ele>1511</ele>
        <time>2025-06-13T11:02:55Z</time>
      </trkpt>
      <trkpt lat="44.11343" lon="7.28933">
        <ele>1507</ele>
        <time>2025-06-13T11:03:03Z</time>
      </trkpt>
      <trkpt lat="44.11333" lon="7.28923">
        <ele>1504</ele>
        <time>2025-06-13T11:03:09Z</time>
      </trkpt>
      <trkpt lat="44.11325" lon="7.28908">
        <ele>1504</ele>
        <time>2025-06-13T11:03:16Z</time>
      </trkpt>
      <trkpt lat="44.11316" lon="7.28894">
        <ele>1505</ele>
        <time>2025-06-13T11:03:23Z</time>
      </trkpt>
      <trkpt lat="44.11311" lon="7.2888">
        <ele>1504</ele>
        <time>2025-06-13T11:03:28Z</time>
      </trkpt>
      <trkpt lat="44.11297" lon="7.28851">
        <ele>1504</ele>
        <time>2025-06-13T11:03:41Z</time>
      </trkpt>
      <trkpt lat="44.11291" lon="7.28835">
        <ele>1504</ele>
        <time>2025-06-13T11:03:48Z</time>
      </trkpt>
      <trkpt lat="44.1129" lon="7.28831">
        <ele>1504</ele>
        <time>2025-06-13T11:03:49Z</time>
      </trkpt>
      <trkpt lat="44.11281" lon="7.28826">
        <ele>1506</ele>
        <time>2025-06-13T11:03:54Z</time>
      </trkpt>
      <trkpt lat="44.11261" lon="7.28844">
        <ele>1513</ele>
        <time>2025-06-13T11:04:06Z</time>
      </trkpt>
      <trkpt lat="44.11255" lon="7.2884">
        <ele>1514</ele>
        <time>2025-06-13T11:04:09Z</time>
      </trkpt>
      <trkpt lat="44.11236" lon="7.28788">
        <ele>1522</ele>
        <time>2025-06-13T11:04:30Z</time>
      </trkpt>
      <trkpt lat="44.11225" lon="7.28752">
        <ele>1529</ele>
        <time>2025-06-13T11:04:44Z</time>
      </trkpt>
      <trkpt lat="44.11216" lon="7.2874">
        <ele>1534</ele>
        <time>2025-06-13T11:04:50Z</time>
      </trkpt>
      <trkpt lat="44.1121" lon="7.28698">
        <ele>1538</ele>
        <time>2025-06-13T11:05:06Z</time>
      </trkpt>
      <trkpt lat="44.11163" lon="7.28609">
        <ele>1563</ele>
        <time>2025-06-13T11:05:45Z</time>
      </trkpt>
      <trkpt lat="44.11139" lon="7.28526">
        <ele>1577</ele>
        <time>2025-06-13T11:06:18Z</time>
      </trkpt>
      <trkpt lat="44.11118" lon="7.28572">
        <ele>1592</ele>
        <time>2025-06-13T11:06:37Z</time>
      </trkpt>
      <trkpt lat="44.11101" lon="7.28623">
        <ele>1604</ele>
        <time>2025-06-13T11:06:57Z</time>
      </trkpt>
      <trkpt lat="44.11093" lon="7.28628">
        <ele>1609</ele>
        <time>2025-06-13T11:07:02Z</time>
      </trkpt>
      <trkpt lat="44.11088" lon="7.28646">
        <ele>1612</ele>
        <time>2025-06-13T11:07:09Z</time>
      </trkpt>
      <trkpt lat="44.11078" lon="7.28635">
        <ele>1619</ele>
        <time>2025-06-13T11:07:15Z</time>
      </trkpt>
      <trkpt lat="44.11075" lon="7.2868">
        <ele>1621</ele>
        <time>2025-06-13T11:07:31Z</time>
      </trkpt>
      <trkpt lat="44.11071" lon="7.28694">
        <ele>1624</ele>
        <time>2025-06-13T11:07:37Z</time>
      </trkpt>
      <trkpt lat="44.11071" lon="7.28694">
        <ele>1624</ele>
        <time>2025-06-13T11:07:37Z</time>
      </trkpt>
      <trkpt lat="44.11067" lon="7.28708">
        <ele>1627</ele>
        <time>2025-06-13T11:07:42Z</time>
      </trkpt>
      <trkpt lat="44.11053" lon="7.28737">
        <ele>1637</ele>
        <time>2025-06-13T11:07:55Z</time>
      </trkpt>
      <trkpt lat="44.11048" lon="7.28749">
        <ele>1641</ele>
        <time>2025-06-13T11:08:00Z</time>
      </trkpt>
      <trkpt lat="44.1104" lon="7.28747">
        <ele>1646</ele>
        <time>2025-06-13T11:08:04Z</time>
      </trkpt>
      <trkpt lat="44.11034" lon="7.28751">
        <ele>1650</ele>
        <time>2025-06-13T11:08:07Z</time>
      </trkpt>
      <trkpt lat="44.11027" lon="7.28743">
        <ele>1655</ele>
        <time>2025-06-13T11:08:12Z</time>
      </trkpt>
      <trkpt lat="44.11018" lon="7.28708">
        <ele>1662</ele>
        <time>2025-06-13T11:08:25Z</time>
      </trkpt>
      <trkpt lat="44.11018" lon="7.28708">
        <ele>1662</ele>
        <time>2025-06-13T11:08:25Z</time>
      </trkpt>
      <trkpt lat="44.10996" lon="7.28625">
        <ele>1681</ele>
        <time>2025-06-13T11:08:57Z</time>
      </trkpt>
      <trkpt lat="44.10983" lon="7.28614">
        <ele>1692</ele>
        <time>2025-06-13T11:09:04Z</time>
      </trkpt>
      <trkpt lat="44.10978" lon="7.28595">
        <ele>1696</ele>
        <time>2025-06-13T11:09:12Z</time>
      </trkpt>
      <trkpt lat="44.10981" lon="7.28588">
        <ele>1694</ele>
        <time>2025-06-13T11:09:15Z</time>
      </trkpt>
      <trkpt lat="44.10968" lon="7.2856">
        <ele>1708</ele>
        <time>2025-06-13T11:09:27Z</time>
      </trkpt>
      <trkpt lat="44.10974" lon="7.28543">
        <ele>1705</ele>
        <time>2025-06-13T11:09:33Z</time>
      </trkpt>
      <trkpt lat="44.10962" lon="7.28552">
        <ele>1714</ele>
        <time>2025-06-13T11:09:40Z</time>
      </trkpt>
      <trkpt lat="44.10952" lon="7.28502">
        <ele>1730</ele>
        <time>2025-06-13T11:09:59Z</time>
      </trkpt>
      <trkpt lat="44.10945" lon="7.28471">
        <ele>1740</ele>
        <time>2025-06-13T11:10:11Z</time>
      </trkpt>
      <trkpt lat="44.10966" lon="7.28444">
        <ele>1725</ele>
        <time>2025-06-13T11:10:25Z</time>
      </trkpt>
      <trkpt lat="44.10967" lon="7.2841">
        <ele>1727</ele>
        <time>2025-06-13T11:10:37Z</time>
      </trkpt>
      <trkpt lat="44.10911" lon="7.28418">
        <ele>1772</ele>
        <time>2025-06-13T11:11:05Z</time>
      </trkpt>
      <trkpt lat="44.10908" lon="7.28402">
        <ele>1770</ele>
        <time>2025-06-13T11:11:11Z</time>
      </trkpt>
      <trkpt lat="44.10895" lon="7.28414">
        <ele>1778</ele>
        <time>2025-06-13T11:11:19Z</time>
      </trkpt>
      <trkpt lat="44.10862" lon="7.28384">
        <ele>1782</ele>
        <time>2025-06-13T11:11:39Z</time>
      </trkpt>
      <trkpt lat="44.10855" lon="7.28379">
        <ele>1783</ele>
        <time>2025-06-13T11:11:43Z</time>
      </trkpt>
      <trkpt lat="44.10862" lon="7.28384">
        <ele>1782</ele>
        <time>2025-06-13T11:11:47Z</time>
      </trkpt>
      <trkpt lat="44.10857" lon="7.28403">
        <ele>1791</ele>
        <time>2025-06-13T11:11:54Z</time>
      </trkpt>
      <trkpt lat="44.10857" lon="7.28427">
        <ele>1798</ele>
        <time>2025-06-13T11:12:02Z</time>
      </trkpt>
      <trkpt lat="44.10852" lon="7.28439">
        <ele>1802</ele>
        <time>2025-06-13T11:12:07Z</time>
      </trkpt>
      <trkpt lat="44.10845" lon="7.2844">
        <ele>1806</ele>
        <time>2025-06-13T11:12:11Z</time>
      </trkpt>
      <trkpt lat="44.10838" lon="7.28446">
        <ele>1811</ele>
        <time>2025-06-13T11:12:15Z</time>
      </trkpt>
      <trkpt lat="44.10833" lon="7.28462">
        <ele>1817</ele>
        <time>2025-06-13T11:12:21Z</time>
      </trkpt>
      <trkpt lat="44.10816" lon="7.28478">
        <ele>1824</ele>
        <time>2025-06-13T11:12:32Z</time>
      </trkpt>
      <trkpt lat="44.10802" lon="7.285">
        <ele>1836</ele>
        <time>2025-06-13T11:12:42Z</time>
      </trkpt>
      <trkpt lat="44.10787" lon="7.28512">
        <ele>1844</ele>
        <time>2025-06-13T11:12:51Z</time>
      </trkpt>
      <trkpt lat="44.10784" lon="7.28526">
        <ele>1847</ele>
        <time>2025-06-13T11:12:56Z</time>
      </trkpt>
      <trkpt lat="44.10769" lon="7.28551">
        <ele>1860</ele>
        <time>2025-06-13T11:13:08Z</time>
      </trkpt>
      <trkpt lat="44.1076" lon="7.28555">
        <ele>1866</ele>
        <time>2025-06-13T11:13:13Z</time>
      </trkpt>
      <trkpt lat="44.10773" lon="7.28585">
        <ele>1865</ele>
        <time>2025-06-13T11:13:25Z</time>
      </trkpt>
      <trkpt lat="44.10776" lon="7.28615">
        <ele>1863</ele>
        <time>2025-06-13T11:13:36Z</time>
      </trkpt>
      <trkpt lat="44.1077" lon="7.28634">
        <ele>1867</ele>
        <time>2025-06-13T11:13:43Z</time>
      </trkpt>
      <trkpt lat="44.10766" lon="7.28642">
        <ele>1870</ele>
        <time>2025-06-13T11:13:47Z</time>
      </trkpt>
      <trkpt lat="44.10759" lon="7.28662">
        <ele>1875</ele>
        <time>2025-06-13T11:13:55Z</time>
      </trkpt>
      <trkpt lat="44.10758" lon="7.28682">
        <ele>1874</ele>
        <time>2025-06-13T11:14:02Z</time>
      </trkpt>
      <trkpt lat="44.10752" lon="7.28691">
        <ele>1878</ele>
        <time>2025-06-13T11:14:07Z</time>
      </trkpt>
      <trkpt lat="44.10744" lon="7.28708">
        <ele>1882</ele>
        <time>2025-06-13T11:14:14Z</time>
      </trkpt>
      <trkpt lat="44.10744" lon="7.28725">
        <ele>1880</ele>
        <time>2025-06-13T11:14:20Z</time>
      </trkpt>
      <trkpt lat="44.10749" lon="7.28735">
        <ele>1875</ele>
        <time>2025-06-13T11:14:24Z</time>
      </trkpt>
      <trkpt lat="44.10742" lon="7.2876">
        <ele>1880</ele>
        <time>2025-06-13T11:14:34Z</time>
      </trkpt>
      <trkpt lat="44.10742" lon="7.28782">
        <ele>1882</ele>
        <time>2025-06-13T11:14:42Z</time>
      </trkpt>
      <trkpt lat="44.10744" lon="7.288">
        <ele>1882</ele>
        <time>2025-06-13T11:14:48Z</time>
      </trkpt>
      <trkpt lat="44.1075" lon="7.28826">
        <ele>1880</ele>
        <time>2025-06-13T11:14:58Z</time>
      </trkpt>
      <trkpt lat="44.10762" lon="7.2884">
        <ele>1875</ele>
        <time>2025-06-13T11:15:06Z</time>
      </trkpt>
      <trkpt lat="44.10776" lon="7.28853">
        <ele>1869</ele>
        <time>2025-06-13T11:15:15Z</time>
      </trkpt>
      <trkpt lat="44.10778" lon="7.28887">
        <ele>1876</ele>
        <time>2025-06-13T11:15:27Z</time>
      </trkpt>
      <trkpt lat="44.108" lon="7.28926">
        <ele>1870</ele>
        <time>2025-06-13T11:15:45Z</time>
      </trkpt>
      <trkpt lat="44.10799" lon="7.28959">
        <ele>1873</ele>
        <time>2025-06-13T11:15:56Z</time>
      </trkpt>
      <trkpt lat="44.10802" lon="7.28983">
        <ele>1873</ele>
        <time>2025-06-13T11:16:05Z</time>
      </trkpt>
      <trkpt lat="44.1081" lon="7.29029">
        <ele>1861</ele>
        <time>2025-06-13T11:16:22Z</time>
      </trkpt>
      <trkpt lat="44.10799" lon="7.29047">
        <ele>1864</ele>
        <time>2025-06-13T11:16:31Z</time>
      </trkpt>
      <trkpt lat="44.10777" lon="7.29086">
        <ele>1868</ele>
        <time>2025-06-13T11:16:49Z</time>
      </trkpt>
      <trkpt lat="44.10749" lon="7.29126">
        <ele>1876</ele>
        <time>2025-06-13T11:17:09Z</time>
      </trkpt>
      <trkpt lat="44.10726" lon="7.29164">
        <ele>1877</ele>
        <time>2025-06-13T11:17:26Z</time>
      </trkpt>
      <trkpt lat="44.10716" lon="7.29192">
        <ele>1879</ele>
        <time>2025-06-13T11:17:38Z</time>
      </trkpt>
      <trkpt lat="44.10716" lon="7.29213">
        <ele>1877</ele>
        <time>2025-06-13T11:17:45Z</time>
      </trkpt>
      <trkpt lat="44.10709" lon="7.29241">
        <ele>1880</ele>
        <time>2025-06-13T11:17:56Z</time>
      </trkpt>
      <trkpt lat="44.10726" lon="7.29299">
        <ele>1870</ele>
        <time>2025-06-13T11:18:18Z</time>
      </trkpt>
      <trkpt lat="44.10736" lon="7.29319">
        <ele>1863</ele>
        <time>2025-06-13T11:18:27Z</time>
      </trkpt>
      <trkpt lat="44.10734" lon="7.2933">
        <ele>1865</ele>
        <time>2025-06-13T11:18:31Z</time>
      </trkpt>
      <trkpt lat="44.10736" lon="7.29344">
        <ele>1863</ele>
        <time>2025-06-13T11:18:36Z</time>
      </trkpt>
      <trkpt lat="44.1074" lon="7.29361">
        <ele>1859</ele>
        <time>2025-06-13T11:18:43Z</time>
      </trkpt>
      <trkpt lat="44.10733" lon="7.29389">
        <ele>1864</ele>
        <time>2025-06-13T11:18:53Z</time>
      </trkpt>
      <trkpt lat="44.10731" lon="7.29411">
        <ele>1865</ele>
        <time>2025-06-13T11:19:01Z</time>
      </trkpt>
      <trkpt lat="44.10718" lon="7.29424">
        <ele>1873</ele>
        <time>2025-06-13T11:19:09Z</time>
      </trkpt>
      <trkpt lat="44.10719" lon="7.29454">
        <ele>1865</ele>
        <time>2025-06-13T11:19:20Z</time>
      </trkpt>
      <trkpt lat="44.1071" lon="7.29484">
        <ele>1865</ele>
        <time>2025-06-13T11:19:32Z</time>
      </trkpt>
      <trkpt lat="44.10683" lon="7.29512">
        <ele>1876</ele>
        <time>2025-06-13T11:19:49Z</time>
      </trkpt>
      <trkpt lat="44.10637" lon="7.29574">
        <ele>1886</ele>
        <time>2025-06-13T11:20:21Z</time>
      </trkpt>
      <trkpt lat="44.10637" lon="7.29596">
        <ele>1881</ele>
        <time>2025-06-13T11:20:29Z</time>
      </trkpt>
      <trkpt lat="44.10643" lon="7.29628">
        <ele>1871</ele>
        <time>2025-06-13T11:20:41Z</time>
      </trkpt>
      <trkpt lat="44.10652" lon="7.29641">
        <ele>1861</ele>
        <time>2025-06-13T11:20:47Z</time>
      </trkpt>
      <trkpt lat="44.10634" lon="7.29722">
        <ele>1861</ele>
        <time>2025-06-13T11:21:18Z</time>
      </trkpt>
      <trkpt lat="44.10609" lon="7.29753">
        <ele>1871</ele>
        <time>2025-06-13T11:21:34Z</time>
      </trkpt>
      <trkpt lat="44.10608" lon="7.29785">
        <ele>1861</ele>
        <time>2025-06-13T11:21:46Z</time>
      </trkpt>
      <trkpt lat="44.10604" lon="7.29794">
        <ele>1860</ele>
        <time>2025-06-13T11:21:50Z</time>
      </trkpt>
      <trkpt lat="44.10574" lon="7.29807">
        <ele>1869</ele>
        <time>2025-06-13T11:22:05Z</time>
      </trkpt>
      <trkpt lat="44.10541" lon="7.29837">
        <ele>1874</ele>
        <time>2025-06-13T11:22:25Z</time>
      </trkpt>
      <trkpt lat="44.10511" lon="7.2989">
        <ele>1876</ele>
        <time>2025-06-13T11:22:49Z</time>
      </trkpt>
      <trkpt lat="44.10506" lon="7.29915">
        <ele>1872</ele>
        <time>2025-06-13T11:22:59Z</time>
      </trkpt>
      <trkpt lat="44.1051" lon="7.29945">
        <ele>1867</ele>
        <time>2025-06-13T11:23:10Z</time>
      </trkpt>
      <trkpt lat="44.10496" lon="7.29965">
        <ele>1870</ele>
        <time>2025-06-13T11:23:20Z</time>
      </trkpt>
      <trkpt lat="44.10493" lon="7.29978">
        <ele>1870</ele>
        <time>2025-06-13T11:23:25Z</time>
      </trkpt>
      <trkpt lat="44.10502" lon="7.29994">
        <ele>1865</ele>
        <time>2025-06-13T11:23:32Z</time>
      </trkpt>
      <trkpt lat="44.10498" lon="7.30006">
        <ele>1866</ele>
        <time>2025-06-13T11:23:37Z</time>
      </trkpt>
      <trkpt lat="44.10483" lon="7.30024">
        <ele>1871</ele>
        <time>2025-06-13T11:23:46Z</time>
      </trkpt>
      <trkpt lat="44.10481" lon="7.30062">
        <ele>1872</ele>
        <time>2025-06-13T11:24:00Z</time>
      </trkpt>
      <trkpt lat="44.10486" lon="7.30091">
        <ele>1870</ele>
        <time>2025-06-13T11:24:11Z</time>
      </trkpt>
      <trkpt lat="44.10486" lon="7.30106">
        <ele>1869</ele>
        <time>2025-06-13T11:24:16Z</time>
      </trkpt>
      <trkpt lat="44.10481" lon="7.30126">
        <ele>1870</ele>
        <time>2025-06-13T11:24:24Z</time>
      </trkpt>
      <trkpt lat="44.10489" lon="7.30151">
        <ele>1865</ele>
        <time>2025-06-13T11:24:34Z</time>
      </trkpt>
      <trkpt lat="44.10476" lon="7.30175">
        <ele>1871</ele>
        <time>2025-06-13T11:24:45Z</time>
      </trkpt>
      <trkpt lat="44.10467" lon="7.30209">
        <ele>1876</ele>
        <time>2025-06-13T11:24:58Z</time>
      </trkpt>
      <trkpt lat="44.10469" lon="7.30242">
        <ele>1877</ele>
        <time>2025-06-13T11:25:09Z</time>
      </trkpt>
      <trkpt lat="44.10488" lon="7.30298">
        <ele>1871</ele>
        <time>2025-06-13T11:25:32Z</time>
      </trkpt>
      <trkpt lat="44.10511" lon="7.30327">
        <ele>1859</ele>
        <time>2025-06-13T11:25:47Z</time>
      </trkpt>
      <trkpt lat="44.10513" lon="7.30348">
        <ele>1856</ele>
        <time>2025-06-13T11:25:55Z</time>
      </trkpt>
      <trkpt lat="44.10503" lon="7.30379">
        <ele>1859</ele>
        <time>2025-06-13T11:26:07Z</time>
      </trkpt>
      <trkpt lat="44.10486" lon="7.30404">
        <ele>1867</ele>
        <time>2025-06-13T11:26:19Z</time>
      </trkpt>
      <trkpt lat="44.10446" lon="7.3048">
        <ele>1879</ele>
        <time>2025-06-13T11:26:53Z</time>
      </trkpt>
      <trkpt lat="44.1045" lon="7.30499">
        <ele>1873</ele>
        <time>2025-06-13T11:27:00Z</time>
      </trkpt>
      <trkpt lat="44.10478" lon="7.30544">
        <ele>1855</ele>
        <time>2025-06-13T11:27:22Z</time>
      </trkpt>
      <trkpt lat="44.10482" lon="7.30574">
        <ele>1853</ele>
        <time>2025-06-13T11:27:33Z</time>
      </trkpt>
      <trkpt lat="44.1047" lon="7.30633">
        <ele>1865</ele>
        <time>2025-06-13T11:27:55Z</time>
      </trkpt>
      <trkpt lat="44.10468" lon="7.30654">
        <ele>1867</ele>
        <time>2025-06-13T11:28:02Z</time>
      </trkpt>
      <trkpt lat="44.10464" lon="7.30671">
        <ele>1871</ele>
        <time>2025-06-13T11:28:09Z</time>
      </trkpt>
      <trkpt lat="44.10455" lon="7.307">
        <ele>1874</ele>
        <time>2025-06-13T11:28:20Z</time>
      </trkpt>
      <trkpt lat="44.10453" lon="7.3073">
        <ele>1872</ele>
        <time>2025-06-13T11:28:31Z</time>
      </trkpt>
      <trkpt lat="44.10437" lon="7.30781">
        <ele>1884</ele>
        <time>2025-06-13T11:28:51Z</time>
      </trkpt>
      <trkpt lat="44.10447" lon="7.30811">
        <ele>1877</ele>
        <time>2025-06-13T11:29:03Z</time>
      </trkpt>
      <trkpt lat="44.10464" lon="7.30855">
        <ele>1864</ele>
        <time>2025-06-13T11:29:21Z</time>
      </trkpt>
      <trkpt lat="44.10463" lon="7.30918">
        <ele>1864</ele>
        <time>2025-06-13T11:29:44Z</time>
      </trkpt>
      <trkpt lat="44.10451" lon="7.3094">
        <ele>1872</ele>
        <time>2025-06-13T11:29:53Z</time>
      </trkpt>
      <trkpt lat="44.10451" lon="7.30961">
        <ele>1872</ele>
        <time>2025-06-13T11:30:01Z</time>
      </trkpt>
      <trkpt lat="44.10444" lon="7.30994">
        <ele>1876</ele>
        <time>2025-06-13T11:30:13Z</time>
      </trkpt>
      <trkpt lat="44.10445" lon="7.31013">
        <ele>1874</ele>
        <time>2025-06-13T11:30:20Z</time>
      </trkpt>
      <trkpt lat="44.10434" lon="7.31053">
        <ele>1880</ele>
        <time>2025-06-13T11:30:36Z</time>
      </trkpt>
      <trkpt lat="44.10448" lon="7.31084">
        <ele>1867</ele>
        <time>2025-06-13T11:30:49Z</time>
      </trkpt>
      <trkpt lat="44.10456" lon="7.31127">
        <ele>1864</ele>
        <time>2025-06-13T11:31:05Z</time>
      </trkpt>
      <trkpt lat="44.10455" lon="7.31176">
        <ele>1868</ele>
        <time>2025-06-13T11:31:22Z</time>
      </trkpt>
      <trkpt lat="44.10465" lon="7.31209">
        <ele>1861</ele>
        <time>2025-06-13T11:31:35Z</time>
      </trkpt>
      <trkpt lat="44.10456" lon="7.31262">
        <ele>1867</ele>
        <time>2025-06-13T11:31:55Z</time>
      </trkpt>
      <trkpt lat="44.10452" lon="7.31326">
        <ele>1864</ele>
        <time>2025-06-13T11:32:18Z</time>
      </trkpt>
      <trkpt lat="44.10457" lon="7.31354">
        <ele>1858</ele>
        <time>2025-06-13T11:32:28Z</time>
      </trkpt>
      <trkpt lat="44.10442" lon="7.31399">
        <ele>1864</ele>
        <time>2025-06-13T11:32:46Z</time>
      </trkpt>
      <trkpt lat="44.10422" lon="7.31447">
        <ele>1875</ele>
        <time>2025-06-13T11:33:06Z</time>
      </trkpt>
      <trkpt lat="44.10419" lon="7.31451">
        <ele>1876</ele>
        <time>2025-06-13T11:33:08Z</time>
      </trkpt>
      <trkpt lat="44.10415" lon="7.31458">
        <ele>1879</ele>
        <time>2025-06-13T11:33:11Z</time>
      </trkpt>
      <trkpt lat="44.10399" lon="7.31448">
        <ele>1891</ele>
        <time>2025-06-13T11:33:20Z</time>
      </trkpt>
      <trkpt lat="44.10389" lon="7.31472">
        <ele>1897</ele>
        <time>2025-06-13T11:33:30Z</time>
      </trkpt>
      <trkpt lat="44.10371" lon="7.31458">
        <ele>1911</ele>
        <time>2025-06-13T11:33:40Z</time>
      </trkpt>
      <trkpt lat="44.10367" lon="7.3148">
        <ele>1914</ele>
        <time>2025-06-13T11:33:48Z</time>
      </trkpt>
      <trkpt lat="44.10358" lon="7.31466">
        <ele>1921</ele>
        <time>2025-06-13T11:33:55Z</time>
      </trkpt>
      <trkpt lat="44.10354" lon="7.31492">
        <ele>1923</ele>
        <time>2025-06-13T11:34:05Z</time>
      </trkpt>
      <trkpt lat="44.10336" lon="7.31479">
        <ele>1937</ele>
        <time>2025-06-13T11:34:15Z</time>
      </trkpt>
      <trkpt lat="44.10333" lon="7.31484">
        <ele>1939</ele>
        <time>2025-06-13T11:34:17Z</time>
      </trkpt>
      <trkpt lat="44.10329" lon="7.31496">
        <ele>1942</ele>
        <time>2025-06-13T11:34:22Z</time>
      </trkpt>
      <trkpt lat="44.10305" lon="7.3147">
        <ele>1960</ele>
        <time>2025-06-13T11:34:37Z</time>
      </trkpt>
      <trkpt lat="44.10301" lon="7.31457">
        <ele>1962</ele>
        <time>2025-06-13T11:34:42Z</time>
      </trkpt>
      <trkpt lat="44.10292" lon="7.31484">
        <ele>1970</ele>
        <time>2025-06-13T11:34:53Z</time>
      </trkpt>
      <trkpt lat="44.10285" lon="7.31454">
        <ele>1973</ele>
        <time>2025-06-13T11:35:04Z</time>
      </trkpt>
      <trkpt lat="44.1028" lon="7.31424">
        <ele>1973</ele>
        <time>2025-06-13T11:35:15Z</time>
      </trkpt>
      <trkpt lat="44.10276" lon="7.31431">
        <ele>1976</ele>
        <time>2025-06-13T11:35:19Z</time>
      </trkpt>
      <trkpt lat="44.10273" lon="7.31408">
        <ele>1977</ele>
        <time>2025-06-13T11:35:27Z</time>
      </trkpt>
      <trkpt lat="44.10264" lon="7.31408">
        <ele>1982</ele>
        <time>2025-06-13T11:35:32Z</time>
      </trkpt>
      <trkpt lat="44.10227" lon="7.31381">
        <ele>2005</ele>
        <time>2025-06-13T11:35:52Z</time>
      </trkpt>
      <trkpt lat="44.10221" lon="7.31386">
        <ele>2009</ele>
        <time>2025-06-13T11:35:56Z</time>
      </trkpt>
      <trkpt lat="44.10205" lon="7.31364">
        <ele>2017</ele>
        <time>2025-06-13T11:36:07Z</time>
      </trkpt>
      <trkpt lat="44.10196" lon="7.31363">
        <ele>2022</ele>
        <time>2025-06-13T11:36:12Z</time>
      </trkpt>
      <trkpt lat="44.10191" lon="7.3134">
        <ele>2024</ele>
        <time>2025-06-13T11:36:20Z</time>
      </trkpt>
      <trkpt lat="44.10185" lon="7.31345">
        <ele>2028</ele>
        <time>2025-06-13T11:36:24Z</time>
      </trkpt>
      <trkpt lat="44.10184" lon="7.31335">
        <ele>2028</ele>
        <time>2025-06-13T11:36:28Z</time>
      </trkpt>
      <trkpt lat="44.10174" lon="7.31339">
        <ele>2033</ele>
        <time>2025-06-13T11:36:33Z</time>
      </trkpt>
      <trkpt lat="44.10178" lon="7.31323">
        <ele>2031</ele>
        <time>2025-06-13T11:36:39Z</time>
      </trkpt>
      <trkpt lat="44.10156" lon="7.31303">
        <ele>2042</ele>
        <time>2025-06-13T11:36:52Z</time>
      </trkpt>
      <trkpt lat="44.10107" lon="7.31212">
        <ele>2058</ele>
        <time>2025-06-13T11:37:33Z</time>
      </trkpt>
      <trkpt lat="44.10096" lon="7.31214">
        <ele>2063</ele>
        <time>2025-06-13T11:37:38Z</time>
      </trkpt>
      <trkpt lat="44.10092" lon="7.31208">
        <ele>2064</ele>
        <time>2025-06-13T11:37:41Z</time>
      </trkpt>
      <trkpt lat="44.10081" lon="7.31223">
        <ele>2069</ele>
        <time>2025-06-13T11:37:49Z</time>
      </trkpt>
      <trkpt lat="44.10079" lon="7.31238">
        <ele>2070</ele>
        <time>2025-06-13T11:37:54Z</time>
      </trkpt>
      <trkpt lat="44.10074" lon="7.31248">
        <ele>2073</ele>
        <time>2025-06-13T11:37:59Z</time>
      </trkpt>
      <trkpt lat="44.10069" lon="7.31219">
        <ele>2075</ele>
        <time>2025-06-13T11:38:10Z</time>
      </trkpt>
      <trkpt lat="44.10054" lon="7.31189">
        <ele>2082</ele>
        <time>2025-06-13T11:38:23Z</time>
      </trkpt>
      <trkpt lat="44.10036" lon="7.31207">
        <ele>2091</ele>
        <time>2025-06-13T11:38:34Z</time>
      </trkpt>
      <trkpt lat="44.10025" lon="7.31178">
        <ele>2097</ele>
        <time>2025-06-13T11:38:46Z</time>
      </trkpt>
      <trkpt lat="44.10014" lon="7.3118">
        <ele>2102</ele>
        <time>2025-06-13T11:38:51Z</time>
      </trkpt>
      <trkpt lat="44.10009" lon="7.31147">
        <ele>2106</ele>
        <time>2025-06-13T11:39:03Z</time>
      </trkpt>
      <trkpt lat="44.09996" lon="7.31162">
        <ele>2110</ele>
        <time>2025-06-13T11:39:12Z</time>
      </trkpt>
      <trkpt lat="44.09983" lon="7.31137">
        <ele>2113</ele>
        <time>2025-06-13T11:39:23Z</time>
      </trkpt>
      <trkpt lat="44.09984" lon="7.31111">
        <ele>2115</ele>
        <time>2025-06-13T11:39:32Z</time>
      </trkpt>
      <trkpt lat="44.0997" lon="7.311">
        <ele>2117</ele>
        <time>2025-06-13T11:39:40Z</time>
      </trkpt>
      <trkpt lat="44.09961" lon="7.31079">
        <ele>2119</ele>
        <time>2025-06-13T11:39:49Z</time>
      </trkpt>
      <trkpt lat="44.0996" lon="7.31072">
        <ele>2119</ele>
        <time>2025-06-13T11:39:52Z</time>
      </trkpt>
      <trkpt lat="44.09952" lon="7.3106">
        <ele>2120</ele>
        <time>2025-06-13T11:39:57Z</time>
      </trkpt>
      <trkpt lat="44.09941" lon="7.31049">
        <ele>2121</ele>
        <time>2025-06-13T11:40:04Z</time>
      </trkpt>
      <trkpt lat="44.09916" lon="7.31033">
        <ele>2123</ele>
        <time>2025-06-13T11:40:18Z</time>
      </trkpt>
      <trkpt lat="44.09898" lon="7.31019">
        <ele>2119</ele>
        <time>2025-06-13T11:40:28Z</time>
      </trkpt>
      <trkpt lat="44.09892" lon="7.31012">
        <ele>2118</ele>
        <time>2025-06-13T11:40:32Z</time>
      </trkpt>
      <trkpt lat="44.09884" lon="7.31001">
        <ele>2116</ele>
        <time>2025-06-13T11:40:38Z</time>
      </trkpt>
      <trkpt lat="44.09876" lon="7.30993">
        <ele>2115</ele>
        <time>2025-06-13T11:40:43Z</time>
      </trkpt>
      <trkpt lat="44.09872" lon="7.30965">
        <ele>2115</ele>
        <time>2025-06-13T11:40:53Z</time>
      </trkpt>
      <trkpt lat="44.09868" lon="7.30995">
        <ele>2113</ele>
        <time>2025-06-13T11:41:04Z</time>
      </trkpt>
      <trkpt lat="44.09872" lon="7.30965">
        <ele>2115</ele>
        <time>2025-06-13T11:41:15Z</time>
      </trkpt>
      <trkpt lat="44.09868" lon="7.30953">
        <ele>2115</ele>
        <time>2025-06-13T11:41:20Z</time>
      </trkpt>
      <trkpt lat="44.09867" lon="7.30929">
        <ele>2116</ele>
        <time>2025-06-13T11:41:28Z</time>
      </trkpt>
      <trkpt lat="44.09863" lon="7.30883">
        <ele>2120</ele>
        <time>2025-06-13T11:41:45Z</time>
      </trkpt>
      <trkpt lat="44.0986" lon="7.3086">
        <ele>2124</ele>
        <time>2025-06-13T11:41:53Z</time>
      </trkpt>
      <trkpt lat="44.09855" lon="7.30814">
        <ele>2132</ele>
        <time>2025-06-13T11:42:10Z</time>
      </trkpt>
      <trkpt lat="44.0984" lon="7.30749">
        <ele>2148</ele>
        <time>2025-06-13T11:42:35Z</time>
      </trkpt>
      <trkpt lat="44.09823" lon="7.30724">
        <ele>2153</ele>
        <time>2025-06-13T11:42:47Z</time>
      </trkpt>
      <trkpt lat="44.09814" lon="7.30701">
        <ele>2157</ele>
        <time>2025-06-13T11:42:56Z</time>
      </trkpt>
      <trkpt lat="44.09805" lon="7.30669">
        <ele>2164</ele>
        <time>2025-06-13T11:43:09Z</time>
      </trkpt>
      <trkpt lat="44.09798" lon="7.30658">
        <ele>2166</ele>
        <time>2025-06-13T11:43:14Z</time>
      </trkpt>
      <trkpt lat="44.0979" lon="7.30635">
        <ele>2170</ele>
        <time>2025-06-13T11:43:23Z</time>
      </trkpt>
      <trkpt lat="44.09796" lon="7.30614">
        <ele>2174</ele>
        <time>2025-06-13T11:43:31Z</time>
      </trkpt>
      <trkpt lat="44.09795" lon="7.30596">
        <ele>2177</ele>
        <time>2025-06-13T11:43:38Z</time>
      </trkpt>
      <trkpt lat="44.09799" lon="7.30574">
        <ele>2180</ele>
        <time>2025-06-13T11:43:46Z</time>
      </trkpt>
      <trkpt lat="44.09803" lon="7.30558">
        <ele>2181</ele>
        <time>2025-06-13T11:43:52Z</time>
      </trkpt>
      <trkpt lat="44.09809" lon="7.30546">
        <ele>2182</ele>
        <time>2025-06-13T11:43:57Z</time>
      </trkpt>
      <trkpt lat="44.09812" lon="7.30529">
        <ele>2184</ele>
        <time>2025-06-13T11:44:04Z</time>
      </trkpt>
      <trkpt lat="44.0981" lon="7.30515">
        <ele>2184</ele>
        <time>2025-06-13T11:44:09Z</time>
      </trkpt>
      <trkpt lat="44.09814" lon="7.30507">
        <ele>2186</ele>
        <time>2025-06-13T11:44:12Z</time>
      </trkpt>
      <trkpt lat="44.0981" lon="7.30485">
        <ele>2184</ele>
        <time>2025-06-13T11:44:20Z</time>
      </trkpt>
      <trkpt lat="44.09817" lon="7.30464">
        <ele>2184</ele>
        <time>2025-06-13T11:44:29Z</time>
      </trkpt>
      <trkpt lat="44.09817" lon="7.30445">
        <ele>2182</ele>
        <time>2025-06-13T11:44:36Z</time>
      </trkpt>
      <trkpt lat="44.09824" lon="7.30424">
        <ele>2183</ele>
        <time>2025-06-13T11:44:44Z</time>
      </trkpt>
      <trkpt lat="44.0983" lon="7.30396">
        <ele>2183</ele>
        <time>2025-06-13T11:44:54Z</time>
      </trkpt>
      <trkpt lat="44.09838" lon="7.30375">
        <ele>2183</ele>
        <time>2025-06-13T11:45:03Z</time>
      </trkpt>
      <trkpt lat="44.09841" lon="7.30362">
        <ele>2182</ele>
        <time>2025-06-13T11:45:08Z</time>
      </trkpt>
      <trkpt lat="44.09845" lon="7.30353">
        <ele>2182</ele>
        <time>2025-06-13T11:45:12Z</time>
      </trkpt>
      <trkpt lat="44.09843" lon="7.30339">
        <ele>2181</ele>
        <time>2025-06-13T11:45:17Z</time>
      </trkpt>
      <trkpt lat="44.09845" lon="7.30324">
        <ele>2181</ele>
        <time>2025-06-13T11:45:22Z</time>
      </trkpt>
      <trkpt lat="44.09846" lon="7.30294">
        <ele>2182</ele>
        <time>2025-06-13T11:45:33Z</time>
      </trkpt>
      <trkpt lat="44.09849" lon="7.30265">
        <ele>2183</ele>
        <time>2025-06-13T11:45:44Z</time>
      </trkpt>
      <trkpt lat="44.09851" lon="7.30225">
        <ele>2182</ele>
        <time>2025-06-13T11:45:58Z</time>
      </trkpt>
      <trkpt lat="44.09849" lon="7.3021">
        <ele>2181</ele>
        <time>2025-06-13T11:46:04Z</time>
      </trkpt>
      <trkpt lat="44.0985" lon="7.30175">
        <ele>2178</ele>
        <time>2025-06-13T11:46:16Z</time>
      </trkpt>
      <trkpt lat="44.09855" lon="7.30164">
        <ele>2177</ele>
        <time>2025-06-13T11:46:21Z</time>
      </trkpt>
      <trkpt lat="44.09856" lon="7.30156">
        <ele>2176</ele>
        <time>2025-06-13T11:46:24Z</time>
      </trkpt>
      <trkpt lat="44.09855" lon="7.30149">
        <ele>2176</ele>
        <time>2025-06-13T11:46:26Z</time>
      </trkpt>
      <trkpt lat="44.09848" lon="7.30122">
        <ele>2176</ele>
        <time>2025-06-13T11:46:37Z</time>
      </trkpt>
      <trkpt lat="44.09845" lon="7.30106">
        <ele>2176</ele>
        <time>2025-06-13T11:46:43Z</time>
      </trkpt>
      <trkpt lat="44.09845" lon="7.30099">
        <ele>2176</ele>
        <time>2025-06-13T11:46:45Z</time>
      </trkpt>
      <trkpt lat="44.09842" lon="7.30089">
        <ele>2176</ele>
        <time>2025-06-13T11:46:49Z</time>
      </trkpt>
      <trkpt lat="44.09839" lon="7.30066">
        <ele>2177</ele>
        <time>2025-06-13T11:46:57Z</time>
      </trkpt>
      <trkpt lat="44.09838" lon="7.30045">
        <ele>2179</ele>
        <time>2025-06-13T11:47:05Z</time>
      </trkpt>
      <trkpt lat="44.09835" lon="7.30032">
        <ele>2180</ele>
        <time>2025-06-13T11:47:10Z</time>
      </trkpt>
      <trkpt lat="44.09836" lon="7.29991">
        <ele>2183</ele>
        <time>2025-06-13T11:47:25Z</time>
      </trkpt>
      <trkpt lat="44.09833" lon="7.29974">
        <ele>2185</ele>
        <time>2025-06-13T11:47:31Z</time>
      </trkpt>
      <trkpt lat="44.09838" lon="7.29945">
        <ele>2187</ele>
        <time>2025-06-13T11:47:42Z</time>
      </trkpt>
      <trkpt lat="44.09819" lon="7.29877">
        <ele>2189</ele>
        <time>2025-06-13T11:48:08Z</time>
      </trkpt>
      <trkpt lat="44.09814" lon="7.29855">
        <ele>2187</ele>
        <time>2025-06-13T11:48:16Z</time>
      </trkpt>
      <trkpt lat="44.09812" lon="7.29826">
        <ele>2187</ele>
        <time>2025-06-13T11:48:27Z</time>
      </trkpt>
      <trkpt lat="44.09816" lon="7.29784">
        <ele>2188</ele>
        <time>2025-06-13T11:48:42Z</time>
      </trkpt>
      <trkpt lat="44.09822" lon="7.29752">
        <ele>2189</ele>
        <time>2025-06-13T11:48:54Z</time>
      </trkpt>
      <trkpt lat="44.09823" lon="7.29715">
        <ele>2198</ele>
        <time>2025-06-13T11:49:07Z</time>
      </trkpt>
      <trkpt lat="44.09855" lon="7.2962">
        <ele>2219</ele>
        <time>2025-06-13T11:49:45Z</time>
      </trkpt>
      <trkpt lat="44.09862" lon="7.29573">
        <ele>2225</ele>
        <time>2025-06-13T11:50:02Z</time>
      </trkpt>
      <trkpt lat="44.09863" lon="7.29547">
        <ele>2227</ele>
        <time>2025-06-13T11:50:11Z</time>
      </trkpt>
      <trkpt lat="44.09867" lon="7.29505">
        <ele>2230</ele>
        <time>2025-06-13T11:50:27Z</time>
      </trkpt>
      <trkpt lat="44.09868" lon="7.2937">
        <ele>2251</ele>
        <time>2025-06-13T11:51:15Z</time>
      </trkpt>
      <trkpt lat="44.09845" lon="7.29245">
        <ele>2276</ele>
        <time>2025-06-13T11:52:01Z</time>
      </trkpt>
      <trkpt lat="44.09839" lon="7.29202">
        <ele>2285</ele>
        <time>2025-06-13T11:52:17Z</time>
      </trkpt>
      <trkpt lat="44.09832" lon="7.29188">
        <ele>2287</ele>
        <time>2025-06-13T11:52:23Z</time>
      </trkpt>
      <trkpt lat="44.09829" lon="7.29169">
        <ele>2289</ele>
        <time>2025-06-13T11:52:30Z</time>
      </trkpt>
      <trkpt lat="44.09826" lon="7.29159">
        <ele>2289</ele>
        <time>2025-06-13T11:52:34Z</time>
      </trkpt>
      <trkpt lat="44.09818" lon="7.2915">
        <ele>2285</ele>
        <time>2025-06-13T11:52:39Z</time>
      </trkpt>
      <trkpt lat="44.09814" lon="7.29065">
        <ele>2291</ele>
        <time>2025-06-13T11:53:10Z</time>
      </trkpt>
      <trkpt lat="44.09811" lon="7.29051">
        <ele>2289</ele>
        <time>2025-06-13T11:53:15Z</time>
      </trkpt>
      <trkpt lat="44.0983" lon="7.28988">
        <ele>2299</ele>
        <time>2025-06-13T11:53:40Z</time>
      </trkpt>
      <trkpt lat="44.09841" lon="7.28947">
        <ele>2295</ele>
        <time>2025-06-13T11:53:55Z</time>
      </trkpt>
      <trkpt lat="44.09847" lon="7.28887">
        <ele>2286</ele>
        <time>2025-06-13T11:54:17Z</time>
      </trkpt>
      <trkpt lat="44.09861" lon="7.28825">
        <ele>2274</ele>
        <time>2025-06-13T11:54:41Z</time>
      </trkpt>
      <trkpt lat="44.09865" lon="7.28818">
        <ele>2273</ele>
        <time>2025-06-13T11:54:44Z</time>
      </trkpt>
      <trkpt lat="44.09839" lon="7.28625">
        <ele>2271</ele>
        <time>2025-06-13T11:55:54Z</time>
      </trkpt>
      <trkpt lat="44.09793" lon="7.28513">
        <ele>2245</ele>
        <time>2025-06-13T11:56:41Z</time>
      </trkpt>
      <trkpt lat="44.09792" lon="7.28486">
        <ele>2240</ele>
        <time>2025-06-13T11:56:50Z</time>
      </trkpt>
      <trkpt lat="44.09782" lon="7.28466">
        <ele>2235</ele>
        <time>2025-06-13T11:56:59Z</time>
      </trkpt>
      <trkpt lat="44.09752" lon="7.28426">
        <ele>2236</ele>
        <time>2025-06-13T11:57:20Z</time>
      </trkpt>
      <trkpt lat="44.09747" lon="7.28413">
        <ele>2234</ele>
        <time>2025-06-13T11:57:25Z</time>
      </trkpt>
      <trkpt lat="44.09733" lon="7.28396">
        <ele>2226</ele>
        <time>2025-06-13T11:57:35Z</time>
      </trkpt>
      <trkpt lat="44.0971" lon="7.28368">
        <ele>2216</ele>
        <time>2025-06-13T11:57:50Z</time>
      </trkpt>
      <trkpt lat="44.09675" lon="7.28286">
        <ele>2203</ele>
        <time>2025-06-13T11:58:24Z</time>
      </trkpt>
      <trkpt lat="44.09671" lon="7.28229">
        <ele>2195</ele>
        <time>2025-06-13T11:58:45Z</time>
      </trkpt>
      <trkpt lat="44.09681" lon="7.28189">
        <ele>2188</ele>
        <time>2025-06-13T11:59:00Z</time>
      </trkpt>
      <trkpt lat="44.09677" lon="7.28165">
        <ele>2186</ele>
        <time>2025-06-13T11:59:09Z</time>
      </trkpt>
      <trkpt lat="44.09661" lon="7.28106">
        <ele>2185</ele>
        <time>2025-06-13T11:59:31Z</time>
      </trkpt>
      <trkpt lat="44.09649" lon="7.28094">
        <ele>2182</ele>
        <time>2025-06-13T11:59:39Z</time>
      </trkpt>
      <trkpt lat="44.09621" lon="7.2807">
        <ele>2176</ele>
        <time>2025-06-13T11:59:55Z</time>
      </trkpt>
      <trkpt lat="44.09613" lon="7.28043">
        <ele>2176</ele>
        <time>2025-06-13T12:00:06Z</time>
      </trkpt>
      <trkpt lat="44.09601" lon="7.2802">
        <ele>2176</ele>
        <time>2025-06-13T12:00:16Z</time>
      </trkpt>
      <trkpt lat="44.09593" lon="7.27997">
        <ele>2177</ele>
        <time>2025-06-13T12:00:25Z</time>
      </trkpt>
      <trkpt lat="44.09566" lon="7.2795">
        <ele>2169</ele>
        <time>2025-06-13T12:00:47Z</time>
      </trkpt>
      <trkpt lat="44.09552" lon="7.27917">
        <ele>2166</ele>
        <time>2025-06-13T12:01:01Z</time>
      </trkpt>
      <trkpt lat="44.09533" lon="7.27884">
        <ele>2160</ele>
        <time>2025-06-13T12:01:16Z</time>
      </trkpt>
      <trkpt lat="44.09529" lon="7.2787">
        <ele>2159</ele>
        <time>2025-06-13T12:01:21Z</time>
      </trkpt>
      <trkpt lat="44.0951" lon="7.27837">
        <ele>2157</ele>
        <time>2025-06-13T12:01:36Z</time>
      </trkpt>
      <trkpt lat="44.09496" lon="7.27819">
        <ele>2155</ele>
        <time>2025-06-13T12:01:46Z</time>
      </trkpt>
      <trkpt lat="44.09482" lon="7.27796">
        <ele>2150</ele>
        <time>2025-06-13T12:01:57Z</time>
      </trkpt>
      <trkpt lat="44.09476" lon="7.27766">
        <ele>2147</ele>
        <time>2025-06-13T12:02:08Z</time>
      </trkpt>
      <trkpt lat="44.09474" lon="7.27737">
        <ele>2144</ele>
        <time>2025-06-13T12:02:18Z</time>
      </trkpt>
      <trkpt lat="44.09469" lon="7.27708">
        <ele>2140</ele>
        <time>2025-06-13T12:02:29Z</time>
      </trkpt>
      <trkpt lat="44.09473" lon="7.2769">
        <ele>2139</ele>
        <time>2025-06-13T12:02:36Z</time>
      </trkpt>
      <trkpt lat="44.09473" lon="7.27676">
        <ele>2137</ele>
        <time>2025-06-13T12:02:41Z</time>
      </trkpt>
      <trkpt lat="44.09471" lon="7.27657">
        <ele>2135</ele>
        <time>2025-06-13T12:02:48Z</time>
      </trkpt>
      <trkpt lat="44.09467" lon="7.27644">
        <ele>2133</ele>
        <time>2025-06-13T12:02:53Z</time>
      </trkpt>
      <trkpt lat="44.09469" lon="7.27619">
        <ele>2130</ele>
        <time>2025-06-13T12:03:02Z</time>
      </trkpt>
      <trkpt lat="44.09466" lon="7.27601">
        <ele>2128</ele>
        <time>2025-06-13T12:03:09Z</time>
      </trkpt>
      <trkpt lat="44.09457" lon="7.27584">
        <ele>2124</ele>
        <time>2025-06-13T12:03:16Z</time>
      </trkpt>
      <trkpt lat="44.09452" lon="7.27546">
        <ele>2116</ele>
        <time>2025-06-13T12:03:30Z</time>
      </trkpt>
      <trkpt lat="44.09421" lon="7.2754">
        <ele>2110</ele>
        <time>2025-06-13T12:03:46Z</time>
      </trkpt>
      <trkpt lat="44.09418" lon="7.27531">
        <ele>2109</ele>
        <time>2025-06-13T12:03:49Z</time>
      </trkpt>
      <trkpt lat="44.09405" lon="7.27496">
        <ele>2098</ele>
        <time>2025-06-13T12:04:04Z</time>
      </trkpt>
      <trkpt lat="44.09373" lon="7.27451">
        <ele>2076</ele>
        <time>2025-06-13T12:04:26Z</time>
      </trkpt>
      <trkpt lat="44.09371" lon="7.27434">
        <ele>2073</ele>
        <time>2025-06-13T12:04:33Z</time>
      </trkpt>
      <trkpt lat="44.09367" lon="7.27424">
        <ele>2070</ele>
        <time>2025-06-13T12:04:37Z</time>
      </trkpt>
      <trkpt lat="44.09344" lon="7.27398">
        <ele>2060</ele>
        <time>2025-06-13T12:04:51Z</time>
      </trkpt>
      <trkpt lat="44.09343" lon="7.27406">
        <ele>2062</ele>
        <time>2025-06-13T12:04:54Z</time>
      </trkpt>
      <trkpt lat="44.09333" lon="7.27398">
        <ele>2058</ele>
        <time>2025-06-13T12:05:00Z</time>
      </trkpt>
      <trkpt lat="44.09327" lon="7.27372">
        <ele>2052</ele>
        <time>2025-06-13T12:05:10Z</time>
      </trkpt>
      <trkpt lat="44.09313" lon="7.2734">
        <ele>2044</ele>
        <time>2025-06-13T12:05:23Z</time>
      </trkpt>
      <trkpt lat="44.09272" lon="7.27307">
        <ele>2025</ele>
        <time>2025-06-13T12:05:47Z</time>
      </trkpt>
      <trkpt lat="44.09206" lon="7.27227">
        <ele>2001</ele>
        <time>2025-06-13T12:06:31Z</time>
      </trkpt>
      <trkpt lat="44.09167" lon="7.27193">
        <ele>1992</ele>
        <time>2025-06-13T12:06:54Z</time>
      </trkpt>
      <trkpt lat="44.0916" lon="7.27171">
        <ele>1989</ele>
        <time>2025-06-13T12:07:03Z</time>
      </trkpt>
      <trkpt lat="44.09148" lon="7.27167">
        <ele>1983</ele>
        <time>2025-06-13T12:07:09Z</time>
      </trkpt>
      <trkpt lat="44.09151" lon="7.2715">
        <ele>1980</ele>
        <time>2025-06-13T12:07:15Z</time>
      </trkpt>
      <trkpt lat="44.09125" lon="7.27147">
        <ele>1967</ele>
        <time>2025-06-13T12:07:28Z</time>
      </trkpt>
      <trkpt lat="44.09128" lon="7.27134">
        <ele>1966</ele>
        <time>2025-06-13T12:07:33Z</time>
      </trkpt>
      <trkpt lat="44.09092" lon="7.27116">
        <ele>1948</ele>
        <time>2025-06-13T12:07:52Z</time>
      </trkpt>
      <trkpt lat="44.0912" lon="7.27088">
        <ele>1953</ele>
        <time>2025-06-13T12:08:09Z</time>
      </trkpt>
      <trkpt lat="44.09047" lon="7.27036">
        <ele>1916</ele>
        <time>2025-06-13T12:08:50Z</time>
      </trkpt>
      <trkpt lat="44.0903" lon="7.27011">
        <ele>1909</ele>
        <time>2025-06-13T12:09:03Z</time>
      </trkpt>
      <trkpt lat="44.08996" lon="7.26998">
        <ele>1899</ele>
        <time>2025-06-13T12:09:20Z</time>
      </trkpt>
      <trkpt lat="44.08974" lon="7.26984">
        <ele>1882</ele>
        <time>2025-06-13T12:09:33Z</time>
      </trkpt>
      <trkpt lat="44.08955" lon="7.27007">
        <ele>1877</ele>
        <time>2025-06-13T12:09:45Z</time>
      </trkpt>
      <trkpt lat="44.0895" lon="7.26994">
        <ele>1872</ele>
        <time>2025-06-13T12:09:50Z</time>
      </trkpt>
      <trkpt lat="44.0897" lon="7.26935">
        <ele>1864</ele>
        <time>2025-06-13T12:10:14Z</time>
      </trkpt>
      <trkpt lat="44.08964" lon="7.26932">
        <ele>1860</ele>
        <time>2025-06-13T12:10:17Z</time>
      </trkpt>
      <trkpt lat="44.08958" lon="7.26937">
        <ele>1858</ele>
        <time>2025-06-13T12:10:21Z</time>
      </trkpt>
      <trkpt lat="44.08956" lon="7.2692">
        <ele>1852</ele>
        <time>2025-06-13T12:10:27Z</time>
      </trkpt>
      <trkpt lat="44.08957" lon="7.269">
        <ele>1845</ele>
        <time>2025-06-13T12:10:34Z</time>
      </trkpt>
      <trkpt lat="44.08961" lon="7.26889">
        <ele>1842</ele>
        <time>2025-06-13T12:10:38Z</time>
      </trkpt>
      <trkpt lat="44.08947" lon="7.26882">
        <ele>1834</ele>
        <time>2025-06-13T12:10:46Z</time>
      </trkpt>
      <trkpt lat="44.08951" lon="7.26867">
        <ele>1830</ele>
        <time>2025-06-13T12:10:52Z</time>
      </trkpt>
      <trkpt lat="44.08936" lon="7.26856">
        <ele>1824</ele>
        <time>2025-06-13T12:11:00Z</time>
      </trkpt>
      <trkpt lat="44.08939" lon="7.26841">
        <ele>1820</ele>
        <time>2025-06-13T12:11:06Z</time>
      </trkpt>
      <trkpt lat="44.08902" lon="7.26815">
        <ele>1802</ele>
        <time>2025-06-13T12:11:26Z</time>
      </trkpt>
      <trkpt lat="44.08896" lon="7.26809">
        <ele>1797</ele>
        <time>2025-06-13T12:11:30Z</time>
      </trkpt>
      <trkpt lat="44.08889" lon="7.26819">
        <ele>1794</ele>
        <time>2025-06-13T12:11:35Z</time>
      </trkpt>
      <trkpt lat="44.08881" lon="7.26819">
        <ele>1789</ele>
        <time>2025-06-13T12:11:39Z</time>
      </trkpt>
      <trkpt lat="44.08879" lon="7.26806">
        <ele>1785</ele>
        <time>2025-06-13T12:11:44Z</time>
      </trkpt>
      <trkpt lat="44.08862" lon="7.26816">
        <ele>1776</ele>
        <time>2025-06-13T12:11:53Z</time>
      </trkpt>
      <trkpt lat="44.08866" lon="7.26773">
        <ele>1774</ele>
        <time>2025-06-13T12:12:09Z</time>
      </trkpt>
      <trkpt lat="44.08857" lon="7.26757">
        <ele>1768</ele>
        <time>2025-06-13T12:12:16Z</time>
      </trkpt>
      <trkpt lat="44.08847" lon="7.26765">
        <ele>1764</ele>
        <time>2025-06-13T12:12:22Z</time>
      </trkpt>
      <trkpt lat="44.08836" lon="7.26734">
        <ele>1754</ele>
        <time>2025-06-13T12:12:34Z</time>
      </trkpt>
      <trkpt lat="44.08831" lon="7.26737">
        <ele>1753</ele>
        <time>2025-06-13T12:12:37Z</time>
      </trkpt>
      <trkpt lat="44.08803" lon="7.2672">
        <ele>1737</ele>
        <time>2025-06-13T12:12:52Z</time>
      </trkpt>
      <trkpt lat="44.08781" lon="7.2672">
        <ele>1728</ele>
        <time>2025-06-13T12:13:03Z</time>
      </trkpt>
      <trkpt lat="44.08775" lon="7.26698">
        <ele>1726</ele>
        <time>2025-06-13T12:13:12Z</time>
      </trkpt>
      <trkpt lat="44.08775" lon="7.26682">
        <ele>1726</ele>
        <time>2025-06-13T12:13:17Z</time>
      </trkpt>
      <trkpt lat="44.08784" lon="7.26662">
        <ele>1725</ele>
        <time>2025-06-13T12:13:26Z</time>
      </trkpt>
      <trkpt lat="44.0876" lon="7.26649">
        <ele>1720</ele>
        <time>2025-06-13T12:13:39Z</time>
      </trkpt>
      <trkpt lat="44.08754" lon="7.26638">
        <ele>1718</ele>
        <time>2025-06-13T12:13:44Z</time>
      </trkpt>
      <trkpt lat="44.08764" lon="7.26616">
        <ele>1712</ele>
        <time>2025-06-13T12:13:53Z</time>
      </trkpt>
      <trkpt lat="44.08767" lon="7.26614">
        <ele>1712</ele>
        <time>2025-06-13T12:13:55Z</time>
      </trkpt>
      <trkpt lat="44.08783" lon="7.26601">
        <ele>1708</ele>
        <time>2025-06-13T12:14:04Z</time>
      </trkpt>
      <trkpt lat="44.08794" lon="7.26605">
        <ele>1708</ele>
        <time>2025-06-13T12:14:10Z</time>
      </trkpt>
      <trkpt lat="44.08824" lon="7.26578">
        <ele>1697</ele>
        <time>2025-06-13T12:14:28Z</time>
      </trkpt>
      <trkpt lat="44.08876" lon="7.26524">
        <ele>1663</ele>
        <time>2025-06-13T12:15:00Z</time>
      </trkpt>
      <trkpt lat="44.08967" lon="7.26447">
        <ele>1633</ele>
        <time>2025-06-13T12:15:53Z</time>
      </trkpt>
      <trkpt lat="44.08996" lon="7.2637">
        <ele>1602</ele>
        <time>2025-06-13T12:16:25Z</time>
      </trkpt>
      <trkpt lat="44.09" lon="7.26351">
        <ele>1593</ele>
        <time>2025-06-13T12:16:32Z</time>
      </trkpt>
      <trkpt lat="44.09006" lon="7.26325">
        <ele>1580</ele>
        <time>2025-06-13T12:16:42Z</time>
      </trkpt>
      <trkpt lat="44.08992" lon="7.26327">
        <ele>1580</ele>
        <time>2025-06-13T12:16:49Z</time>
      </trkpt>
      <trkpt lat="44.08982" lon="7.26325">
        <ele>1577</ele>
        <time>2025-06-13T12:16:54Z</time>
      </trkpt>
      <trkpt lat="44.08986" lon="7.26318">
        <ele>1574</ele>
        <time>2025-06-13T12:16:57Z</time>
      </trkpt>
      <trkpt lat="44.08971" lon="7.26316">
        <ele>1569</ele>
        <time>2025-06-13T12:17:04Z</time>
      </trkpt>
      <trkpt lat="44.08961" lon="7.26323">
        <ele>1571</ele>
        <time>2025-06-13T12:17:10Z</time>
      </trkpt>
      <trkpt lat="44.08932" lon="7.26332">
        <ele>1569</ele>
        <time>2025-06-13T12:17:25Z</time>
      </trkpt>
      <trkpt lat="44.0884" lon="7.26311">
        <ele>1541</ele>
        <time>2025-06-13T12:18:12Z</time>
      </trkpt>
      <trkpt lat="44.08833" lon="7.26274">
        <ele>1523</ele>
        <time>2025-06-13T12:18:25Z</time>
      </trkpt>
      <trkpt lat="44.0881" lon="7.26238">
        <ele>1508</ele>
        <time>2025-06-13T12:18:43Z</time>
      </trkpt>
      <trkpt lat="44.08812" lon="7.26228">
        <ele>1504</ele>
        <time>2025-06-13T12:18:46Z</time>
      </trkpt>
      <trkpt lat="44.08801" lon="7.2621">
        <ele>1496</ele>
        <time>2025-06-13T12:18:55Z</time>
      </trkpt>
      <trkpt lat="44.08785" lon="7.26211">
        <ele>1497</ele>
        <time>2025-06-13T12:19:03Z</time>
      </trkpt>
      <trkpt lat="44.08762" lon="7.26205">
        <ele>1494</ele>
        <time>2025-06-13T12:19:15Z</time>
      </trkpt>
      <trkpt lat="44.08744" lon="7.26197">
        <ele>1490</ele>
        <time>2025-06-13T12:19:24Z</time>
      </trkpt>
      <trkpt lat="44.0873" lon="7.26186">
        <ele>1484</ele>
        <time>2025-06-13T12:19:32Z</time>
      </trkpt>
      <trkpt lat="44.0872" lon="7.26185">
        <ele>1483</ele>
        <time>2025-06-13T12:19:37Z</time>
      </trkpt>
      <trkpt lat="44.08708" lon="7.26179">
        <ele>1480</ele>
        <time>2025-06-13T12:19:44Z</time>
      </trkpt>
      <trkpt lat="44.08705" lon="7.26174">
        <ele>1477</ele>
        <time>2025-06-13T12:19:46Z</time>
      </trkpt>
      <trkpt lat="44.08687" lon="7.26178">
        <ele>1479</ele>
        <time>2025-06-13T12:19:55Z</time>
      </trkpt>
      <trkpt lat="44.08668" lon="7.26178">
        <ele>1478</ele>
        <time>2025-06-13T12:20:04Z</time>
      </trkpt>
      <trkpt lat="44.08625" lon="7.26159">
        <ele>1474</ele>
        <time>2025-06-13T12:20:27Z</time>
      </trkpt>
      <trkpt lat="44.08609" lon="7.26149">
        <ele>1472</ele>
        <time>2025-06-13T12:20:36Z</time>
      </trkpt>
      <trkpt lat="44.08599" lon="7.26146">
        <ele>1473</ele>
        <time>2025-06-13T12:20:41Z</time>
      </trkpt>
      <trkpt lat="44.0859" lon="7.2614">
        <ele>1472</ele>
        <time>2025-06-13T12:20:46Z</time>
      </trkpt>
      <trkpt lat="44.08572" lon="7.26113">
        <ele>1463</ele>
        <time>2025-06-13T12:20:59Z</time>
      </trkpt>
      <trkpt lat="44.0856" lon="7.26102">
        <ele>1460</ele>
        <time>2025-06-13T12:21:06Z</time>
      </trkpt>
      <trkpt lat="44.08478" lon="7.25991">
        <ele>1427</ele>
        <time>2025-06-13T12:22:04Z</time>
      </trkpt>
      <trkpt lat="44.08431" lon="7.25966">
        <ele>1415</ele>
        <time>2025-06-13T12:22:29Z</time>
      </trkpt>
      <trkpt lat="44.08363" lon="7.25926">
        <ele>1399</ele>
        <time>2025-06-13T12:23:06Z</time>
      </trkpt>
      <trkpt lat="44.08304" lon="7.25898">
        <ele>1385</ele>
        <time>2025-06-13T12:23:37Z</time>
      </trkpt>
      <trkpt lat="44.08279" lon="7.25893">
        <ele>1380</ele>
        <time>2025-06-13T12:23:50Z</time>
      </trkpt>
      <trkpt lat="44.08273" lon="7.25889">
        <ele>1378</ele>
        <time>2025-06-13T12:23:53Z</time>
      </trkpt>
      <trkpt lat="44.08268" lon="7.25886">
        <ele>1376</ele>
        <time>2025-06-13T12:23:56Z</time>
      </trkpt>
      <trkpt lat="44.08273" lon="7.25889">
        <ele>1378</ele>
        <time>2025-06-13T12:23:58Z</time>
      </trkpt>
      <trkpt lat="44.08223" lon="7.25896">
        <ele>1374</ele>
        <time>2025-06-13T12:24:24Z</time>
      </trkpt>
      <trkpt lat="44.08194" lon="7.25899">
        <ele>1370</ele>
        <time>2025-06-13T12:24:38Z</time>
      </trkpt>
      <trkpt lat="44.08163" lon="7.25897">
        <ele>1364</ele>
        <time>2025-06-13T12:24:54Z</time>
      </trkpt>
      <trkpt lat="44.08107" lon="7.25909">
        <ele>1359</ele>
        <time>2025-06-13T12:25:22Z</time>
      </trkpt>
      <trkpt lat="44.08084" lon="7.25912">
        <ele>1355</ele>
        <time>2025-06-13T12:25:33Z</time>
      </trkpt>
      <trkpt lat="44.08013" lon="7.25907">
        <ele>1339</ele>
        <time>2025-06-13T12:26:09Z</time>
      </trkpt>
      <trkpt lat="44.07993" lon="7.25911">
        <ele>1336</ele>
        <time>2025-06-13T12:26:19Z</time>
      </trkpt>
      <trkpt lat="44.07983" lon="7.25915">
        <ele>1335</ele>
        <time>2025-06-13T12:26:24Z</time>
      </trkpt>
      <trkpt lat="44.07956" lon="7.25941">
        <ele>1333</ele>
        <time>2025-06-13T12:26:41Z</time>
      </trkpt>
      <trkpt lat="44.07947" lon="7.25947">
        <ele>1331</ele>
        <time>2025-06-13T12:26:46Z</time>
      </trkpt>
      <trkpt lat="44.0791" lon="7.25958">
        <ele>1319</ele>
        <time>2025-06-13T12:27:05Z</time>
      </trkpt>
      <trkpt lat="44.07901" lon="7.25959">
        <ele>1316</ele>
        <time>2025-06-13T12:27:09Z</time>
      </trkpt>
      <trkpt lat="44.07894" lon="7.25954">
        <ele>1314</ele>
        <time>2025-06-13T12:27:13Z</time>
      </trkpt>
      <trkpt lat="44.07879" lon="7.25932">
        <ele>1312</ele>
        <time>2025-06-13T12:27:24Z</time>
      </trkpt>
      <trkpt lat="44.0783" lon="7.25898">
        <ele>1305</ele>
        <time>2025-06-13T12:27:52Z</time>
      </trkpt>
      <trkpt lat="44.07827" lon="7.25901">
        <ele>1304</ele>
        <time>2025-06-13T12:27:53Z</time>
      </trkpt>
      <trkpt lat="44.07811" lon="7.259">
        <ele>1300</ele>
        <time>2025-06-13T12:28:01Z</time>
      </trkpt>
      <trkpt lat="44.07755" lon="7.25864">
        <ele>1286</ele>
        <time>2025-06-13T12:28:32Z</time>
      </trkpt>
      <trkpt lat="44.07744" lon="7.25863">
        <ele>1282</ele>
        <time>2025-06-13T12:28:38Z</time>
      </trkpt>
      <trkpt lat="44.07752" lon="7.25874">
        <ele>1285</ele>
        <time>2025-06-13T12:28:43Z</time>
      </trkpt>
      <trkpt lat="44.07744" lon="7.25882">
        <ele>1282</ele>
        <time>2025-06-13T12:28:48Z</time>
      </trkpt>
      <trkpt lat="44.07718" lon="7.25867">
        <ele>1271</ele>
        <time>2025-06-13T12:29:02Z</time>
      </trkpt>
      <trkpt lat="44.07694" lon="7.25859">
        <ele>1261</ele>
        <time>2025-06-13T12:29:15Z</time>
      </trkpt>
      <trkpt lat="44.0768" lon="7.2587">
        <ele>1255</ele>
        <time>2025-06-13T12:29:23Z</time>
      </trkpt>
      <trkpt lat="44.07688" lon="7.25892">
        <ele>1257</ele>
        <time>2025-06-13T12:29:32Z</time>
      </trkpt>
      <trkpt lat="44.07691" lon="7.25899">
        <ele>1258</ele>
        <time>2025-06-13T12:29:35Z</time>
      </trkpt>
      <trkpt lat="44.07671" lon="7.25897">
        <ele>1250</ele>
        <time>2025-06-13T12:29:45Z</time>
      </trkpt>
      <trkpt lat="44.07668" lon="7.25909">
        <ele>1248</ele>
        <time>2025-06-13T12:29:49Z</time>
      </trkpt>
      <trkpt lat="44.07648" lon="7.25898">
        <ele>1238</ele>
        <time>2025-06-13T12:30:00Z</time>
      </trkpt>
      <trkpt lat="44.07638" lon="7.25886">
        <ele>1234</ele>
        <time>2025-06-13T12:30:07Z</time>
      </trkpt>
      <trkpt lat="44.07632" lon="7.25882">
        <ele>1231</ele>
        <time>2025-06-13T12:30:10Z</time>
      </trkpt>
      <trkpt lat="44.0762" lon="7.25879">
        <ele>1225</ele>
        <time>2025-06-13T12:30:16Z</time>
      </trkpt>
      <trkpt lat="44.07614" lon="7.25856">
        <ele>1222</ele>
        <time>2025-06-13T12:30:25Z</time>
      </trkpt>
      <trkpt lat="44.07605" lon="7.25864">
        <ele>1217</ele>
        <time>2025-06-13T12:30:30Z</time>
      </trkpt>
      <trkpt lat="44.07597" lon="7.25838">
        <ele>1213</ele>
        <time>2025-06-13T12:30:40Z</time>
      </trkpt>
      <trkpt lat="44.07618" lon="7.25802">
        <ele>1220</ele>
        <time>2025-06-13T12:30:57Z</time>
      </trkpt>
      <trkpt lat="44.07617" lon="7.25777">
        <ele>1217</ele>
        <time>2025-06-13T12:31:06Z</time>
      </trkpt>
      <trkpt lat="44.07608" lon="7.25751">
        <ele>1208</ele>
        <time>2025-06-13T12:31:16Z</time>
      </trkpt>
      <trkpt lat="44.07595" lon="7.25681">
        <ele>1206</ele>
        <time>2025-06-13T12:31:42Z</time>
      </trkpt>
      <trkpt lat="44.07581" lon="7.25654">
        <ele>1199</ele>
        <time>2025-06-13T12:31:54Z</time>
      </trkpt>
      <trkpt lat="44.07573" lon="7.25635">
        <ele>1193</ele>
        <time>2025-06-13T12:32:02Z</time>
      </trkpt>
      <trkpt lat="44.07575" lon="7.25607">
        <ele>1191</ele>
        <time>2025-06-13T12:32:12Z</time>
      </trkpt>
      <trkpt lat="44.07584" lon="7.25587">
        <ele>1196</ele>
        <time>2025-06-13T12:32:21Z</time>
      </trkpt>
      <trkpt lat="44.07614" lon="7.25556">
        <ele>1195</ele>
        <time>2025-06-13T12:32:40Z</time>
      </trkpt>
      <trkpt lat="44.07619" lon="7.25537">
        <ele>1189</ele>
        <time>2025-06-13T12:32:47Z</time>
      </trkpt>
      <trkpt lat="44.07646" lon="7.25515">
        <ele>1187</ele>
        <time>2025-06-13T12:33:02Z</time>
      </trkpt>
      <trkpt lat="44.07677" lon="7.25506">
        <ele>1191</ele>
        <time>2025-06-13T12:33:18Z</time>
      </trkpt>
      <trkpt lat="44.07654" lon="7.25491">
        <ele>1179</ele>
        <time>2025-06-13T12:33:31Z</time>
      </trkpt>
      <trkpt lat="44.07664" lon="7.25477">
        <ele>1176</ele>
        <time>2025-06-13T12:33:38Z</time>
      </trkpt>
      <trkpt lat="44.07644" lon="7.25474">
        <ele>1169</ele>
        <time>2025-06-13T12:33:48Z</time>
      </trkpt>
      <trkpt lat="44.07657" lon="7.25457">
        <ele>1166</ele>
        <time>2025-06-13T12:33:57Z</time>
      </trkpt>
      <trkpt lat="44.07654" lon="7.25453">
        <ele>1164</ele>
        <time>2025-06-13T12:33:59Z</time>
      </trkpt>
      <trkpt lat="44.0766" lon="7.25446">
        <ele>1163</ele>
        <time>2025-06-13T12:34:03Z</time>
      </trkpt>
      <trkpt lat="44.07657" lon="7.25436">
        <ele>1158</ele>
        <time>2025-06-13T12:34:07Z</time>
      </trkpt>
      <trkpt lat="44.07661" lon="7.25411">
        <ele>1149</ele>
        <time>2025-06-13T12:34:16Z</time>
      </trkpt>
      <trkpt lat="44.07666" lon="7.25398">
        <ele>1147</ele>
        <time>2025-06-13T12:34:22Z</time>
      </trkpt>
      <trkpt lat="44.07668" lon="7.25382">
        <ele>1142</ele>
        <time>2025-06-13T12:34:27Z</time>
      </trkpt>
      <trkpt lat="44.07684" lon="7.25353">
        <ele>1135</ele>
        <time>2025-06-13T12:34:40Z</time>
      </trkpt>
      <trkpt lat="44.0766" lon="7.25346">
        <ele>1125</ele>
        <time>2025-06-13T12:34:53Z</time>
      </trkpt>
      <trkpt lat="44.07636" lon="7.25355">
        <ele>1117</ele>
        <time>2025-06-13T12:35:05Z</time>
      </trkpt>
      <trkpt lat="44.0763" lon="7.25373">
        <ele>1122</ele>
        <time>2025-06-13T12:35:12Z</time>
      </trkpt>
      <trkpt lat="44.07616" lon="7.25397">
        <ele>1125</ele>
        <time>2025-06-13T12:35:23Z</time>
      </trkpt>
      <trkpt lat="44.07595" lon="7.25401">
        <ele>1118</ele>
        <time>2025-06-13T12:35:34Z</time>
      </trkpt>
      <trkpt lat="44.07575" lon="7.25392">
        <ele>1105</ele>
        <time>2025-06-13T12:35:45Z</time>
      </trkpt>
      <trkpt lat="44.07543" lon="7.25407">
        <ele>1096</ele>
        <time>2025-06-13T12:36:01Z</time>
      </trkpt>
      <trkpt lat="44.07522" lon="7.2543">
        <ele>1095</ele>
        <time>2025-06-13T12:36:15Z</time>
      </trkpt>
      <trkpt lat="44.07511" lon="7.25428">
        <ele>1089</ele>
        <time>2025-06-13T12:36:20Z</time>
      </trkpt>
      <trkpt lat="44.07498" lon="7.25435">
        <ele>1085</ele>
        <time>2025-06-13T12:36:27Z</time>
      </trkpt>
      <trkpt lat="44.07486" lon="7.25436">
        <ele>1080</ele>
        <time>2025-06-13T12:36:33Z</time>
      </trkpt>
      <trkpt lat="44.07469" lon="7.25449">
        <ele>1076</ele>
        <time>2025-06-13T12:36:43Z</time>
      </trkpt>
      <trkpt lat="44.07468" lon="7.25444">
        <ele>1074</ele>
        <time>2025-06-13T12:36:45Z</time>
      </trkpt>
      <trkpt lat="44.07471" lon="7.25438">
        <ele>1073</ele>
        <time>2025-06-13T12:36:48Z</time>
      </trkpt>
      <trkpt lat="44.07461" lon="7.2544">
        <ele>1069</ele>
        <time>2025-06-13T12:36:53Z</time>
      </trkpt>
      <trkpt lat="44.07458" lon="7.25437">
        <ele>1067</ele>
        <time>2025-06-13T12:36:54Z</time>
      </trkpt>
      <trkpt lat="44.07453" lon="7.25441">
        <ele>1066</ele>
        <time>2025-06-13T12:36:57Z</time>
      </trkpt>
      <trkpt lat="44.0745" lon="7.25434">
        <ele>1062</ele>
        <time>2025-06-13T12:37:00Z</time>
      </trkpt>
      <trkpt lat="44.07446" lon="7.25436">
        <ele>1061</ele>
        <time>2025-06-13T12:37:02Z</time>
      </trkpt>
      <trkpt lat="44.07446" lon="7.25429">
        <ele>1059</ele>
        <time>2025-06-13T12:37:05Z</time>
      </trkpt>
      <trkpt lat="44.07439" lon="7.25442">
        <ele>1060</ele>
        <time>2025-06-13T12:37:11Z</time>
      </trkpt>
      <trkpt lat="44.07421" lon="7.25461">
        <ele>1057</ele>
        <time>2025-06-13T12:37:22Z</time>
      </trkpt>
      <trkpt lat="44.07412" lon="7.25467">
        <ele>1055</ele>
        <time>2025-06-13T12:37:27Z</time>
      </trkpt>
      <trkpt lat="44.07408" lon="7.25463">
        <ele>1052</ele>
        <time>2025-06-13T12:37:30Z</time>
      </trkpt>
      <trkpt lat="44.07403" lon="7.25463">
        <ele>1051</ele>
        <time>2025-06-13T12:37:32Z</time>
      </trkpt>
      <trkpt lat="44.07399" lon="7.25466">
        <ele>1050</ele>
        <time>2025-06-13T12:37:34Z</time>
      </trkpt>
      <trkpt lat="44.07385" lon="7.25487">
        <ele>1051</ele>
        <time>2025-06-13T12:37:45Z</time>
      </trkpt>
      <trkpt lat="44.0738" lon="7.25493">
        <ele>1050</ele>
        <time>2025-06-13T12:37:48Z</time>
      </trkpt>
      <trkpt lat="44.07363" lon="7.25501">
        <ele>1045</ele>
        <time>2025-06-13T12:37:57Z</time>
      </trkpt>
      <trkpt lat="44.07349" lon="7.25504">
        <ele>1040</ele>
        <time>2025-06-13T12:38:04Z</time>
      </trkpt>
      <trkpt lat="44.07332" lon="7.25503">
        <ele>1033</ele>
        <time>2025-06-13T12:38:13Z</time>
      </trkpt>
      <trkpt lat="44.07331" lon="7.255">
        <ele>1032</ele>
        <time>2025-06-13T12:38:14Z</time>
      </trkpt>
      <trkpt lat="44.07316" lon="7.25501">
        <ele>1026</ele>
        <time>2025-06-13T12:38:21Z</time>
      </trkpt>
      <trkpt lat="44.07312" lon="7.25491">
        <ele>1023</ele>
        <time>2025-06-13T12:38:25Z</time>
      </trkpt>
      <trkpt lat="44.07308" lon="7.25463">
        <ele>1017</ele>
        <time>2025-06-13T12:38:36Z</time>
      </trkpt>
      <trkpt lat="44.07302" lon="7.25457">
        <ele>1014</ele>
        <time>2025-06-13T12:38:39Z</time>
      </trkpt>
      <trkpt lat="44.07298" lon="7.25463">
        <ele>1013</ele>
        <time>2025-06-13T12:38:42Z</time>
      </trkpt>
      <trkpt lat="44.07294" lon="7.25463">
        <ele>1012</ele>
        <time>2025-06-13T12:38:44Z</time>
      </trkpt>
      <trkpt lat="44.07296" lon="7.2546">
        <ele>1012</ele>
        <time>2025-06-13T12:38:46Z</time>
      </trkpt>
      <trkpt lat="44.07294" lon="7.25463">
        <ele>1012</ele>
        <time>2025-06-13T12:38:47Z</time>
      </trkpt>
      <trkpt lat="44.07267" lon="7.2553">
        <ele>1009</ele>
        <time>2025-06-13T12:39:15Z</time>
      </trkpt>
      <trkpt lat="44.07241" lon="7.25596">
        <ele>1006</ele>
        <time>2025-06-13T12:39:42Z</time>
      </trkpt>
      <trkpt lat="44.07215" lon="7.2565">
        <ele>1002</ele>
        <time>2025-06-13T12:40:05Z</time>
      </trkpt>
      <trkpt lat="44.07202" lon="7.25665">
        <ele>999</ele>
        <time>2025-06-13T12:40:14Z</time>
      </trkpt>
      <trkpt lat="44.0719" lon="7.25674">
        <ele>997</ele>
        <time>2025-06-13T12:40:21Z</time>
      </trkpt>
      <trkpt lat="44.0717" lon="7.25685">
        <ele>993</ele>
        <time>2025-06-13T12:40:31Z</time>
      </trkpt>
      <trkpt lat="44.07124" lon="7.25706">
        <ele>986</ele>
        <time>2025-06-13T12:40:55Z</time>
      </trkpt>
      <trkpt lat="44.0712" lon="7.25708">
        <ele>986</ele>
        <time>2025-06-13T12:40:58Z</time>
      </trkpt>
      <trkpt lat="44.07113" lon="7.25709">
        <ele>985</ele>
        <time>2025-06-13T12:41:01Z</time>
      </trkpt>
      <trkpt lat="44.07101" lon="7.2571">
        <ele>983</ele>
        <time>2025-06-13T12:41:07Z</time>
      </trkpt>
      <trkpt lat="44.07048" lon="7.25715">
        <ele>976</ele>
        <time>2025-06-13T12:41:34Z</time>
      </trkpt>
      <trkpt lat="44.07039" lon="7.25718">
        <ele>975</ele>
        <time>2025-06-13T12:41:38Z</time>
      </trkpt>
      <trkpt lat="44.07023" lon="7.25709">
        <ele>973</ele>
        <time>2025-06-13T12:41:47Z</time>
      </trkpt>
      <trkpt lat="44.0701" lon="7.25705">
        <ele>971</ele>
        <time>2025-06-13T12:41:54Z</time>
      </trkpt>
      <trkpt lat="44.06989" lon="7.25692">
        <ele>969</ele>
        <time>2025-06-13T12:42:05Z</time>
      </trkpt>
      <trkpt lat="44.06988" lon="7.25691">
        <ele>969</ele>
        <time>2025-06-13T12:42:06Z</time>
      </trkpt>
      <trkpt lat="44.06995" lon="7.25677">
        <ele>970</ele>
        <time>2025-06-13T12:42:12Z</time>
      </trkpt>
      <trkpt lat="44.06999" lon="7.25671">
        <ele>971</ele>
        <time>2025-06-13T12:42:15Z</time>
      </trkpt>
      <trkpt lat="44.06996" lon="7.25665">
        <ele>970</ele>
        <time>2025-06-13T12:42:17Z</time>
      </trkpt>
      <trkpt lat="44.06998" lon="7.25662">
        <ele>970</ele>
        <time>2025-06-13T12:42:19Z</time>
      </trkpt>
      <trkpt lat="44.07008" lon="7.25644">
        <ele>970</ele>
        <time>2025-06-13T12:42:27Z</time>
      </trkpt>
      <trkpt lat="44.07013" lon="7.25637">
        <ele>969</ele>
        <time>2025-06-13T12:42:31Z</time>
      </trkpt>
      <trkpt lat="44.07016" lon="7.25632">
        <ele>969</ele>
        <time>2025-06-13T12:42:33Z</time>
      </trkpt>
      <trkpt lat="44.07021" lon="7.25634">
        <ele>970</ele>
        <time>2025-06-13T12:42:36Z</time>
      </trkpt>
      <trkpt lat="44.07027" lon="7.25633">
        <ele>970</ele>
        <time>2025-06-13T12:42:39Z</time>
      </trkpt>
      <trkpt lat="44.0703" lon="7.2563">
        <ele>970</ele>
        <time>2025-06-13T12:42:41Z</time>
      </trkpt>
      <trkpt lat="44.07034" lon="7.25625">
        <ele>970</ele>
        <time>2025-06-13T12:42:43Z</time>
      </trkpt>
      <trkpt lat="44.07064" lon="7.25573">
        <ele>967</ele>
        <time>2025-06-13T12:43:07Z</time>
      </trkpt>
      <trkpt lat="44.07071" lon="7.25562">
        <ele>967</ele>
        <time>2025-06-13T12:43:12Z</time>
      </trkpt>
      <trkpt lat="44.07098" lon="7.25518">
        <ele>968</ele>
        <time>2025-06-13T12:43:33Z</time>
      </trkpt>
      <trkpt lat="44.07108" lon="7.255">
        <ele>969</ele>
        <time>2025-06-13T12:43:41Z</time>
      </trkpt>
      <trkpt lat="44.07122" lon="7.25469">
        <ele>969</ele>
        <time>2025-06-13T12:43:55Z</time>
      </trkpt>
      <trkpt lat="44.07134" lon="7.25443">
        <ele>970</ele>
        <time>2025-06-13T12:44:06Z</time>
      </trkpt>
      <trkpt lat="44.07141" lon="7.25429">
        <ele>970</ele>
        <time>2025-06-13T12:44:12Z</time>
      </trkpt>
      <trkpt lat="44.0715" lon="7.2542">
        <ele>971</ele>
        <time>2025-06-13T12:44:17Z</time>
      </trkpt>
    </trkseg>
  </trk>
</gpx>